<?xml version="1.0" encoding="UTF-8" standalone="no" ?>
<gpx xmlns="http://www.topografix.com/GPX/1/1" xmlns:xsi="http://www.w3.org/2001/XMLSchema-instance" xsi:schemaLocation="http://www.topografix.com/GPX/1/1 http://www.topografix.com/GPX/1/1/gpx.xsd" version="1.1" creator="VisuGPX - https://www.visugpx.com">
  <metadata>
    <name>Velaux</name>
    <desc><![CDATA[Pas grand intérêt à part celui de prendre l'air avec des amis !]]></desc>
  </metadata>
  <trk>
    <name><![CDATA[2022-02-13 16:15:27]]></name>
    <trkseg>
      <trkpt lat="43.53377" lon="5.2704">
        <ele>86.18</ele>
        <time>2022-02-13T10:28:38Z</time>
      </trkpt>
      <trkpt lat="43.53373" lon="5.27048">
        <ele>86.18</ele>
        <time>2022-02-13T10:28:50Z</time>
      </trkpt>
      <trkpt lat="43.53364" lon="5.27044">
        <ele>86.18</ele>
        <time>2022-02-13T10:28:56Z</time>
      </trkpt>
      <trkpt lat="43.53343" lon="5.27033">
        <ele>87.14</ele>
        <time>2022-02-13T10:29:10Z</time>
      </trkpt>
      <trkpt lat="43.53334" lon="5.27034">
        <ele>88.1</ele>
        <time>2022-02-13T10:29:20Z</time>
      </trkpt>
      <trkpt lat="43.53328" lon="5.27037">
        <ele>88.58</ele>
        <time>2022-02-13T10:29:30Z</time>
      </trkpt>
      <trkpt lat="43.53319" lon="5.2704">
        <ele>89.54</ele>
        <time>2022-02-13T10:29:41Z</time>
      </trkpt>
      <trkpt lat="43.53311" lon="5.27038">
        <ele>89.06</ele>
        <time>2022-02-13T10:29:52Z</time>
      </trkpt>
      <trkpt lat="43.53298" lon="5.27034">
        <ele>91.46</ele>
        <time>2022-02-13T10:30:03Z</time>
      </trkpt>
      <trkpt lat="43.53281" lon="5.27035">
        <ele>93.87</ele>
        <time>2022-02-13T10:30:17Z</time>
      </trkpt>
      <trkpt lat="43.53272" lon="5.27041">
        <ele>94.35</ele>
        <time>2022-02-13T10:30:29Z</time>
      </trkpt>
      <trkpt lat="43.53253" lon="5.27044">
        <ele>96.75</ele>
        <time>2022-02-13T10:30:42Z</time>
      </trkpt>
      <trkpt lat="43.53251" lon="5.27047">
        <ele>96.75</ele>
        <time>2022-02-13T10:30:44Z</time>
      </trkpt>
      <trkpt lat="43.53241" lon="5.27062">
        <ele>96.75</ele>
        <time>2022-02-13T10:30:56Z</time>
      </trkpt>
      <trkpt lat="43.53232" lon="5.27079">
        <ele>96.27</ele>
        <time>2022-02-13T10:31:11Z</time>
      </trkpt>
      <trkpt lat="43.53223" lon="5.27089">
        <ele>97.71</ele>
        <time>2022-02-13T10:31:23Z</time>
      </trkpt>
      <trkpt lat="43.53215" lon="5.27092">
        <ele>100.11</ele>
        <time>2022-02-13T10:31:35Z</time>
      </trkpt>
      <trkpt lat="43.53213" lon="5.27093">
        <ele>100.6</ele>
        <time>2022-02-13T10:31:38Z</time>
      </trkpt>
      <trkpt lat="43.53203" lon="5.27102">
        <ele>103</ele>
        <time>2022-02-13T10:31:49Z</time>
      </trkpt>
      <trkpt lat="43.53198" lon="5.27117">
        <ele>99.15</ele>
        <time>2022-02-13T10:31:57Z</time>
      </trkpt>
      <trkpt lat="43.53195" lon="5.27122">
        <ele>98.19</ele>
        <time>2022-02-13T10:32:01Z</time>
      </trkpt>
      <trkpt lat="43.53186" lon="5.27132">
        <ele>94.83</ele>
        <time>2022-02-13T10:32:13Z</time>
      </trkpt>
      <trkpt lat="43.53184" lon="5.27134">
        <ele>94.35</ele>
        <time>2022-02-13T10:32:15Z</time>
      </trkpt>
      <trkpt lat="43.5318" lon="5.27136">
        <ele>94.35</ele>
        <time>2022-02-13T10:32:20Z</time>
      </trkpt>
      <trkpt lat="43.5317" lon="5.27143">
        <ele>92.9</ele>
        <time>2022-02-13T10:32:30Z</time>
      </trkpt>
      <trkpt lat="43.53169" lon="5.27144">
        <ele>92.9</ele>
        <time>2022-02-13T10:32:31Z</time>
      </trkpt>
      <trkpt lat="43.5316" lon="5.27157">
        <ele>93.39</ele>
        <time>2022-02-13T10:32:43Z</time>
      </trkpt>
      <trkpt lat="43.53158" lon="5.27165">
        <ele>92.42</ele>
        <time>2022-02-13T10:32:57Z</time>
      </trkpt>
      <trkpt lat="43.53155" lon="5.2717">
        <ele>91.46</ele>
        <time>2022-02-13T10:33:07Z</time>
      </trkpt>
      <trkpt lat="43.53151" lon="5.27176">
        <ele>91.46</ele>
        <time>2022-02-13T10:33:14Z</time>
      </trkpt>
      <trkpt lat="43.53142" lon="5.27176">
        <ele>94.35</ele>
        <time>2022-02-13T10:33:24Z</time>
      </trkpt>
      <trkpt lat="43.53139" lon="5.27176">
        <ele>94.35</ele>
        <time>2022-02-13T10:33:27Z</time>
      </trkpt>
      <trkpt lat="43.53127" lon="5.27178">
        <ele>95.79</ele>
        <time>2022-02-13T10:33:39Z</time>
      </trkpt>
      <trkpt lat="43.53126" lon="5.27177">
        <ele>95.79</ele>
        <time>2022-02-13T10:33:40Z</time>
      </trkpt>
      <trkpt lat="43.53123" lon="5.27178">
        <ele>96.27</ele>
        <time>2022-02-13T10:33:43Z</time>
      </trkpt>
      <trkpt lat="43.53116" lon="5.27182">
        <ele>98.19</ele>
        <time>2022-02-13T10:33:53Z</time>
      </trkpt>
      <trkpt lat="43.53113" lon="5.27184">
        <ele>98.19</ele>
        <time>2022-02-13T10:33:57Z</time>
      </trkpt>
      <trkpt lat="43.53105" lon="5.27187">
        <ele>99.63</ele>
        <time>2022-02-13T10:34:06Z</time>
      </trkpt>
      <trkpt lat="43.53095" lon="5.27193">
        <ele>98.67</ele>
        <time>2022-02-13T10:34:19Z</time>
      </trkpt>
      <trkpt lat="43.53089" lon="5.27193">
        <ele>100.6</ele>
        <time>2022-02-13T10:34:28Z</time>
      </trkpt>
      <trkpt lat="43.53081" lon="5.27193">
        <ele>102.04</ele>
        <time>2022-02-13T10:34:38Z</time>
      </trkpt>
      <trkpt lat="43.53077" lon="5.27193">
        <ele>102.04</ele>
        <time>2022-02-13T10:34:41Z</time>
      </trkpt>
      <trkpt lat="43.53066" lon="5.27197">
        <ele>102.04</ele>
        <time>2022-02-13T10:34:52Z</time>
      </trkpt>
      <trkpt lat="43.53057" lon="5.27202">
        <ele>102.52</ele>
        <time>2022-02-13T10:35:02Z</time>
      </trkpt>
      <trkpt lat="43.53047" lon="5.27206">
        <ele>102.04</ele>
        <time>2022-02-13T10:35:14Z</time>
      </trkpt>
      <trkpt lat="43.53033" lon="5.2721">
        <ele>102.52</ele>
        <time>2022-02-13T10:35:27Z</time>
      </trkpt>
      <trkpt lat="43.53024" lon="5.27213">
        <ele>101.56</ele>
        <time>2022-02-13T10:35:36Z</time>
      </trkpt>
      <trkpt lat="43.53012" lon="5.27218">
        <ele>101.56</ele>
        <time>2022-02-13T10:35:47Z</time>
      </trkpt>
      <trkpt lat="43.5301" lon="5.27219">
        <ele>101.56</ele>
        <time>2022-02-13T10:35:49Z</time>
      </trkpt>
      <trkpt lat="43.52995" lon="5.27223">
        <ele>102.52</ele>
        <time>2022-02-13T10:36:03Z</time>
      </trkpt>
      <trkpt lat="43.52991" lon="5.27223">
        <ele>103</ele>
        <time>2022-02-13T10:36:07Z</time>
      </trkpt>
      <trkpt lat="43.52989" lon="5.27224">
        <ele>103</ele>
        <time>2022-02-13T10:36:09Z</time>
      </trkpt>
      <trkpt lat="43.52979" lon="5.27221">
        <ele>105.88</ele>
        <time>2022-02-13T10:36:20Z</time>
      </trkpt>
      <trkpt lat="43.52978" lon="5.2722">
        <ele>106.36</ele>
        <time>2022-02-13T10:36:21Z</time>
      </trkpt>
      <trkpt lat="43.52973" lon="5.27219">
        <ele>106.36</ele>
        <time>2022-02-13T10:36:26Z</time>
      </trkpt>
      <trkpt lat="43.52972" lon="5.27218">
        <ele>106.36</ele>
        <time>2022-02-13T10:36:27Z</time>
      </trkpt>
      <trkpt lat="43.52971" lon="5.27218">
        <ele>106.84</ele>
        <time>2022-02-13T10:36:28Z</time>
      </trkpt>
      <trkpt lat="43.52959" lon="5.27217">
        <ele>109.73</ele>
        <time>2022-02-13T10:36:39Z</time>
      </trkpt>
      <trkpt lat="43.52947" lon="5.27217">
        <ele>109.73</ele>
        <time>2022-02-13T10:36:50Z</time>
      </trkpt>
      <trkpt lat="43.52946" lon="5.27217">
        <ele>109.73</ele>
        <time>2022-02-13T10:36:51Z</time>
      </trkpt>
      <trkpt lat="43.52941" lon="5.27215">
        <ele>109.73</ele>
        <time>2022-02-13T10:36:57Z</time>
      </trkpt>
      <trkpt lat="43.52928" lon="5.27209">
        <ele>112.13</ele>
        <time>2022-02-13T10:37:10Z</time>
      </trkpt>
      <trkpt lat="43.52918" lon="5.2721">
        <ele>112.61</ele>
        <time>2022-02-13T10:37:20Z</time>
      </trkpt>
      <trkpt lat="43.52916" lon="5.27209">
        <ele>112.61</ele>
        <time>2022-02-13T10:37:22Z</time>
      </trkpt>
      <trkpt lat="43.52903" lon="5.27203">
        <ele>115.01</ele>
        <time>2022-02-13T10:37:35Z</time>
      </trkpt>
      <trkpt lat="43.52901" lon="5.27203">
        <ele>115.01</ele>
        <time>2022-02-13T10:37:36Z</time>
      </trkpt>
      <trkpt lat="43.52892" lon="5.27201">
        <ele>116.94</ele>
        <time>2022-02-13T10:37:49Z</time>
      </trkpt>
      <trkpt lat="43.52881" lon="5.27205">
        <ele>118.86</ele>
        <time>2022-02-13T10:38:04Z</time>
      </trkpt>
      <trkpt lat="43.52869" lon="5.27204">
        <ele>119.34</ele>
        <time>2022-02-13T10:38:15Z</time>
      </trkpt>
      <trkpt lat="43.52858" lon="5.27204">
        <ele>118.86</ele>
        <time>2022-02-13T10:38:24Z</time>
      </trkpt>
      <trkpt lat="43.52846" lon="5.27201">
        <ele>118.38</ele>
        <time>2022-02-13T10:38:37Z</time>
      </trkpt>
      <trkpt lat="43.52839" lon="5.272">
        <ele>116.94</ele>
        <time>2022-02-13T10:38:46Z</time>
      </trkpt>
      <trkpt lat="43.52827" lon="5.2719">
        <ele>120.3</ele>
        <time>2022-02-13T10:38:59Z</time>
      </trkpt>
      <trkpt lat="43.52826" lon="5.27189">
        <ele>120.3</ele>
        <time>2022-02-13T10:39:01Z</time>
      </trkpt>
      <trkpt lat="43.52824" lon="5.27187">
        <ele>119.82</ele>
        <time>2022-02-13T10:39:03Z</time>
      </trkpt>
      <trkpt lat="43.52814" lon="5.27183">
        <ele>119.34</ele>
        <time>2022-02-13T10:39:15Z</time>
      </trkpt>
      <trkpt lat="43.52806" lon="5.2718">
        <ele>119.34</ele>
        <time>2022-02-13T10:39:25Z</time>
      </trkpt>
      <trkpt lat="43.52796" lon="5.27177">
        <ele>119.82</ele>
        <time>2022-02-13T10:39:36Z</time>
      </trkpt>
      <trkpt lat="43.52792" lon="5.27176">
        <ele>120.78</ele>
        <time>2022-02-13T10:39:40Z</time>
      </trkpt>
      <trkpt lat="43.52782" lon="5.27173">
        <ele>120.78</ele>
        <time>2022-02-13T10:39:51Z</time>
      </trkpt>
      <trkpt lat="43.52779" lon="5.27172">
        <ele>120.78</ele>
        <time>2022-02-13T10:39:55Z</time>
      </trkpt>
      <trkpt lat="43.52776" lon="5.2717">
        <ele>120.3</ele>
        <time>2022-02-13T10:39:58Z</time>
      </trkpt>
      <trkpt lat="43.52766" lon="5.27164">
        <ele>118.86</ele>
        <time>2022-02-13T10:40:10Z</time>
      </trkpt>
      <trkpt lat="43.5276" lon="5.27161">
        <ele>116.94</ele>
        <time>2022-02-13T10:40:21Z</time>
      </trkpt>
      <trkpt lat="43.52759" lon="5.27159">
        <ele>116.46</ele>
        <time>2022-02-13T10:40:23Z</time>
      </trkpt>
      <trkpt lat="43.52749" lon="5.27146">
        <ele>115.5</ele>
        <time>2022-02-13T10:40:36Z</time>
      </trkpt>
      <trkpt lat="43.5274" lon="5.27134">
        <ele>115.98</ele>
        <time>2022-02-13T10:40:49Z</time>
      </trkpt>
      <trkpt lat="43.52731" lon="5.27125">
        <ele>117.9</ele>
        <time>2022-02-13T10:40:59Z</time>
      </trkpt>
      <trkpt lat="43.52722" lon="5.27117">
        <ele>118.86</ele>
        <time>2022-02-13T10:41:11Z</time>
      </trkpt>
      <trkpt lat="43.52714" lon="5.27114">
        <ele>119.82</ele>
        <time>2022-02-13T10:41:18Z</time>
      </trkpt>
      <trkpt lat="43.52712" lon="5.27114">
        <ele>119.34</ele>
        <time>2022-02-13T10:41:20Z</time>
      </trkpt>
      <trkpt lat="43.52699" lon="5.2711">
        <ele>118.86</ele>
        <time>2022-02-13T10:41:32Z</time>
      </trkpt>
      <trkpt lat="43.52688" lon="5.27106">
        <ele>119.34</ele>
        <time>2022-02-13T10:41:42Z</time>
      </trkpt>
      <trkpt lat="43.52684" lon="5.27106">
        <ele>119.34</ele>
        <time>2022-02-13T10:41:46Z</time>
      </trkpt>
      <trkpt lat="43.5268" lon="5.27104">
        <ele>119.34</ele>
        <time>2022-02-13T10:41:51Z</time>
      </trkpt>
      <trkpt lat="43.52669" lon="5.271">
        <ele>120.3</ele>
        <time>2022-02-13T10:42:00Z</time>
      </trkpt>
      <trkpt lat="43.52661" lon="5.271">
        <ele>119.82</ele>
        <time>2022-02-13T10:42:08Z</time>
      </trkpt>
      <trkpt lat="43.52648" lon="5.27095">
        <ele>119.34</ele>
        <time>2022-02-13T10:42:21Z</time>
      </trkpt>
      <trkpt lat="43.52638" lon="5.27093">
        <ele>117.9</ele>
        <time>2022-02-13T10:42:34Z</time>
      </trkpt>
      <trkpt lat="43.52621" lon="5.27088">
        <ele>120.78</ele>
        <time>2022-02-13T10:42:46Z</time>
      </trkpt>
      <trkpt lat="43.52614" lon="5.27087">
        <ele>121.74</ele>
        <time>2022-02-13T10:42:52Z</time>
      </trkpt>
      <trkpt lat="43.52601" lon="5.27083">
        <ele>123.67</ele>
        <time>2022-02-13T10:43:06Z</time>
      </trkpt>
      <trkpt lat="43.52595" lon="5.2708">
        <ele>123.19</ele>
        <time>2022-02-13T10:43:12Z</time>
      </trkpt>
      <trkpt lat="43.52584" lon="5.27075">
        <ele>119.82</ele>
        <time>2022-02-13T10:43:24Z</time>
      </trkpt>
      <trkpt lat="43.52572" lon="5.27072">
        <ele>119.82</ele>
        <time>2022-02-13T10:43:36Z</time>
      </trkpt>
      <trkpt lat="43.5256" lon="5.27066">
        <ele>123.67</ele>
        <time>2022-02-13T10:43:49Z</time>
      </trkpt>
      <trkpt lat="43.52552" lon="5.27062">
        <ele>124.15</ele>
        <time>2022-02-13T10:43:58Z</time>
      </trkpt>
      <trkpt lat="43.52548" lon="5.27059">
        <ele>124.15</ele>
        <time>2022-02-13T10:44:03Z</time>
      </trkpt>
      <trkpt lat="43.52542" lon="5.27059">
        <ele>125.59</ele>
        <time>2022-02-13T10:44:10Z</time>
      </trkpt>
      <trkpt lat="43.52539" lon="5.27058">
        <ele>126.55</ele>
        <time>2022-02-13T10:44:13Z</time>
      </trkpt>
      <trkpt lat="43.52537" lon="5.27058">
        <ele>126.55</ele>
        <time>2022-02-13T10:44:15Z</time>
      </trkpt>
      <trkpt lat="43.52524" lon="5.27052">
        <ele>125.59</ele>
        <time>2022-02-13T10:44:26Z</time>
      </trkpt>
      <trkpt lat="43.52523" lon="5.27053">
        <ele>125.59</ele>
        <time>2022-02-13T10:44:28Z</time>
      </trkpt>
      <trkpt lat="43.52515" lon="5.27047">
        <ele>126.55</ele>
        <time>2022-02-13T10:44:39Z</time>
      </trkpt>
      <trkpt lat="43.52507" lon="5.27044">
        <ele>126.07</ele>
        <time>2022-02-13T10:44:46Z</time>
      </trkpt>
      <trkpt lat="43.52503" lon="5.27044">
        <ele>125.11</ele>
        <time>2022-02-13T10:44:49Z</time>
      </trkpt>
      <trkpt lat="43.52501" lon="5.27044">
        <ele>124.63</ele>
        <time>2022-02-13T10:44:51Z</time>
      </trkpt>
      <trkpt lat="43.52488" lon="5.27038">
        <ele>125.59</ele>
        <time>2022-02-13T10:45:05Z</time>
      </trkpt>
      <trkpt lat="43.52482" lon="5.27038">
        <ele>126.07</ele>
        <time>2022-02-13T10:45:16Z</time>
      </trkpt>
      <trkpt lat="43.52479" lon="5.27036">
        <ele>127.03</ele>
        <time>2022-02-13T10:45:20Z</time>
      </trkpt>
      <trkpt lat="43.52471" lon="5.27032">
        <ele>127.51</ele>
        <time>2022-02-13T10:45:31Z</time>
      </trkpt>
      <trkpt lat="43.5247" lon="5.27032">
        <ele>127.51</ele>
        <time>2022-02-13T10:45:32Z</time>
      </trkpt>
      <trkpt lat="43.52467" lon="5.27029">
        <ele>127.51</ele>
        <time>2022-02-13T10:45:35Z</time>
      </trkpt>
      <trkpt lat="43.52464" lon="5.27029">
        <ele>127.03</ele>
        <time>2022-02-13T10:45:37Z</time>
      </trkpt>
      <trkpt lat="43.52458" lon="5.27029">
        <ele>126.07</ele>
        <time>2022-02-13T10:45:43Z</time>
      </trkpt>
      <trkpt lat="43.52456" lon="5.27029">
        <ele>126.07</ele>
        <time>2022-02-13T10:45:45Z</time>
      </trkpt>
      <trkpt lat="43.52443" lon="5.27028">
        <ele>125.11</ele>
        <time>2022-02-13T10:45:58Z</time>
      </trkpt>
      <trkpt lat="43.52431" lon="5.27027">
        <ele>127.51</ele>
        <time>2022-02-13T10:46:10Z</time>
      </trkpt>
      <trkpt lat="43.52429" lon="5.27028">
        <ele>128.47</ele>
        <time>2022-02-13T10:46:12Z</time>
      </trkpt>
      <trkpt lat="43.52424" lon="5.27031">
        <ele>129.92</ele>
        <time>2022-02-13T10:46:18Z</time>
      </trkpt>
      <trkpt lat="43.52415" lon="5.27038">
        <ele>131.84</ele>
        <time>2022-02-13T10:46:29Z</time>
      </trkpt>
      <trkpt lat="43.52407" lon="5.27051">
        <ele>132.8</ele>
        <time>2022-02-13T10:46:41Z</time>
      </trkpt>
      <trkpt lat="43.52399" lon="5.2706">
        <ele>133.28</ele>
        <time>2022-02-13T10:46:53Z</time>
      </trkpt>
      <trkpt lat="43.52398" lon="5.27061">
        <ele>133.76</ele>
        <time>2022-02-13T10:46:54Z</time>
      </trkpt>
      <trkpt lat="43.5239" lon="5.27067">
        <ele>137.61</ele>
        <time>2022-02-13T10:47:06Z</time>
      </trkpt>
      <trkpt lat="43.52382" lon="5.27075">
        <ele>141.45</ele>
        <time>2022-02-13T10:47:16Z</time>
      </trkpt>
      <trkpt lat="43.52381" lon="5.27077">
        <ele>141.93</ele>
        <time>2022-02-13T10:47:18Z</time>
      </trkpt>
      <trkpt lat="43.52379" lon="5.27083">
        <ele>141.93</ele>
        <time>2022-02-13T10:47:22Z</time>
      </trkpt>
      <trkpt lat="43.52371" lon="5.27095">
        <ele>144.34</ele>
        <time>2022-02-13T10:47:35Z</time>
      </trkpt>
      <trkpt lat="43.52369" lon="5.27096">
        <ele>144.34</ele>
        <time>2022-02-13T10:47:37Z</time>
      </trkpt>
      <trkpt lat="43.52362" lon="5.27112">
        <ele>144.34</ele>
        <time>2022-02-13T10:47:49Z</time>
      </trkpt>
      <trkpt lat="43.52355" lon="5.27123">
        <ele>144.82</ele>
        <time>2022-02-13T10:47:59Z</time>
      </trkpt>
      <trkpt lat="43.52347" lon="5.2714">
        <ele>146.26</ele>
        <time>2022-02-13T10:48:13Z</time>
      </trkpt>
      <trkpt lat="43.52347" lon="5.27141">
        <ele>146.26</ele>
        <time>2022-02-13T10:48:14Z</time>
      </trkpt>
      <trkpt lat="43.5234" lon="5.27156">
        <ele>146.26</ele>
        <time>2022-02-13T10:48:25Z</time>
      </trkpt>
      <trkpt lat="43.52334" lon="5.27169">
        <ele>146.26</ele>
        <time>2022-02-13T10:48:37Z</time>
      </trkpt>
      <trkpt lat="43.52327" lon="5.27175">
        <ele>145.78</ele>
        <time>2022-02-13T10:48:45Z</time>
      </trkpt>
      <trkpt lat="43.52318" lon="5.27186">
        <ele>146.26</ele>
        <time>2022-02-13T10:48:56Z</time>
      </trkpt>
      <trkpt lat="43.52318" lon="5.27187">
        <ele>146.74</ele>
        <time>2022-02-13T10:48:57Z</time>
      </trkpt>
      <trkpt lat="43.52314" lon="5.27192">
        <ele>146.74</ele>
        <time>2022-02-13T10:49:03Z</time>
      </trkpt>
      <trkpt lat="43.52303" lon="5.27204">
        <ele>150.58</ele>
        <time>2022-02-13T10:49:15Z</time>
      </trkpt>
      <trkpt lat="43.52297" lon="5.27215">
        <ele>152.03</ele>
        <time>2022-02-13T10:49:25Z</time>
      </trkpt>
      <trkpt lat="43.52295" lon="5.27218">
        <ele>151.06</ele>
        <time>2022-02-13T10:49:28Z</time>
      </trkpt>
      <trkpt lat="43.52287" lon="5.27233">
        <ele>149.62</ele>
        <time>2022-02-13T10:49:40Z</time>
      </trkpt>
      <trkpt lat="43.52285" lon="5.27239">
        <ele>148.66</ele>
        <time>2022-02-13T10:49:44Z</time>
      </trkpt>
      <trkpt lat="43.52282" lon="5.27247">
        <ele>148.18</ele>
        <time>2022-02-13T10:49:51Z</time>
      </trkpt>
      <trkpt lat="43.52273" lon="5.27263">
        <ele>148.18</ele>
        <time>2022-02-13T10:50:04Z</time>
      </trkpt>
      <trkpt lat="43.52271" lon="5.27267">
        <ele>147.7</ele>
        <time>2022-02-13T10:50:08Z</time>
      </trkpt>
      <trkpt lat="43.52265" lon="5.27281">
        <ele>149.14</ele>
        <time>2022-02-13T10:50:20Z</time>
      </trkpt>
      <trkpt lat="43.52262" lon="5.27284">
        <ele>149.62</ele>
        <time>2022-02-13T10:50:24Z</time>
      </trkpt>
      <trkpt lat="43.5226" lon="5.27286">
        <ele>149.62</ele>
        <time>2022-02-13T10:50:26Z</time>
      </trkpt>
      <trkpt lat="43.5225" lon="5.27305">
        <ele>147.22</ele>
        <time>2022-02-13T10:50:38Z</time>
      </trkpt>
      <trkpt lat="43.52244" lon="5.27319">
        <ele>142.89</ele>
        <time>2022-02-13T10:50:50Z</time>
      </trkpt>
      <trkpt lat="43.52243" lon="5.2732">
        <ele>142.41</ele>
        <time>2022-02-13T10:50:51Z</time>
      </trkpt>
      <trkpt lat="43.52237" lon="5.27327">
        <ele>142.41</ele>
        <time>2022-02-13T10:50:58Z</time>
      </trkpt>
      <trkpt lat="43.52226" lon="5.27339">
        <ele>142.41</ele>
        <time>2022-02-13T10:51:10Z</time>
      </trkpt>
      <trkpt lat="43.52224" lon="5.27345">
        <ele>141.93</ele>
        <time>2022-02-13T10:51:14Z</time>
      </trkpt>
      <trkpt lat="43.52221" lon="5.27352">
        <ele>141.45</ele>
        <time>2022-02-13T10:51:18Z</time>
      </trkpt>
      <trkpt lat="43.52221" lon="5.27356">
        <ele>141.45</ele>
        <time>2022-02-13T10:51:20Z</time>
      </trkpt>
      <trkpt lat="43.52223" lon="5.27375">
        <ele>137.61</ele>
        <time>2022-02-13T10:51:31Z</time>
      </trkpt>
      <trkpt lat="43.5223" lon="5.27393">
        <ele>136.64</ele>
        <time>2022-02-13T10:51:43Z</time>
      </trkpt>
      <trkpt lat="43.52236" lon="5.27408">
        <ele>137.13</ele>
        <time>2022-02-13T10:51:54Z</time>
      </trkpt>
      <trkpt lat="43.52239" lon="5.27421">
        <ele>137.61</ele>
        <time>2022-02-13T10:52:05Z</time>
      </trkpt>
      <trkpt lat="43.52241" lon="5.27434">
        <ele>138.09</ele>
        <time>2022-02-13T10:52:16Z</time>
      </trkpt>
      <trkpt lat="43.52241" lon="5.2744">
        <ele>139.05</ele>
        <time>2022-02-13T10:52:21Z</time>
      </trkpt>
      <trkpt lat="43.52242" lon="5.27454">
        <ele>140.97</ele>
        <time>2022-02-13T10:52:33Z</time>
      </trkpt>
      <trkpt lat="43.52243" lon="5.27458">
        <ele>140.97</ele>
        <time>2022-02-13T10:52:37Z</time>
      </trkpt>
      <trkpt lat="43.52248" lon="5.2747">
        <ele>141.93</ele>
        <time>2022-02-13T10:52:49Z</time>
      </trkpt>
      <trkpt lat="43.52254" lon="5.27481">
        <ele>142.41</ele>
        <time>2022-02-13T10:53:01Z</time>
      </trkpt>
      <trkpt lat="43.5226" lon="5.27493">
        <ele>144.34</ele>
        <time>2022-02-13T10:53:14Z</time>
      </trkpt>
      <trkpt lat="43.52263" lon="5.27503">
        <ele>147.22</ele>
        <time>2022-02-13T10:53:23Z</time>
      </trkpt>
      <trkpt lat="43.52264" lon="5.27509">
        <ele>148.66</ele>
        <time>2022-02-13T10:53:28Z</time>
      </trkpt>
      <trkpt lat="43.52274" lon="5.27522">
        <ele>150.1</ele>
        <time>2022-02-13T10:53:42Z</time>
      </trkpt>
      <trkpt lat="43.52278" lon="5.27531">
        <ele>152.51</ele>
        <time>2022-02-13T10:53:51Z</time>
      </trkpt>
      <trkpt lat="43.52282" lon="5.27545">
        <ele>153.47</ele>
        <time>2022-02-13T10:54:05Z</time>
      </trkpt>
      <trkpt lat="43.52283" lon="5.27558">
        <ele>154.43</ele>
        <time>2022-02-13T10:54:17Z</time>
      </trkpt>
      <trkpt lat="43.52282" lon="5.27561">
        <ele>154.43</ele>
        <time>2022-02-13T10:54:20Z</time>
      </trkpt>
      <trkpt lat="43.52285" lon="5.27575">
        <ele>156.83</ele>
        <time>2022-02-13T10:54:32Z</time>
      </trkpt>
      <trkpt lat="43.52286" lon="5.27578">
        <ele>157.31</ele>
        <time>2022-02-13T10:54:34Z</time>
      </trkpt>
      <trkpt lat="43.52291" lon="5.27594">
        <ele>158.75</ele>
        <time>2022-02-13T10:54:47Z</time>
      </trkpt>
      <trkpt lat="43.52296" lon="5.27606">
        <ele>160.68</ele>
        <time>2022-02-13T10:54:57Z</time>
      </trkpt>
      <trkpt lat="43.52301" lon="5.27619">
        <ele>161.64</ele>
        <time>2022-02-13T10:55:09Z</time>
      </trkpt>
      <trkpt lat="43.52305" lon="5.27629">
        <ele>162.6</ele>
        <time>2022-02-13T10:55:20Z</time>
      </trkpt>
      <trkpt lat="43.52309" lon="5.27639">
        <ele>162.6</ele>
        <time>2022-02-13T10:55:29Z</time>
      </trkpt>
      <trkpt lat="43.52314" lon="5.27642">
        <ele>162.6</ele>
        <time>2022-02-13T10:55:35Z</time>
      </trkpt>
      <trkpt lat="43.52319" lon="5.27643">
        <ele>162.6</ele>
        <time>2022-02-13T10:55:39Z</time>
      </trkpt>
      <trkpt lat="43.5233" lon="5.27639">
        <ele>164.04</ele>
        <time>2022-02-13T10:55:52Z</time>
      </trkpt>
      <trkpt lat="43.52332" lon="5.27638">
        <ele>164.04</ele>
        <time>2022-02-13T10:55:54Z</time>
      </trkpt>
      <trkpt lat="43.52342" lon="5.27631">
        <ele>164.52</ele>
        <time>2022-02-13T10:56:07Z</time>
      </trkpt>
      <trkpt lat="43.52343" lon="5.27631">
        <ele>165</ele>
        <time>2022-02-13T10:56:08Z</time>
      </trkpt>
      <trkpt lat="43.52358" lon="5.27622">
        <ele>170.29</ele>
        <time>2022-02-13T10:56:23Z</time>
      </trkpt>
      <trkpt lat="43.52365" lon="5.27618">
        <ele>172.21</ele>
        <time>2022-02-13T10:56:30Z</time>
      </trkpt>
      <trkpt lat="43.52371" lon="5.27614">
        <ele>172.21</ele>
        <time>2022-02-13T10:56:36Z</time>
      </trkpt>
      <trkpt lat="43.52385" lon="5.27605">
        <ele>171.25</ele>
        <time>2022-02-13T10:56:51Z</time>
      </trkpt>
      <trkpt lat="43.52397" lon="5.27602">
        <ele>170.77</ele>
        <time>2022-02-13T10:57:04Z</time>
      </trkpt>
      <trkpt lat="43.52405" lon="5.276">
        <ele>170.77</ele>
        <time>2022-02-13T10:57:12Z</time>
      </trkpt>
      <trkpt lat="43.5242" lon="5.27599">
        <ele>171.73</ele>
        <time>2022-02-13T10:57:25Z</time>
      </trkpt>
      <trkpt lat="43.52433" lon="5.276">
        <ele>170.77</ele>
        <time>2022-02-13T10:57:38Z</time>
      </trkpt>
      <trkpt lat="43.52442" lon="5.27603">
        <ele>170.29</ele>
        <time>2022-02-13T10:57:48Z</time>
      </trkpt>
      <trkpt lat="43.52453" lon="5.27606">
        <ele>169.33</ele>
        <time>2022-02-13T10:57:59Z</time>
      </trkpt>
      <trkpt lat="43.52466" lon="5.27612">
        <ele>165.96</ele>
        <time>2022-02-13T10:58:13Z</time>
      </trkpt>
      <trkpt lat="43.52467" lon="5.27614">
        <ele>165.96</ele>
        <time>2022-02-13T10:58:15Z</time>
      </trkpt>
      <trkpt lat="43.52478" lon="5.27621">
        <ele>164.52</ele>
        <time>2022-02-13T10:58:28Z</time>
      </trkpt>
      <trkpt lat="43.52478" lon="5.27622">
        <ele>163.56</ele>
        <time>2022-02-13T10:58:49Z</time>
      </trkpt>
      <trkpt lat="43.52479" lon="5.27623">
        <ele>163.08</ele>
        <time>2022-02-13T10:58:58Z</time>
      </trkpt>
      <trkpt lat="43.52475" lon="5.27624">
        <ele>166.93</ele>
        <time>2022-02-13T10:59:12Z</time>
      </trkpt>
      <trkpt lat="43.52477" lon="5.27623">
        <ele>166.93</ele>
        <time>2022-02-13T10:59:35Z</time>
      </trkpt>
      <trkpt lat="43.5248" lon="5.27626">
        <ele>165.48</ele>
        <time>2022-02-13T10:59:41Z</time>
      </trkpt>
      <trkpt lat="43.52487" lon="5.27635">
        <ele>164.52</ele>
        <time>2022-02-13T10:59:51Z</time>
      </trkpt>
      <trkpt lat="43.52494" lon="5.27643">
        <ele>167.41</ele>
        <time>2022-02-13T11:00:02Z</time>
      </trkpt>
      <trkpt lat="43.52499" lon="5.27648">
        <ele>168.37</ele>
        <time>2022-02-13T11:00:08Z</time>
      </trkpt>
      <trkpt lat="43.52505" lon="5.27655">
        <ele>169.81</ele>
        <time>2022-02-13T11:00:16Z</time>
      </trkpt>
      <trkpt lat="43.52514" lon="5.27666">
        <ele>168.85</ele>
        <time>2022-02-13T11:00:29Z</time>
      </trkpt>
      <trkpt lat="43.52523" lon="5.27675">
        <ele>168.85</ele>
        <time>2022-02-13T11:00:40Z</time>
      </trkpt>
      <trkpt lat="43.52525" lon="5.27677">
        <ele>168.85</ele>
        <time>2022-02-13T11:00:42Z</time>
      </trkpt>
      <trkpt lat="43.52531" lon="5.27689">
        <ele>167.89</ele>
        <time>2022-02-13T11:00:54Z</time>
      </trkpt>
      <trkpt lat="43.52535" lon="5.27694">
        <ele>168.37</ele>
        <time>2022-02-13T11:01:06Z</time>
      </trkpt>
      <trkpt lat="43.52539" lon="5.27702">
        <ele>168.85</ele>
        <time>2022-02-13T11:01:30Z</time>
      </trkpt>
      <trkpt lat="43.52544" lon="5.27711">
        <ele>170.29</ele>
        <time>2022-02-13T11:01:39Z</time>
      </trkpt>
      <trkpt lat="43.52547" lon="5.27718">
        <ele>171.25</ele>
        <time>2022-02-13T11:01:45Z</time>
      </trkpt>
      <trkpt lat="43.52549" lon="5.27724">
        <ele>171.25</ele>
        <time>2022-02-13T11:01:49Z</time>
      </trkpt>
      <trkpt lat="43.52549" lon="5.27726">
        <ele>171.25</ele>
        <time>2022-02-13T11:01:51Z</time>
      </trkpt>
      <trkpt lat="43.5255" lon="5.27733">
        <ele>172.21</ele>
        <time>2022-02-13T11:01:57Z</time>
      </trkpt>
      <trkpt lat="43.52553" lon="5.27747">
        <ele>171.25</ele>
        <time>2022-02-13T11:02:07Z</time>
      </trkpt>
      <trkpt lat="43.52556" lon="5.27765">
        <ele>169.33</ele>
        <time>2022-02-13T11:02:19Z</time>
      </trkpt>
      <trkpt lat="43.52557" lon="5.27782">
        <ele>169.81</ele>
        <time>2022-02-13T11:02:32Z</time>
      </trkpt>
      <trkpt lat="43.52558" lon="5.27791">
        <ele>169.33</ele>
        <time>2022-02-13T11:02:38Z</time>
      </trkpt>
      <trkpt lat="43.52558" lon="5.27801">
        <ele>169.33</ele>
        <time>2022-02-13T11:02:46Z</time>
      </trkpt>
      <trkpt lat="43.52555" lon="5.27811">
        <ele>168.37</ele>
        <time>2022-02-13T11:02:58Z</time>
      </trkpt>
      <trkpt lat="43.52554" lon="5.27816">
        <ele>167.89</ele>
        <time>2022-02-13T11:03:05Z</time>
      </trkpt>
      <trkpt lat="43.52552" lon="5.27818">
        <ele>167.89</ele>
        <time>2022-02-13T11:03:07Z</time>
      </trkpt>
      <trkpt lat="43.52551" lon="5.2782">
        <ele>167.41</ele>
        <time>2022-02-13T11:03:09Z</time>
      </trkpt>
      <trkpt lat="43.5255" lon="5.27822">
        <ele>166.93</ele>
        <time>2022-02-13T11:03:11Z</time>
      </trkpt>
      <trkpt lat="43.52549" lon="5.27825">
        <ele>166.45</ele>
        <time>2022-02-13T11:03:13Z</time>
      </trkpt>
      <trkpt lat="43.52546" lon="5.2783">
        <ele>165.48</ele>
        <time>2022-02-13T11:03:17Z</time>
      </trkpt>
      <trkpt lat="43.52545" lon="5.27832">
        <ele>165</ele>
        <time>2022-02-13T11:03:19Z</time>
      </trkpt>
      <trkpt lat="43.52539" lon="5.27847">
        <ele>163.08</ele>
        <time>2022-02-13T11:03:31Z</time>
      </trkpt>
      <trkpt lat="43.52535" lon="5.27861">
        <ele>162.12</ele>
        <time>2022-02-13T11:03:42Z</time>
      </trkpt>
      <trkpt lat="43.52534" lon="5.27867">
        <ele>162.12</ele>
        <time>2022-02-13T11:03:47Z</time>
      </trkpt>
      <trkpt lat="43.52533" lon="5.27869">
        <ele>162.12</ele>
        <time>2022-02-13T11:03:49Z</time>
      </trkpt>
      <trkpt lat="43.52533" lon="5.27872">
        <ele>161.64</ele>
        <time>2022-02-13T11:03:51Z</time>
      </trkpt>
      <trkpt lat="43.5253" lon="5.27877">
        <ele>160.68</ele>
        <time>2022-02-13T11:03:55Z</time>
      </trkpt>
      <trkpt lat="43.52528" lon="5.27884">
        <ele>160.2</ele>
        <time>2022-02-13T11:04:00Z</time>
      </trkpt>
      <trkpt lat="43.52527" lon="5.27886">
        <ele>159.72</ele>
        <time>2022-02-13T11:04:02Z</time>
      </trkpt>
      <trkpt lat="43.52526" lon="5.27889">
        <ele>159.24</ele>
        <time>2022-02-13T11:04:04Z</time>
      </trkpt>
      <trkpt lat="43.52523" lon="5.27896">
        <ele>159.72</ele>
        <time>2022-02-13T11:04:09Z</time>
      </trkpt>
      <trkpt lat="43.52516" lon="5.27908">
        <ele>160.2</ele>
        <time>2022-02-13T11:04:19Z</time>
      </trkpt>
      <trkpt lat="43.5251" lon="5.2792">
        <ele>160.2</ele>
        <time>2022-02-13T11:04:30Z</time>
      </trkpt>
      <trkpt lat="43.52501" lon="5.27931">
        <ele>161.16</ele>
        <time>2022-02-13T11:04:41Z</time>
      </trkpt>
      <trkpt lat="43.52495" lon="5.2794">
        <ele>162.12</ele>
        <time>2022-02-13T11:04:50Z</time>
      </trkpt>
      <trkpt lat="43.52494" lon="5.27941">
        <ele>162.6</ele>
        <time>2022-02-13T11:04:51Z</time>
      </trkpt>
      <trkpt lat="43.52487" lon="5.27954">
        <ele>161.16</ele>
        <time>2022-02-13T11:05:03Z</time>
      </trkpt>
      <trkpt lat="43.52483" lon="5.2796">
        <ele>161.16</ele>
        <time>2022-02-13T11:05:09Z</time>
      </trkpt>
      <trkpt lat="43.52478" lon="5.2797">
        <ele>161.64</ele>
        <time>2022-02-13T11:05:17Z</time>
      </trkpt>
      <trkpt lat="43.52477" lon="5.27972">
        <ele>161.64</ele>
        <time>2022-02-13T11:05:19Z</time>
      </trkpt>
      <trkpt lat="43.52475" lon="5.27976">
        <ele>162.6</ele>
        <time>2022-02-13T11:05:23Z</time>
      </trkpt>
      <trkpt lat="43.52471" lon="5.27981">
        <ele>163.08</ele>
        <time>2022-02-13T11:05:39Z</time>
      </trkpt>
      <trkpt lat="43.52471" lon="5.27982">
        <ele>163.08</ele>
        <time>2022-02-13T11:05:40Z</time>
      </trkpt>
      <trkpt lat="43.52469" lon="5.27985">
        <ele>163.56</ele>
        <time>2022-02-13T11:05:43Z</time>
      </trkpt>
      <trkpt lat="43.52464" lon="5.27991">
        <ele>163.56</ele>
        <time>2022-02-13T11:05:50Z</time>
      </trkpt>
      <trkpt lat="43.52461" lon="5.27993">
        <ele>163.08</ele>
        <time>2022-02-13T11:05:53Z</time>
      </trkpt>
      <trkpt lat="43.52451" lon="5.28006">
        <ele>162.6</ele>
        <time>2022-02-13T11:06:07Z</time>
      </trkpt>
      <trkpt lat="43.52441" lon="5.28017">
        <ele>163.08</ele>
        <time>2022-02-13T11:06:20Z</time>
      </trkpt>
      <trkpt lat="43.52433" lon="5.28025">
        <ele>163.56</ele>
        <time>2022-02-13T11:06:29Z</time>
      </trkpt>
      <trkpt lat="43.52431" lon="5.28026">
        <ele>164.04</ele>
        <time>2022-02-13T11:06:31Z</time>
      </trkpt>
      <trkpt lat="43.52429" lon="5.28029">
        <ele>164.04</ele>
        <time>2022-02-13T11:06:34Z</time>
      </trkpt>
      <trkpt lat="43.52422" lon="5.28039">
        <ele>165</ele>
        <time>2022-02-13T11:06:44Z</time>
      </trkpt>
      <trkpt lat="43.52414" lon="5.28048">
        <ele>165.48</ele>
        <time>2022-02-13T11:06:55Z</time>
      </trkpt>
      <trkpt lat="43.52406" lon="5.28057">
        <ele>165.48</ele>
        <time>2022-02-13T11:07:05Z</time>
      </trkpt>
      <trkpt lat="43.52398" lon="5.28064">
        <ele>166.93</ele>
        <time>2022-02-13T11:07:15Z</time>
      </trkpt>
      <trkpt lat="43.5239" lon="5.28072">
        <ele>167.41</ele>
        <time>2022-02-13T11:07:26Z</time>
      </trkpt>
      <trkpt lat="43.5238" lon="5.28079">
        <ele>167.41</ele>
        <time>2022-02-13T11:07:37Z</time>
      </trkpt>
      <trkpt lat="43.52371" lon="5.28088">
        <ele>169.33</ele>
        <time>2022-02-13T11:07:49Z</time>
      </trkpt>
      <trkpt lat="43.52367" lon="5.28095">
        <ele>169.81</ele>
        <time>2022-02-13T11:07:55Z</time>
      </trkpt>
      <trkpt lat="43.52365" lon="5.28098">
        <ele>169.81</ele>
        <time>2022-02-13T11:07:57Z</time>
      </trkpt>
      <trkpt lat="43.52364" lon="5.281">
        <ele>169.33</ele>
        <time>2022-02-13T11:07:59Z</time>
      </trkpt>
      <trkpt lat="43.52362" lon="5.28112">
        <ele>168.85</ele>
        <time>2022-02-13T11:08:08Z</time>
      </trkpt>
      <trkpt lat="43.52361" lon="5.28119">
        <ele>168.37</ele>
        <time>2022-02-13T11:08:14Z</time>
      </trkpt>
      <trkpt lat="43.52355" lon="5.28133">
        <ele>166.45</ele>
        <time>2022-02-13T11:08:27Z</time>
      </trkpt>
      <trkpt lat="43.52353" lon="5.28137">
        <ele>165.96</ele>
        <time>2022-02-13T11:08:30Z</time>
      </trkpt>
      <trkpt lat="43.52347" lon="5.28144">
        <ele>165.96</ele>
        <time>2022-02-13T11:08:38Z</time>
      </trkpt>
      <trkpt lat="43.52345" lon="5.28146">
        <ele>165.96</ele>
        <time>2022-02-13T11:08:40Z</time>
      </trkpt>
      <trkpt lat="43.52339" lon="5.28155">
        <ele>165.48</ele>
        <time>2022-02-13T11:08:49Z</time>
      </trkpt>
      <trkpt lat="43.52338" lon="5.28157">
        <ele>165.48</ele>
        <time>2022-02-13T11:08:50Z</time>
      </trkpt>
      <trkpt lat="43.5233" lon="5.28169">
        <ele>165</ele>
        <time>2022-02-13T11:09:02Z</time>
      </trkpt>
      <trkpt lat="43.52323" lon="5.28179">
        <ele>165.96</ele>
        <time>2022-02-13T11:09:12Z</time>
      </trkpt>
      <trkpt lat="43.52318" lon="5.28195">
        <ele>164.52</ele>
        <time>2022-02-13T11:09:24Z</time>
      </trkpt>
      <trkpt lat="43.52316" lon="5.282">
        <ele>165</ele>
        <time>2022-02-13T11:09:27Z</time>
      </trkpt>
      <trkpt lat="43.52315" lon="5.28202">
        <ele>165.48</ele>
        <time>2022-02-13T11:09:29Z</time>
      </trkpt>
      <trkpt lat="43.52312" lon="5.2821">
        <ele>165.48</ele>
        <time>2022-02-13T11:09:35Z</time>
      </trkpt>
      <trkpt lat="43.52311" lon="5.28212">
        <ele>165.96</ele>
        <time>2022-02-13T11:09:37Z</time>
      </trkpt>
      <trkpt lat="43.5231" lon="5.28215">
        <ele>165.96</ele>
        <time>2022-02-13T11:09:39Z</time>
      </trkpt>
      <trkpt lat="43.52301" lon="5.28224">
        <ele>165.96</ele>
        <time>2022-02-13T11:09:50Z</time>
      </trkpt>
      <trkpt lat="43.52297" lon="5.28228">
        <ele>165.48</ele>
        <time>2022-02-13T11:09:55Z</time>
      </trkpt>
      <trkpt lat="43.52289" lon="5.28235">
        <ele>164.52</ele>
        <time>2022-02-13T11:10:05Z</time>
      </trkpt>
      <trkpt lat="43.52288" lon="5.28237">
        <ele>164.04</ele>
        <time>2022-02-13T11:10:07Z</time>
      </trkpt>
      <trkpt lat="43.52286" lon="5.28239">
        <ele>164.04</ele>
        <time>2022-02-13T11:10:09Z</time>
      </trkpt>
      <trkpt lat="43.52283" lon="5.28241">
        <ele>164.04</ele>
        <time>2022-02-13T11:10:12Z</time>
      </trkpt>
      <trkpt lat="43.5228" lon="5.28245">
        <ele>164.52</ele>
        <time>2022-02-13T11:10:15Z</time>
      </trkpt>
      <trkpt lat="43.52279" lon="5.28247">
        <ele>165</ele>
        <time>2022-02-13T11:10:17Z</time>
      </trkpt>
      <trkpt lat="43.52272" lon="5.28255">
        <ele>166.45</ele>
        <time>2022-02-13T11:10:26Z</time>
      </trkpt>
      <trkpt lat="43.52272" lon="5.28259">
        <ele>166.93</ele>
        <time>2022-02-13T11:10:28Z</time>
      </trkpt>
      <trkpt lat="43.5227" lon="5.28261">
        <ele>166.93</ele>
        <time>2022-02-13T11:10:30Z</time>
      </trkpt>
      <trkpt lat="43.52269" lon="5.28263">
        <ele>166.45</ele>
        <time>2022-02-13T11:10:32Z</time>
      </trkpt>
      <trkpt lat="43.52267" lon="5.28269">
        <ele>165.96</ele>
        <time>2022-02-13T11:10:36Z</time>
      </trkpt>
      <trkpt lat="43.52265" lon="5.28273">
        <ele>165.48</ele>
        <time>2022-02-13T11:10:39Z</time>
      </trkpt>
      <trkpt lat="43.5226" lon="5.28287">
        <ele>164.52</ele>
        <time>2022-02-13T11:10:50Z</time>
      </trkpt>
      <trkpt lat="43.52254" lon="5.28299">
        <ele>164.04</ele>
        <time>2022-02-13T11:11:00Z</time>
      </trkpt>
      <trkpt lat="43.52247" lon="5.28307">
        <ele>164.04</ele>
        <time>2022-02-13T11:11:11Z</time>
      </trkpt>
      <trkpt lat="43.52241" lon="5.28312">
        <ele>165</ele>
        <time>2022-02-13T11:11:19Z</time>
      </trkpt>
      <trkpt lat="43.52239" lon="5.28312">
        <ele>165</ele>
        <time>2022-02-13T11:11:21Z</time>
      </trkpt>
      <trkpt lat="43.52236" lon="5.28313">
        <ele>165</ele>
        <time>2022-02-13T11:11:24Z</time>
      </trkpt>
      <trkpt lat="43.52225" lon="5.28315">
        <ele>165.48</ele>
        <time>2022-02-13T11:11:35Z</time>
      </trkpt>
      <trkpt lat="43.52217" lon="5.28317">
        <ele>165.48</ele>
        <time>2022-02-13T11:11:42Z</time>
      </trkpt>
      <trkpt lat="43.52207" lon="5.28319">
        <ele>165.96</ele>
        <time>2022-02-13T11:11:53Z</time>
      </trkpt>
      <trkpt lat="43.52195" lon="5.2832">
        <ele>165</ele>
        <time>2022-02-13T11:12:05Z</time>
      </trkpt>
      <trkpt lat="43.5219" lon="5.28325">
        <ele>167.41</ele>
        <time>2022-02-13T11:12:19Z</time>
      </trkpt>
      <trkpt lat="43.52191" lon="5.28327">
        <ele>167.89</ele>
        <time>2022-02-13T11:12:35Z</time>
      </trkpt>
      <trkpt lat="43.5219" lon="5.28326">
        <ele>166.93</ele>
        <time>2022-02-13T11:12:56Z</time>
      </trkpt>
      <trkpt lat="43.5219" lon="5.28327">
        <ele>166.93</ele>
        <time>2022-02-13T11:13:18Z</time>
      </trkpt>
      <trkpt lat="43.52188" lon="5.28322">
        <ele>166.45</ele>
        <time>2022-02-13T11:13:33Z</time>
      </trkpt>
      <trkpt lat="43.52187" lon="5.28321">
        <ele>166.45</ele>
        <time>2022-02-13T11:13:36Z</time>
      </trkpt>
      <trkpt lat="43.52186" lon="5.28319">
        <ele>166.93</ele>
        <time>2022-02-13T11:13:38Z</time>
      </trkpt>
      <trkpt lat="43.52183" lon="5.28313">
        <ele>166.93</ele>
        <time>2022-02-13T11:13:43Z</time>
      </trkpt>
      <trkpt lat="43.5218" lon="5.28308">
        <ele>166.93</ele>
        <time>2022-02-13T11:13:58Z</time>
      </trkpt>
      <trkpt lat="43.52175" lon="5.28295">
        <ele>167.41</ele>
        <time>2022-02-13T11:14:09Z</time>
      </trkpt>
      <trkpt lat="43.5217" lon="5.28281">
        <ele>166.93</ele>
        <time>2022-02-13T11:14:21Z</time>
      </trkpt>
      <trkpt lat="43.5217" lon="5.2827">
        <ele>165.48</ele>
        <time>2022-02-13T11:14:30Z</time>
      </trkpt>
      <trkpt lat="43.52171" lon="5.28255">
        <ele>169.33</ele>
        <time>2022-02-13T11:14:44Z</time>
      </trkpt>
      <trkpt lat="43.52173" lon="5.2824">
        <ele>171.73</ele>
        <time>2022-02-13T11:14:58Z</time>
      </trkpt>
      <trkpt lat="43.52174" lon="5.28224">
        <ele>172.21</ele>
        <time>2022-02-13T11:15:11Z</time>
      </trkpt>
      <trkpt lat="43.52173" lon="5.28217">
        <ele>173.66</ele>
        <time>2022-02-13T11:15:23Z</time>
      </trkpt>
      <trkpt lat="43.52173" lon="5.28213">
        <ele>174.14</ele>
        <time>2022-02-13T11:15:30Z</time>
      </trkpt>
      <trkpt lat="43.52173" lon="5.28198">
        <ele>177.5</ele>
        <time>2022-02-13T11:15:42Z</time>
      </trkpt>
      <trkpt lat="43.52173" lon="5.2818">
        <ele>179.42</ele>
        <time>2022-02-13T11:15:58Z</time>
      </trkpt>
      <trkpt lat="43.52174" lon="5.28166">
        <ele>179.42</ele>
        <time>2022-02-13T11:16:11Z</time>
      </trkpt>
      <trkpt lat="43.52174" lon="5.28149">
        <ele>178.94</ele>
        <time>2022-02-13T11:16:25Z</time>
      </trkpt>
      <trkpt lat="43.52177" lon="5.28134">
        <ele>180.38</ele>
        <time>2022-02-13T11:16:39Z</time>
      </trkpt>
      <trkpt lat="43.52178" lon="5.28133">
        <ele>180.87</ele>
        <time>2022-02-13T11:16:41Z</time>
      </trkpt>
      <trkpt lat="43.52184" lon="5.28136">
        <ele>182.79</ele>
        <time>2022-02-13T11:16:56Z</time>
      </trkpt>
      <trkpt lat="43.52188" lon="5.28149">
        <ele>184.23</ele>
        <time>2022-02-13T11:17:12Z</time>
      </trkpt>
      <trkpt lat="43.52192" lon="5.2816">
        <ele>186.15</ele>
        <time>2022-02-13T11:17:26Z</time>
      </trkpt>
      <trkpt lat="43.52195" lon="5.2817">
        <ele>188.56</ele>
        <time>2022-02-13T11:17:40Z</time>
      </trkpt>
      <trkpt lat="43.52199" lon="5.2818">
        <ele>189.52</ele>
        <time>2022-02-13T11:17:53Z</time>
      </trkpt>
      <trkpt lat="43.52203" lon="5.28192">
        <ele>191.44</ele>
        <time>2022-02-13T11:18:07Z</time>
      </trkpt>
      <trkpt lat="43.52203" lon="5.28194">
        <ele>191.44</ele>
        <time>2022-02-13T11:18:09Z</time>
      </trkpt>
      <trkpt lat="43.52206" lon="5.28204">
        <ele>192.88</ele>
        <time>2022-02-13T11:18:24Z</time>
      </trkpt>
      <trkpt lat="43.52207" lon="5.28208">
        <ele>193.84</ele>
        <time>2022-02-13T11:18:38Z</time>
      </trkpt>
      <trkpt lat="43.52207" lon="5.2821">
        <ele>195.28</ele>
        <time>2022-02-13T11:18:51Z</time>
      </trkpt>
      <trkpt lat="43.52209" lon="5.28212">
        <ele>196.25</ele>
        <time>2022-02-13T11:19:09Z</time>
      </trkpt>
      <trkpt lat="43.52209" lon="5.28212">
        <ele>195.77</ele>
        <time>2022-02-13T11:19:10Z</time>
      </trkpt>
      <trkpt lat="43.52212" lon="5.28219">
        <ele>197.69</ele>
        <time>2022-02-13T11:19:20Z</time>
      </trkpt>
      <trkpt lat="43.52214" lon="5.28223">
        <ele>198.65</ele>
        <time>2022-02-13T11:19:25Z</time>
      </trkpt>
      <trkpt lat="43.52224" lon="5.28232">
        <ele>199.61</ele>
        <time>2022-02-13T11:19:40Z</time>
      </trkpt>
      <trkpt lat="43.52231" lon="5.28229">
        <ele>201.53</ele>
        <time>2022-02-13T11:19:56Z</time>
      </trkpt>
      <trkpt lat="43.52234" lon="5.28225">
        <ele>202.49</ele>
        <time>2022-02-13T11:20:06Z</time>
      </trkpt>
      <trkpt lat="43.52237" lon="5.28216">
        <ele>204.9</ele>
        <time>2022-02-13T11:20:20Z</time>
      </trkpt>
      <trkpt lat="43.52238" lon="5.28205">
        <ele>207.3</ele>
        <time>2022-02-13T11:20:35Z</time>
      </trkpt>
      <trkpt lat="43.52237" lon="5.28194">
        <ele>208.74</ele>
        <time>2022-02-13T11:20:50Z</time>
      </trkpt>
      <trkpt lat="43.52237" lon="5.28192">
        <ele>207.3</ele>
        <time>2022-02-13T11:21:13Z</time>
      </trkpt>
      <trkpt lat="43.52238" lon="5.28179">
        <ele>209.7</ele>
        <time>2022-02-13T11:21:29Z</time>
      </trkpt>
      <trkpt lat="43.52238" lon="5.28178">
        <ele>209.7</ele>
        <time>2022-02-13T11:21:30Z</time>
      </trkpt>
      <trkpt lat="43.52237" lon="5.28165">
        <ele>211.63</ele>
        <time>2022-02-13T11:21:45Z</time>
      </trkpt>
      <trkpt lat="43.52237" lon="5.28157">
        <ele>213.07</ele>
        <time>2022-02-13T11:21:58Z</time>
      </trkpt>
      <trkpt lat="43.52239" lon="5.28154">
        <ele>213.07</ele>
        <time>2022-02-13T11:22:01Z</time>
      </trkpt>
      <trkpt lat="43.52244" lon="5.28144">
        <ele>214.03</ele>
        <time>2022-02-13T11:22:11Z</time>
      </trkpt>
      <trkpt lat="43.52245" lon="5.2814">
        <ele>214.99</ele>
        <time>2022-02-13T11:22:23Z</time>
      </trkpt>
      <trkpt lat="43.52247" lon="5.28136">
        <ele>214.99</ele>
        <time>2022-02-13T11:22:36Z</time>
      </trkpt>
      <trkpt lat="43.5225" lon="5.28129">
        <ele>214.99</ele>
        <time>2022-02-13T11:22:52Z</time>
      </trkpt>
      <trkpt lat="43.52254" lon="5.28119">
        <ele>215.47</ele>
        <time>2022-02-13T11:23:07Z</time>
      </trkpt>
      <trkpt lat="43.52257" lon="5.28115">
        <ele>216.43</ele>
        <time>2022-02-13T11:23:12Z</time>
      </trkpt>
      <trkpt lat="43.52255" lon="5.28107">
        <ele>215.95</ele>
        <time>2022-02-13T11:23:25Z</time>
      </trkpt>
      <trkpt lat="43.52253" lon="5.28109">
        <ele>216.43</ele>
        <time>2022-02-13T11:23:49Z</time>
      </trkpt>
      <trkpt lat="43.52253" lon="5.28108">
        <ele>218.84</ele>
        <time>2022-02-13T11:24:08Z</time>
      </trkpt>
      <trkpt lat="43.52253" lon="5.28108">
        <ele>218.36</ele>
        <time>2022-02-13T11:24:31Z</time>
      </trkpt>
      <trkpt lat="43.52252" lon="5.28109">
        <ele>218.36</ele>
        <time>2022-02-13T11:24:32Z</time>
      </trkpt>
      <trkpt lat="43.52247" lon="5.28115">
        <ele>220.76</ele>
        <time>2022-02-13T11:24:44Z</time>
      </trkpt>
      <trkpt lat="43.52246" lon="5.28118">
        <ele>224.12</ele>
        <time>2022-02-13T11:25:00Z</time>
      </trkpt>
      <trkpt lat="43.52248" lon="5.28118">
        <ele>223.64</ele>
        <time>2022-02-13T11:25:16Z</time>
      </trkpt>
      <trkpt lat="43.5225" lon="5.28117">
        <ele>223.16</ele>
        <time>2022-02-13T11:25:20Z</time>
      </trkpt>
      <trkpt lat="43.52251" lon="5.28113">
        <ele>223.16</ele>
        <time>2022-02-13T11:25:22Z</time>
      </trkpt>
      <trkpt lat="43.52255" lon="5.28107">
        <ele>221.72</ele>
        <time>2022-02-13T11:25:27Z</time>
      </trkpt>
      <trkpt lat="43.5226" lon="5.28102">
        <ele>222.2</ele>
        <time>2022-02-13T11:25:32Z</time>
      </trkpt>
      <trkpt lat="43.52264" lon="5.28092">
        <ele>224.12</ele>
        <time>2022-02-13T11:25:46Z</time>
      </trkpt>
      <trkpt lat="43.52265" lon="5.28092">
        <ele>224.12</ele>
        <time>2022-02-13T11:25:48Z</time>
      </trkpt>
      <trkpt lat="43.52269" lon="5.2809">
        <ele>223.16</ele>
        <time>2022-02-13T11:25:54Z</time>
      </trkpt>
      <trkpt lat="43.5227" lon="5.28088">
        <ele>223.64</ele>
        <time>2022-02-13T11:25:57Z</time>
      </trkpt>
      <trkpt lat="43.52273" lon="5.28076">
        <ele>224.12</ele>
        <time>2022-02-13T11:26:10Z</time>
      </trkpt>
      <trkpt lat="43.52274" lon="5.28075">
        <ele>224.12</ele>
        <time>2022-02-13T11:26:11Z</time>
      </trkpt>
      <trkpt lat="43.52281" lon="5.28068">
        <ele>224.12</ele>
        <time>2022-02-13T11:26:23Z</time>
      </trkpt>
      <trkpt lat="43.52287" lon="5.28055">
        <ele>224.61</ele>
        <time>2022-02-13T11:26:36Z</time>
      </trkpt>
      <trkpt lat="43.5229" lon="5.28052">
        <ele>224.61</ele>
        <time>2022-02-13T11:26:42Z</time>
      </trkpt>
      <trkpt lat="43.52293" lon="5.28047">
        <ele>224.12</ele>
        <time>2022-02-13T11:26:47Z</time>
      </trkpt>
      <trkpt lat="43.52302" lon="5.28038">
        <ele>224.61</ele>
        <time>2022-02-13T11:26:59Z</time>
      </trkpt>
      <trkpt lat="43.52305" lon="5.28034">
        <ele>224.61</ele>
        <time>2022-02-13T11:27:03Z</time>
      </trkpt>
      <trkpt lat="43.52307" lon="5.28032">
        <ele>224.12</ele>
        <time>2022-02-13T11:27:05Z</time>
      </trkpt>
      <trkpt lat="43.52315" lon="5.28021">
        <ele>224.12</ele>
        <time>2022-02-13T11:27:16Z</time>
      </trkpt>
      <trkpt lat="43.52326" lon="5.28009">
        <ele>225.09</ele>
        <time>2022-02-13T11:27:29Z</time>
      </trkpt>
      <trkpt lat="43.52329" lon="5.28006">
        <ele>225.09</ele>
        <time>2022-02-13T11:27:34Z</time>
      </trkpt>
      <trkpt lat="43.52331" lon="5.28004">
        <ele>225.09</ele>
        <time>2022-02-13T11:27:36Z</time>
      </trkpt>
      <trkpt lat="43.52332" lon="5.28002">
        <ele>225.57</ele>
        <time>2022-02-13T11:27:38Z</time>
      </trkpt>
      <trkpt lat="43.52341" lon="5.27987">
        <ele>225.09</ele>
        <time>2022-02-13T11:27:51Z</time>
      </trkpt>
      <trkpt lat="43.52345" lon="5.27975">
        <ele>225.57</ele>
        <time>2022-02-13T11:28:02Z</time>
      </trkpt>
      <trkpt lat="43.52352" lon="5.27965">
        <ele>226.53</ele>
        <time>2022-02-13T11:28:13Z</time>
      </trkpt>
      <trkpt lat="43.52356" lon="5.27958">
        <ele>227.49</ele>
        <time>2022-02-13T11:28:25Z</time>
      </trkpt>
      <trkpt lat="43.52359" lon="5.27947">
        <ele>229.89</ele>
        <time>2022-02-13T11:28:38Z</time>
      </trkpt>
      <trkpt lat="43.52365" lon="5.27937">
        <ele>230.37</ele>
        <time>2022-02-13T11:28:53Z</time>
      </trkpt>
      <trkpt lat="43.52376" lon="5.27932">
        <ele>232.3</ele>
        <time>2022-02-13T11:29:09Z</time>
      </trkpt>
      <trkpt lat="43.52383" lon="5.27926">
        <ele>233.26</ele>
        <time>2022-02-13T11:29:22Z</time>
      </trkpt>
      <trkpt lat="43.52389" lon="5.27916">
        <ele>233.26</ele>
        <time>2022-02-13T11:29:36Z</time>
      </trkpt>
      <trkpt lat="43.52396" lon="5.27905">
        <ele>232.3</ele>
        <time>2022-02-13T11:29:48Z</time>
      </trkpt>
      <trkpt lat="43.52399" lon="5.27887">
        <ele>231.81</ele>
        <time>2022-02-13T11:30:02Z</time>
      </trkpt>
      <trkpt lat="43.52403" lon="5.27882">
        <ele>231.33</ele>
        <time>2022-02-13T11:30:16Z</time>
      </trkpt>
      <trkpt lat="43.52401" lon="5.2788">
        <ele>229.41</ele>
        <time>2022-02-13T11:30:28Z</time>
      </trkpt>
      <trkpt lat="43.52401" lon="5.27881">
        <ele>227.97</ele>
        <time>2022-02-13T11:30:41Z</time>
      </trkpt>
      <trkpt lat="43.52399" lon="5.27881">
        <ele>227.97</ele>
        <time>2022-02-13T11:30:50Z</time>
      </trkpt>
      <trkpt lat="43.52397" lon="5.27887">
        <ele>228.93</ele>
        <time>2022-02-13T11:31:04Z</time>
      </trkpt>
      <trkpt lat="43.52394" lon="5.27886">
        <ele>228.45</ele>
        <time>2022-02-13T11:31:17Z</time>
      </trkpt>
      <trkpt lat="43.52392" lon="5.27884">
        <ele>228.45</ele>
        <time>2022-02-13T11:31:31Z</time>
      </trkpt>
      <trkpt lat="43.52385" lon="5.27881">
        <ele>226.53</ele>
        <time>2022-02-13T11:31:38Z</time>
      </trkpt>
      <trkpt lat="43.52384" lon="5.27878">
        <ele>225.57</ele>
        <time>2022-02-13T11:31:40Z</time>
      </trkpt>
      <trkpt lat="43.52387" lon="5.27866">
        <ele>225.09</ele>
        <time>2022-02-13T11:31:52Z</time>
      </trkpt>
      <trkpt lat="43.52393" lon="5.27865">
        <ele>226.05</ele>
        <time>2022-02-13T11:32:04Z</time>
      </trkpt>
      <trkpt lat="43.52394" lon="5.27871">
        <ele>228.45</ele>
        <time>2022-02-13T11:32:19Z</time>
      </trkpt>
      <trkpt lat="43.52396" lon="5.27868">
        <ele>228.45</ele>
        <time>2022-02-13T11:32:35Z</time>
      </trkpt>
      <trkpt lat="43.52396" lon="5.27866">
        <ele>228.93</ele>
        <time>2022-02-13T11:32:37Z</time>
      </trkpt>
      <trkpt lat="43.52395" lon="5.27863">
        <ele>229.41</ele>
        <time>2022-02-13T11:32:39Z</time>
      </trkpt>
      <trkpt lat="43.52388" lon="5.27862">
        <ele>228.45</ele>
        <time>2022-02-13T11:32:50Z</time>
      </trkpt>
      <trkpt lat="43.52384" lon="5.27869">
        <ele>226.05</ele>
        <time>2022-02-13T11:33:04Z</time>
      </trkpt>
      <trkpt lat="43.52384" lon="5.27874">
        <ele>224.61</ele>
        <time>2022-02-13T11:33:33Z</time>
      </trkpt>
      <trkpt lat="43.52381" lon="5.27877">
        <ele>225.09</ele>
        <time>2022-02-13T11:34:04Z</time>
      </trkpt>
      <trkpt lat="43.52382" lon="5.27876">
        <ele>224.61</ele>
        <time>2022-02-13T11:34:34Z</time>
      </trkpt>
      <trkpt lat="43.52382" lon="5.27876">
        <ele>223.64</ele>
        <time>2022-02-13T11:34:59Z</time>
      </trkpt>
      <trkpt lat="43.52384" lon="5.27873">
        <ele>222.68</ele>
        <time>2022-02-13T11:35:31Z</time>
      </trkpt>
      <trkpt lat="43.52382" lon="5.2787">
        <ele>223.16</ele>
        <time>2022-02-13T11:35:49Z</time>
      </trkpt>
      <trkpt lat="43.52382" lon="5.27869">
        <ele>224.12</ele>
        <time>2022-02-13T11:36:15Z</time>
      </trkpt>
      <trkpt lat="43.5238" lon="5.27863">
        <ele>225.57</ele>
        <time>2022-02-13T11:36:29Z</time>
      </trkpt>
      <trkpt lat="43.52378" lon="5.27856">
        <ele>223.16</ele>
        <time>2022-02-13T11:36:45Z</time>
      </trkpt>
      <trkpt lat="43.52376" lon="5.27852">
        <ele>222.68</ele>
        <time>2022-02-13T11:36:48Z</time>
      </trkpt>
      <trkpt lat="43.5237" lon="5.27839">
        <ele>219.8</ele>
        <time>2022-02-13T11:36:58Z</time>
      </trkpt>
      <trkpt lat="43.52368" lon="5.27836">
        <ele>218.84</ele>
        <time>2022-02-13T11:37:01Z</time>
      </trkpt>
      <trkpt lat="43.52367" lon="5.27831">
        <ele>218.36</ele>
        <time>2022-02-13T11:37:04Z</time>
      </trkpt>
      <trkpt lat="43.52361" lon="5.27816">
        <ele>216.43</ele>
        <time>2022-02-13T11:37:15Z</time>
      </trkpt>
      <trkpt lat="43.5236" lon="5.27815">
        <ele>215.95</ele>
        <time>2022-02-13T11:37:16Z</time>
      </trkpt>
      <trkpt lat="43.52358" lon="5.27816">
        <ele>215.95</ele>
        <time>2022-02-13T11:37:18Z</time>
      </trkpt>
      <trkpt lat="43.52357" lon="5.27821">
        <ele>215.47</ele>
        <time>2022-02-13T11:37:21Z</time>
      </trkpt>
      <trkpt lat="43.52359" lon="5.27835">
        <ele>215.47</ele>
        <time>2022-02-13T11:37:33Z</time>
      </trkpt>
      <trkpt lat="43.52359" lon="5.2784">
        <ele>214.99</ele>
        <time>2022-02-13T11:37:36Z</time>
      </trkpt>
      <trkpt lat="43.5236" lon="5.27849">
        <ele>214.99</ele>
        <time>2022-02-13T11:37:43Z</time>
      </trkpt>
      <trkpt lat="43.52358" lon="5.27863">
        <ele>214.03</ele>
        <time>2022-02-13T11:37:55Z</time>
      </trkpt>
      <trkpt lat="43.52355" lon="5.27874">
        <ele>212.11</ele>
        <time>2022-02-13T11:38:04Z</time>
      </trkpt>
      <trkpt lat="43.52354" lon="5.2788">
        <ele>211.15</ele>
        <time>2022-02-13T11:38:08Z</time>
      </trkpt>
      <trkpt lat="43.52347" lon="5.27892">
        <ele>207.3</ele>
        <time>2022-02-13T11:38:22Z</time>
      </trkpt>
      <trkpt lat="43.52343" lon="5.27897">
        <ele>207.3</ele>
        <time>2022-02-13T11:38:32Z</time>
      </trkpt>
      <trkpt lat="43.52334" lon="5.27904">
        <ele>205.38</ele>
        <time>2022-02-13T11:38:45Z</time>
      </trkpt>
      <trkpt lat="43.5233" lon="5.27908">
        <ele>203.94</ele>
        <time>2022-02-13T11:38:53Z</time>
      </trkpt>
      <trkpt lat="43.52324" lon="5.27911">
        <ele>202.49</ele>
        <time>2022-02-13T11:39:04Z</time>
      </trkpt>
      <trkpt lat="43.52321" lon="5.27912">
        <ele>202.49</ele>
        <time>2022-02-13T11:39:07Z</time>
      </trkpt>
      <trkpt lat="43.52312" lon="5.27921">
        <ele>201.05</ele>
        <time>2022-02-13T11:39:19Z</time>
      </trkpt>
      <trkpt lat="43.52307" lon="5.27925">
        <ele>200.09</ele>
        <time>2022-02-13T11:39:31Z</time>
      </trkpt>
      <trkpt lat="43.52302" lon="5.27932">
        <ele>196.25</ele>
        <time>2022-02-13T11:39:42Z</time>
      </trkpt>
      <trkpt lat="43.52297" lon="5.27936">
        <ele>195.28</ele>
        <time>2022-02-13T11:39:47Z</time>
      </trkpt>
      <trkpt lat="43.52287" lon="5.27947">
        <ele>191.44</ele>
        <time>2022-02-13T11:40:01Z</time>
      </trkpt>
      <trkpt lat="43.52285" lon="5.27948">
        <ele>191.44</ele>
        <time>2022-02-13T11:40:03Z</time>
      </trkpt>
      <trkpt lat="43.52272" lon="5.27954">
        <ele>190.48</ele>
        <time>2022-02-13T11:40:15Z</time>
      </trkpt>
      <trkpt lat="43.5227" lon="5.27952">
        <ele>190</ele>
        <time>2022-02-13T11:40:21Z</time>
      </trkpt>
      <trkpt lat="43.52273" lon="5.27942">
        <ele>189.04</ele>
        <time>2022-02-13T11:40:34Z</time>
      </trkpt>
      <trkpt lat="43.52275" lon="5.27938">
        <ele>190.96</ele>
        <time>2022-02-13T11:40:47Z</time>
      </trkpt>
      <trkpt lat="43.5228" lon="5.27928">
        <ele>192.4</ele>
        <time>2022-02-13T11:41:01Z</time>
      </trkpt>
      <trkpt lat="43.52288" lon="5.27919">
        <ele>195.28</ele>
        <time>2022-02-13T11:41:13Z</time>
      </trkpt>
      <trkpt lat="43.52295" lon="5.27905">
        <ele>202.49</ele>
        <time>2022-02-13T11:41:26Z</time>
      </trkpt>
      <trkpt lat="43.52298" lon="5.27895">
        <ele>208.26</ele>
        <time>2022-02-13T11:41:37Z</time>
      </trkpt>
      <trkpt lat="43.52294" lon="5.27881">
        <ele>208.26</ele>
        <time>2022-02-13T11:41:51Z</time>
      </trkpt>
      <trkpt lat="43.52293" lon="5.27879">
        <ele>208.26</ele>
        <time>2022-02-13T11:41:52Z</time>
      </trkpt>
      <trkpt lat="43.52297" lon="5.27851">
        <ele>191.92</ele>
        <time>2022-02-13T11:42:05Z</time>
      </trkpt>
      <trkpt lat="43.52297" lon="5.27849">
        <ele>189.52</ele>
        <time>2022-02-13T11:42:23Z</time>
      </trkpt>
      <trkpt lat="43.52297" lon="5.27847">
        <ele>189.04</ele>
        <time>2022-02-13T11:42:25Z</time>
      </trkpt>
      <trkpt lat="43.52294" lon="5.27828">
        <ele>184.71</ele>
        <time>2022-02-13T11:42:38Z</time>
      </trkpt>
      <trkpt lat="43.52294" lon="5.27827">
        <ele>184.71</ele>
        <time>2022-02-13T11:42:39Z</time>
      </trkpt>
      <trkpt lat="43.52289" lon="5.27811">
        <ele>182.79</ele>
        <time>2022-02-13T11:42:52Z</time>
      </trkpt>
      <trkpt lat="43.52284" lon="5.27808">
        <ele>181.83</ele>
        <time>2022-02-13T11:42:59Z</time>
      </trkpt>
      <trkpt lat="43.52275" lon="5.27821">
        <ele>180.38</ele>
        <time>2022-02-13T11:43:10Z</time>
      </trkpt>
      <trkpt lat="43.52273" lon="5.27832">
        <ele>179.42</ele>
        <time>2022-02-13T11:43:24Z</time>
      </trkpt>
      <trkpt lat="43.52272" lon="5.27839">
        <ele>177.5</ele>
        <time>2022-02-13T11:43:36Z</time>
      </trkpt>
      <trkpt lat="43.52268" lon="5.27843">
        <ele>177.02</ele>
        <time>2022-02-13T11:43:42Z</time>
      </trkpt>
      <trkpt lat="43.52265" lon="5.27842">
        <ele>176.06</ele>
        <time>2022-02-13T11:43:47Z</time>
      </trkpt>
      <trkpt lat="43.52261" lon="5.2784">
        <ele>175.1</ele>
        <time>2022-02-13T11:43:52Z</time>
      </trkpt>
      <trkpt lat="43.52257" lon="5.27842">
        <ele>174.62</ele>
        <time>2022-02-13T11:43:56Z</time>
      </trkpt>
      <trkpt lat="43.52254" lon="5.27848">
        <ele>173.17</ele>
        <time>2022-02-13T11:44:01Z</time>
      </trkpt>
      <trkpt lat="43.52253" lon="5.27852">
        <ele>172.21</ele>
        <time>2022-02-13T11:44:04Z</time>
      </trkpt>
      <trkpt lat="43.52251" lon="5.27859">
        <ele>170.29</ele>
        <time>2022-02-13T11:44:09Z</time>
      </trkpt>
      <trkpt lat="43.52249" lon="5.27862">
        <ele>169.33</ele>
        <time>2022-02-13T11:44:12Z</time>
      </trkpt>
      <trkpt lat="43.52243" lon="5.27856">
        <ele>167.41</ele>
        <time>2022-02-13T11:44:22Z</time>
      </trkpt>
      <trkpt lat="43.52243" lon="5.27853">
        <ele>166.45</ele>
        <time>2022-02-13T11:44:26Z</time>
      </trkpt>
      <trkpt lat="43.52244" lon="5.27849">
        <ele>166.45</ele>
        <time>2022-02-13T11:44:29Z</time>
      </trkpt>
      <trkpt lat="43.52244" lon="5.27841">
        <ele>166.45</ele>
        <time>2022-02-13T11:44:35Z</time>
      </trkpt>
      <trkpt lat="43.52249" lon="5.27823">
        <ele>165.48</ele>
        <time>2022-02-13T11:44:48Z</time>
      </trkpt>
      <trkpt lat="43.52249" lon="5.27821">
        <ele>165.96</ele>
        <time>2022-02-13T11:44:50Z</time>
      </trkpt>
      <trkpt lat="43.52249" lon="5.27818">
        <ele>165.96</ele>
        <time>2022-02-13T11:44:52Z</time>
      </trkpt>
      <trkpt lat="43.52244" lon="5.27803">
        <ele>164.52</ele>
        <time>2022-02-13T11:45:03Z</time>
      </trkpt>
      <trkpt lat="43.52242" lon="5.27794">
        <ele>163.08</ele>
        <time>2022-02-13T11:45:14Z</time>
      </trkpt>
      <trkpt lat="43.5224" lon="5.2779">
        <ele>162.12</ele>
        <time>2022-02-13T11:45:18Z</time>
      </trkpt>
      <trkpt lat="43.52237" lon="5.27778">
        <ele>161.64</ele>
        <time>2022-02-13T11:45:30Z</time>
      </trkpt>
      <trkpt lat="43.52237" lon="5.27776">
        <ele>161.16</ele>
        <time>2022-02-13T11:45:32Z</time>
      </trkpt>
      <trkpt lat="43.52236" lon="5.27772">
        <ele>160.68</ele>
        <time>2022-02-13T11:45:36Z</time>
      </trkpt>
      <trkpt lat="43.52232" lon="5.27756">
        <ele>159.72</ele>
        <time>2022-02-13T11:45:48Z</time>
      </trkpt>
      <trkpt lat="43.52231" lon="5.27749">
        <ele>160.2</ele>
        <time>2022-02-13T11:45:53Z</time>
      </trkpt>
      <trkpt lat="43.52227" lon="5.27736">
        <ele>160.2</ele>
        <time>2022-02-13T11:46:02Z</time>
      </trkpt>
      <trkpt lat="43.52226" lon="5.27731">
        <ele>160.2</ele>
        <time>2022-02-13T11:46:05Z</time>
      </trkpt>
      <trkpt lat="43.52218" lon="5.2772">
        <ele>160.2</ele>
        <time>2022-02-13T11:46:15Z</time>
      </trkpt>
      <trkpt lat="43.52209" lon="5.2771">
        <ele>159.72</ele>
        <time>2022-02-13T11:46:26Z</time>
      </trkpt>
      <trkpt lat="43.52195" lon="5.27704">
        <ele>159.72</ele>
        <time>2022-02-13T11:46:40Z</time>
      </trkpt>
      <trkpt lat="43.52192" lon="5.27704">
        <ele>159.24</ele>
        <time>2022-02-13T11:46:44Z</time>
      </trkpt>
      <trkpt lat="43.52185" lon="5.27708">
        <ele>159.24</ele>
        <time>2022-02-13T11:46:55Z</time>
      </trkpt>
      <trkpt lat="43.52178" lon="5.27709">
        <ele>159.72</ele>
        <time>2022-02-13T11:47:08Z</time>
      </trkpt>
      <trkpt lat="43.52177" lon="5.2771">
        <ele>160.2</ele>
        <time>2022-02-13T11:47:11Z</time>
      </trkpt>
      <trkpt lat="43.52167" lon="5.27704">
        <ele>163.08</ele>
        <time>2022-02-13T11:47:23Z</time>
      </trkpt>
      <trkpt lat="43.52157" lon="5.27698">
        <ele>163.08</ele>
        <time>2022-02-13T11:47:33Z</time>
      </trkpt>
      <trkpt lat="43.52143" lon="5.27699">
        <ele>163.08</ele>
        <time>2022-02-13T11:47:47Z</time>
      </trkpt>
      <trkpt lat="43.52128" lon="5.27712">
        <ele>164.52</ele>
        <time>2022-02-13T11:48:02Z</time>
      </trkpt>
      <trkpt lat="43.52127" lon="5.27714">
        <ele>164.52</ele>
        <time>2022-02-13T11:48:04Z</time>
      </trkpt>
      <trkpt lat="43.52121" lon="5.2773">
        <ele>166.45</ele>
        <time>2022-02-13T11:48:18Z</time>
      </trkpt>
      <trkpt lat="43.5212" lon="5.27734">
        <ele>166.45</ele>
        <time>2022-02-13T11:48:20Z</time>
      </trkpt>
      <trkpt lat="43.5211" lon="5.27749">
        <ele>165.48</ele>
        <time>2022-02-13T11:48:34Z</time>
      </trkpt>
      <trkpt lat="43.52099" lon="5.27761">
        <ele>164.52</ele>
        <time>2022-02-13T11:48:49Z</time>
      </trkpt>
      <trkpt lat="43.521" lon="5.27764">
        <ele>163.56</ele>
        <time>2022-02-13T11:48:52Z</time>
      </trkpt>
      <trkpt lat="43.52099" lon="5.27763">
        <ele>164.04</ele>
        <time>2022-02-13T11:48:55Z</time>
      </trkpt>
      <trkpt lat="43.52093" lon="5.27757">
        <ele>165.48</ele>
        <time>2022-02-13T11:49:06Z</time>
      </trkpt>
      <trkpt lat="43.52085" lon="5.27748">
        <ele>165</ele>
        <time>2022-02-13T11:49:18Z</time>
      </trkpt>
      <trkpt lat="43.52076" lon="5.27735">
        <ele>164.52</ele>
        <time>2022-02-13T11:49:32Z</time>
      </trkpt>
      <trkpt lat="43.52065" lon="5.27724">
        <ele>165.48</ele>
        <time>2022-02-13T11:49:47Z</time>
      </trkpt>
      <trkpt lat="43.5205" lon="5.27713">
        <ele>166.45</ele>
        <time>2022-02-13T11:50:01Z</time>
      </trkpt>
      <trkpt lat="43.52039" lon="5.27706">
        <ele>164.52</ele>
        <time>2022-02-13T11:50:13Z</time>
      </trkpt>
      <trkpt lat="43.52029" lon="5.2771">
        <ele>162.12</ele>
        <time>2022-02-13T11:50:18Z</time>
      </trkpt>
      <trkpt lat="43.52027" lon="5.27711">
        <ele>162.12</ele>
        <time>2022-02-13T11:50:20Z</time>
      </trkpt>
      <trkpt lat="43.52016" lon="5.27723">
        <ele>161.64</ele>
        <time>2022-02-13T11:50:32Z</time>
      </trkpt>
      <trkpt lat="43.52009" lon="5.27733">
        <ele>164.04</ele>
        <time>2022-02-13T11:50:42Z</time>
      </trkpt>
      <trkpt lat="43.51996" lon="5.27749">
        <ele>162.12</ele>
        <time>2022-02-13T11:50:53Z</time>
      </trkpt>
      <trkpt lat="43.51992" lon="5.27763">
        <ele>162.12</ele>
        <time>2022-02-13T11:51:05Z</time>
      </trkpt>
      <trkpt lat="43.51985" lon="5.27773">
        <ele>163.56</ele>
        <time>2022-02-13T11:51:16Z</time>
      </trkpt>
      <trkpt lat="43.51977" lon="5.27791">
        <ele>165</ele>
        <time>2022-02-13T11:51:30Z</time>
      </trkpt>
      <trkpt lat="43.51967" lon="5.27806">
        <ele>164.52</ele>
        <time>2022-02-13T11:51:42Z</time>
      </trkpt>
      <trkpt lat="43.51958" lon="5.27823">
        <ele>164.04</ele>
        <time>2022-02-13T11:51:55Z</time>
      </trkpt>
      <trkpt lat="43.51945" lon="5.27847">
        <ele>163.08</ele>
        <time>2022-02-13T11:52:10Z</time>
      </trkpt>
      <trkpt lat="43.51939" lon="5.27864">
        <ele>160.2</ele>
        <time>2022-02-13T11:52:21Z</time>
      </trkpt>
      <trkpt lat="43.51934" lon="5.27881">
        <ele>158.75</ele>
        <time>2022-02-13T11:52:33Z</time>
      </trkpt>
      <trkpt lat="43.51932" lon="5.27886">
        <ele>158.27</ele>
        <time>2022-02-13T11:52:36Z</time>
      </trkpt>
      <trkpt lat="43.5193" lon="5.27888">
        <ele>158.27</ele>
        <time>2022-02-13T11:52:38Z</time>
      </trkpt>
      <trkpt lat="43.51929" lon="5.27897">
        <ele>157.79</ele>
        <time>2022-02-13T11:52:43Z</time>
      </trkpt>
      <trkpt lat="43.51929" lon="5.27911">
        <ele>155.39</ele>
        <time>2022-02-13T11:52:51Z</time>
      </trkpt>
      <trkpt lat="43.51928" lon="5.27914">
        <ele>154.91</ele>
        <time>2022-02-13T11:52:53Z</time>
      </trkpt>
      <trkpt lat="43.51928" lon="5.27928">
        <ele>152.99</ele>
        <time>2022-02-13T11:53:01Z</time>
      </trkpt>
      <trkpt lat="43.51927" lon="5.27933">
        <ele>152.51</ele>
        <time>2022-02-13T11:53:05Z</time>
      </trkpt>
      <trkpt lat="43.51926" lon="5.27938">
        <ele>152.03</ele>
        <time>2022-02-13T11:53:08Z</time>
      </trkpt>
      <trkpt lat="43.51923" lon="5.27952">
        <ele>150.58</ele>
        <time>2022-02-13T11:53:18Z</time>
      </trkpt>
      <trkpt lat="43.51921" lon="5.27958">
        <ele>150.1</ele>
        <time>2022-02-13T11:53:24Z</time>
      </trkpt>
      <trkpt lat="43.51921" lon="5.27961">
        <ele>150.58</ele>
        <time>2022-02-13T11:53:26Z</time>
      </trkpt>
      <trkpt lat="43.51919" lon="5.27965">
        <ele>150.58</ele>
        <time>2022-02-13T11:53:29Z</time>
      </trkpt>
      <trkpt lat="43.51918" lon="5.27973">
        <ele>149.62</ele>
        <time>2022-02-13T11:53:35Z</time>
      </trkpt>
      <trkpt lat="43.51916" lon="5.27982">
        <ele>149.14</ele>
        <time>2022-02-13T11:53:41Z</time>
      </trkpt>
      <trkpt lat="43.51915" lon="5.28">
        <ele>147.22</ele>
        <time>2022-02-13T11:53:53Z</time>
      </trkpt>
      <trkpt lat="43.51915" lon="5.28006">
        <ele>146.26</ele>
        <time>2022-02-13T11:53:57Z</time>
      </trkpt>
      <trkpt lat="43.51915" lon="5.28026">
        <ele>144.82</ele>
        <time>2022-02-13T11:54:11Z</time>
      </trkpt>
      <trkpt lat="43.51916" lon="5.28038">
        <ele>143.37</ele>
        <time>2022-02-13T11:54:20Z</time>
      </trkpt>
      <trkpt lat="43.51918" lon="5.28052">
        <ele>142.89</ele>
        <time>2022-02-13T11:54:30Z</time>
      </trkpt>
      <trkpt lat="43.51918" lon="5.28057">
        <ele>142.89</ele>
        <time>2022-02-13T11:54:34Z</time>
      </trkpt>
      <trkpt lat="43.51919" lon="5.28073">
        <ele>141.93</ele>
        <time>2022-02-13T11:54:46Z</time>
      </trkpt>
      <trkpt lat="43.5192" lon="5.28076">
        <ele>141.93</ele>
        <time>2022-02-13T11:54:49Z</time>
      </trkpt>
      <trkpt lat="43.5192" lon="5.28082">
        <ele>140.49</ele>
        <time>2022-02-13T11:54:53Z</time>
      </trkpt>
      <trkpt lat="43.51921" lon="5.28097">
        <ele>138.57</ele>
        <time>2022-02-13T11:55:04Z</time>
      </trkpt>
      <trkpt lat="43.51914" lon="5.28116">
        <ele>135.2</ele>
        <time>2022-02-13T11:55:19Z</time>
      </trkpt>
      <trkpt lat="43.51908" lon="5.28133">
        <ele>134.24</ele>
        <time>2022-02-13T11:55:31Z</time>
      </trkpt>
      <trkpt lat="43.51906" lon="5.28141">
        <ele>133.28</ele>
        <time>2022-02-13T11:55:36Z</time>
      </trkpt>
      <trkpt lat="43.51902" lon="5.28153">
        <ele>133.28</ele>
        <time>2022-02-13T11:55:45Z</time>
      </trkpt>
      <trkpt lat="43.519" lon="5.28157">
        <ele>133.28</ele>
        <time>2022-02-13T11:55:48Z</time>
      </trkpt>
      <trkpt lat="43.51895" lon="5.28169">
        <ele>132.8</ele>
        <time>2022-02-13T11:55:58Z</time>
      </trkpt>
      <trkpt lat="43.51893" lon="5.28175">
        <ele>131.84</ele>
        <time>2022-02-13T11:56:06Z</time>
      </trkpt>
      <trkpt lat="43.51892" lon="5.28182">
        <ele>131.36</ele>
        <time>2022-02-13T11:56:11Z</time>
      </trkpt>
      <trkpt lat="43.51887" lon="5.28199">
        <ele>128.95</ele>
        <time>2022-02-13T11:56:23Z</time>
      </trkpt>
      <trkpt lat="43.51887" lon="5.28201">
        <ele>128.95</ele>
        <time>2022-02-13T11:56:24Z</time>
      </trkpt>
      <trkpt lat="43.51885" lon="5.28209">
        <ele>127.03</ele>
        <time>2022-02-13T11:56:30Z</time>
      </trkpt>
      <trkpt lat="43.51881" lon="5.28221">
        <ele>127.03</ele>
        <time>2022-02-13T11:56:40Z</time>
      </trkpt>
      <trkpt lat="43.51878" lon="5.28229">
        <ele>125.59</ele>
        <time>2022-02-13T11:56:47Z</time>
      </trkpt>
      <trkpt lat="43.51872" lon="5.28241">
        <ele>125.59</ele>
        <time>2022-02-13T11:56:57Z</time>
      </trkpt>
      <trkpt lat="43.51871" lon="5.28242">
        <ele>125.11</ele>
        <time>2022-02-13T11:56:58Z</time>
      </trkpt>
      <trkpt lat="43.5187" lon="5.28246">
        <ele>125.11</ele>
        <time>2022-02-13T11:57:01Z</time>
      </trkpt>
      <trkpt lat="43.51867" lon="5.28259">
        <ele>124.63</ele>
        <time>2022-02-13T11:57:10Z</time>
      </trkpt>
      <trkpt lat="43.51861" lon="5.28274">
        <ele>124.15</ele>
        <time>2022-02-13T11:57:23Z</time>
      </trkpt>
      <trkpt lat="43.51858" lon="5.28279">
        <ele>124.15</ele>
        <time>2022-02-13T11:57:28Z</time>
      </trkpt>
      <trkpt lat="43.51856" lon="5.28281">
        <ele>124.15</ele>
        <time>2022-02-13T11:57:30Z</time>
      </trkpt>
      <trkpt lat="43.51853" lon="5.28292">
        <ele>121.74</ele>
        <time>2022-02-13T11:57:38Z</time>
      </trkpt>
      <trkpt lat="43.51851" lon="5.28296">
        <ele>120.78</ele>
        <time>2022-02-13T11:57:41Z</time>
      </trkpt>
      <trkpt lat="43.5185" lon="5.28298">
        <ele>120.78</ele>
        <time>2022-02-13T11:57:43Z</time>
      </trkpt>
      <trkpt lat="43.51845" lon="5.28305">
        <ele>119.82</ele>
        <time>2022-02-13T11:57:52Z</time>
      </trkpt>
      <trkpt lat="43.51843" lon="5.28311">
        <ele>118.86</ele>
        <time>2022-02-13T11:57:57Z</time>
      </trkpt>
      <trkpt lat="43.51837" lon="5.28321">
        <ele>116.46</ele>
        <time>2022-02-13T11:58:07Z</time>
      </trkpt>
      <trkpt lat="43.51834" lon="5.28331">
        <ele>115.01</ele>
        <time>2022-02-13T11:58:16Z</time>
      </trkpt>
      <trkpt lat="43.51832" lon="5.28347">
        <ele>112.61</ele>
        <time>2022-02-13T11:58:26Z</time>
      </trkpt>
      <trkpt lat="43.51829" lon="5.28362">
        <ele>109.73</ele>
        <time>2022-02-13T11:58:39Z</time>
      </trkpt>
      <trkpt lat="43.5183" lon="5.28366">
        <ele>108.77</ele>
        <time>2022-02-13T11:58:43Z</time>
      </trkpt>
      <trkpt lat="43.51831" lon="5.2838">
        <ele>107.81</ele>
        <time>2022-02-13T11:58:53Z</time>
      </trkpt>
      <trkpt lat="43.51831" lon="5.28384">
        <ele>107.81</ele>
        <time>2022-02-13T11:58:56Z</time>
      </trkpt>
      <trkpt lat="43.51827" lon="5.28399">
        <ele>106.36</ele>
        <time>2022-02-13T11:59:09Z</time>
      </trkpt>
      <trkpt lat="43.51822" lon="5.28413">
        <ele>106.84</ele>
        <time>2022-02-13T11:59:20Z</time>
      </trkpt>
      <trkpt lat="43.51822" lon="5.28414">
        <ele>106.84</ele>
        <time>2022-02-13T11:59:21Z</time>
      </trkpt>
      <trkpt lat="43.51821" lon="5.28416">
        <ele>107.32</ele>
        <time>2022-02-13T11:59:23Z</time>
      </trkpt>
      <trkpt lat="43.5182" lon="5.28423">
        <ele>107.32</ele>
        <time>2022-02-13T11:59:33Z</time>
      </trkpt>
      <trkpt lat="43.5182" lon="5.28435">
        <ele>107.32</ele>
        <time>2022-02-13T11:59:41Z</time>
      </trkpt>
      <trkpt lat="43.51825" lon="5.28449">
        <ele>107.32</ele>
        <time>2022-02-13T11:59:52Z</time>
      </trkpt>
      <trkpt lat="43.51829" lon="5.28462">
        <ele>107.32</ele>
        <time>2022-02-13T12:00:01Z</time>
      </trkpt>
      <trkpt lat="43.5183" lon="5.28466">
        <ele>106.84</ele>
        <time>2022-02-13T12:00:04Z</time>
      </trkpt>
      <trkpt lat="43.51831" lon="5.28468">
        <ele>106.84</ele>
        <time>2022-02-13T12:00:06Z</time>
      </trkpt>
      <trkpt lat="43.51834" lon="5.28478">
        <ele>106.36</ele>
        <time>2022-02-13T12:00:13Z</time>
      </trkpt>
      <trkpt lat="43.51838" lon="5.28486">
        <ele>107.32</ele>
        <time>2022-02-13T12:00:27Z</time>
      </trkpt>
      <trkpt lat="43.5184" lon="5.28492">
        <ele>106.36</ele>
        <time>2022-02-13T12:00:31Z</time>
      </trkpt>
      <trkpt lat="43.51845" lon="5.2851">
        <ele>105.88</ele>
        <time>2022-02-13T12:00:44Z</time>
      </trkpt>
      <trkpt lat="43.51849" lon="5.28524">
        <ele>105.88</ele>
        <time>2022-02-13T12:00:54Z</time>
      </trkpt>
      <trkpt lat="43.51852" lon="5.28544">
        <ele>107.32</ele>
        <time>2022-02-13T12:01:07Z</time>
      </trkpt>
      <trkpt lat="43.51853" lon="5.2856">
        <ele>107.32</ele>
        <time>2022-02-13T12:01:17Z</time>
      </trkpt>
      <trkpt lat="43.51853" lon="5.28567">
        <ele>107.32</ele>
        <time>2022-02-13T12:01:22Z</time>
      </trkpt>
      <trkpt lat="43.51854" lon="5.28578">
        <ele>106.84</ele>
        <time>2022-02-13T12:01:29Z</time>
      </trkpt>
      <trkpt lat="43.51854" lon="5.28581">
        <ele>107.32</ele>
        <time>2022-02-13T12:01:31Z</time>
      </trkpt>
      <trkpt lat="43.51855" lon="5.28588">
        <ele>106.84</ele>
        <time>2022-02-13T12:01:40Z</time>
      </trkpt>
      <trkpt lat="43.51854" lon="5.28591">
        <ele>106.84</ele>
        <time>2022-02-13T12:01:42Z</time>
      </trkpt>
      <trkpt lat="43.51854" lon="5.28594">
        <ele>106.84</ele>
        <time>2022-02-13T12:01:45Z</time>
      </trkpt>
      <trkpt lat="43.51852" lon="5.28606">
        <ele>108.29</ele>
        <time>2022-02-13T12:01:56Z</time>
      </trkpt>
      <trkpt lat="43.51853" lon="5.28616">
        <ele>107.81</ele>
        <time>2022-02-13T12:02:08Z</time>
      </trkpt>
      <trkpt lat="43.51847" lon="5.28629">
        <ele>109.73</ele>
        <time>2022-02-13T12:02:19Z</time>
      </trkpt>
      <trkpt lat="43.51841" lon="5.28646">
        <ele>108.29</ele>
        <time>2022-02-13T12:02:32Z</time>
      </trkpt>
      <trkpt lat="43.51837" lon="5.28655">
        <ele>107.32</ele>
        <time>2022-02-13T12:02:38Z</time>
      </trkpt>
      <trkpt lat="43.51833" lon="5.28671">
        <ele>107.32</ele>
        <time>2022-02-13T12:02:50Z</time>
      </trkpt>
      <trkpt lat="43.51835" lon="5.28683">
        <ele>106.84</ele>
        <time>2022-02-13T12:02:59Z</time>
      </trkpt>
      <trkpt lat="43.51836" lon="5.28697">
        <ele>105.88</ele>
        <time>2022-02-13T12:03:09Z</time>
      </trkpt>
      <trkpt lat="43.51835" lon="5.28701">
        <ele>105.4</ele>
        <time>2022-02-13T12:03:12Z</time>
      </trkpt>
      <trkpt lat="43.5183" lon="5.28719">
        <ele>104.44</ele>
        <time>2022-02-13T12:03:26Z</time>
      </trkpt>
      <trkpt lat="43.5183" lon="5.28734">
        <ele>103.96</ele>
        <time>2022-02-13T12:03:38Z</time>
      </trkpt>
      <trkpt lat="43.51829" lon="5.28737">
        <ele>103.96</ele>
        <time>2022-02-13T12:03:44Z</time>
      </trkpt>
      <trkpt lat="43.51828" lon="5.28739">
        <ele>103.96</ele>
        <time>2022-02-13T12:03:46Z</time>
      </trkpt>
      <trkpt lat="43.51823" lon="5.28752">
        <ele>106.84</ele>
        <time>2022-02-13T12:03:58Z</time>
      </trkpt>
      <trkpt lat="43.51818" lon="5.28765">
        <ele>110.69</ele>
        <time>2022-02-13T12:04:11Z</time>
      </trkpt>
      <trkpt lat="43.51813" lon="5.28775">
        <ele>115.5</ele>
        <time>2022-02-13T12:04:22Z</time>
      </trkpt>
      <trkpt lat="43.51809" lon="5.28788">
        <ele>116.46</ele>
        <time>2022-02-13T12:04:37Z</time>
      </trkpt>
      <trkpt lat="43.51801" lon="5.28799">
        <ele>116.94</ele>
        <time>2022-02-13T12:04:49Z</time>
      </trkpt>
      <trkpt lat="43.51792" lon="5.28811">
        <ele>117.9</ele>
        <time>2022-02-13T12:05:03Z</time>
      </trkpt>
      <trkpt lat="43.51789" lon="5.28817">
        <ele>118.86</ele>
        <time>2022-02-13T12:05:09Z</time>
      </trkpt>
      <trkpt lat="43.51783" lon="5.28831">
        <ele>119.34</ele>
        <time>2022-02-13T12:05:21Z</time>
      </trkpt>
      <trkpt lat="43.51777" lon="5.28847">
        <ele>118.38</ele>
        <time>2022-02-13T12:05:32Z</time>
      </trkpt>
      <trkpt lat="43.51775" lon="5.28853">
        <ele>118.38</ele>
        <time>2022-02-13T12:05:36Z</time>
      </trkpt>
      <trkpt lat="43.51773" lon="5.28855">
        <ele>118.38</ele>
        <time>2022-02-13T12:05:38Z</time>
      </trkpt>
      <trkpt lat="43.5177" lon="5.2887">
        <ele>117.42</ele>
        <time>2022-02-13T12:05:49Z</time>
      </trkpt>
      <trkpt lat="43.51767" lon="5.28876">
        <ele>117.42</ele>
        <time>2022-02-13T12:05:53Z</time>
      </trkpt>
      <trkpt lat="43.51766" lon="5.28878">
        <ele>117.42</ele>
        <time>2022-02-13T12:05:55Z</time>
      </trkpt>
      <trkpt lat="43.51765" lon="5.2888">
        <ele>116.94</ele>
        <time>2022-02-13T12:05:57Z</time>
      </trkpt>
      <trkpt lat="43.51763" lon="5.28884">
        <ele>116.94</ele>
        <time>2022-02-13T12:06:00Z</time>
      </trkpt>
      <trkpt lat="43.5176" lon="5.28893">
        <ele>116.94</ele>
        <time>2022-02-13T12:06:06Z</time>
      </trkpt>
      <trkpt lat="43.51759" lon="5.28895">
        <ele>117.9</ele>
        <time>2022-02-13T12:06:08Z</time>
      </trkpt>
      <trkpt lat="43.51757" lon="5.289">
        <ele>117.9</ele>
        <time>2022-02-13T12:06:12Z</time>
      </trkpt>
      <trkpt lat="43.51756" lon="5.28902">
        <ele>117.9</ele>
        <time>2022-02-13T12:06:14Z</time>
      </trkpt>
      <trkpt lat="43.51755" lon="5.28905">
        <ele>117.9</ele>
        <time>2022-02-13T12:06:16Z</time>
      </trkpt>
      <trkpt lat="43.51752" lon="5.28913">
        <ele>118.86</ele>
        <time>2022-02-13T12:06:23Z</time>
      </trkpt>
      <trkpt lat="43.5175" lon="5.28919">
        <ele>119.34</ele>
        <time>2022-02-13T12:06:28Z</time>
      </trkpt>
      <trkpt lat="43.51749" lon="5.28921">
        <ele>119.82</ele>
        <time>2022-02-13T12:06:30Z</time>
      </trkpt>
      <trkpt lat="43.51743" lon="5.28937">
        <ele>120.78</ele>
        <time>2022-02-13T12:06:43Z</time>
      </trkpt>
      <trkpt lat="43.51735" lon="5.28951">
        <ele>122.22</ele>
        <time>2022-02-13T12:06:53Z</time>
      </trkpt>
      <trkpt lat="43.51733" lon="5.28957">
        <ele>122.71</ele>
        <time>2022-02-13T12:06:58Z</time>
      </trkpt>
      <trkpt lat="43.51732" lon="5.28959">
        <ele>122.71</ele>
        <time>2022-02-13T12:07:00Z</time>
      </trkpt>
      <trkpt lat="43.51726" lon="5.28973">
        <ele>125.11</ele>
        <time>2022-02-13T12:07:13Z</time>
      </trkpt>
      <trkpt lat="43.51722" lon="5.28983">
        <ele>127.03</ele>
        <time>2022-02-13T12:07:23Z</time>
      </trkpt>
      <trkpt lat="43.51719" lon="5.28995">
        <ele>128.47</ele>
        <time>2022-02-13T12:07:33Z</time>
      </trkpt>
      <trkpt lat="43.51719" lon="5.29011">
        <ele>128.47</ele>
        <time>2022-02-13T12:07:45Z</time>
      </trkpt>
      <trkpt lat="43.51719" lon="5.29024">
        <ele>126.55</ele>
        <time>2022-02-13T12:07:55Z</time>
      </trkpt>
      <trkpt lat="43.51719" lon="5.29039">
        <ele>126.07</ele>
        <time>2022-02-13T12:08:08Z</time>
      </trkpt>
      <trkpt lat="43.5172" lon="5.2906">
        <ele>125.59</ele>
        <time>2022-02-13T12:08:22Z</time>
      </trkpt>
      <trkpt lat="43.51719" lon="5.29085">
        <ele>127.99</ele>
        <time>2022-02-13T12:08:38Z</time>
      </trkpt>
      <trkpt lat="43.51719" lon="5.29086">
        <ele>127.99</ele>
        <time>2022-02-13T12:08:39Z</time>
      </trkpt>
      <trkpt lat="43.51719" lon="5.29088">
        <ele>127.99</ele>
        <time>2022-02-13T12:08:41Z</time>
      </trkpt>
      <trkpt lat="43.5172" lon="5.29105">
        <ele>129.43</ele>
        <time>2022-02-13T12:08:53Z</time>
      </trkpt>
      <trkpt lat="43.51719" lon="5.29106">
        <ele>129.43</ele>
        <time>2022-02-13T12:08:55Z</time>
      </trkpt>
      <trkpt lat="43.51714" lon="5.2912">
        <ele>131.36</ele>
        <time>2022-02-13T12:09:08Z</time>
      </trkpt>
      <trkpt lat="43.51708" lon="5.29135">
        <ele>133.28</ele>
        <time>2022-02-13T12:09:20Z</time>
      </trkpt>
      <trkpt lat="43.51707" lon="5.2915">
        <ele>136.64</ele>
        <time>2022-02-13T12:09:32Z</time>
      </trkpt>
      <trkpt lat="43.51708" lon="5.29155">
        <ele>136.64</ele>
        <time>2022-02-13T12:09:36Z</time>
      </trkpt>
      <trkpt lat="43.51711" lon="5.29165">
        <ele>137.61</ele>
        <time>2022-02-13T12:09:43Z</time>
      </trkpt>
      <trkpt lat="43.51712" lon="5.29175">
        <ele>138.09</ele>
        <time>2022-02-13T12:09:50Z</time>
      </trkpt>
      <trkpt lat="43.5171" lon="5.29186">
        <ele>136.64</ele>
        <time>2022-02-13T12:10:03Z</time>
      </trkpt>
      <trkpt lat="43.51707" lon="5.29188">
        <ele>136.64</ele>
        <time>2022-02-13T12:10:07Z</time>
      </trkpt>
      <trkpt lat="43.51699" lon="5.29196">
        <ele>138.09</ele>
        <time>2022-02-13T12:10:20Z</time>
      </trkpt>
      <trkpt lat="43.51692" lon="5.29207">
        <ele>140.49</ele>
        <time>2022-02-13T12:10:34Z</time>
      </trkpt>
      <trkpt lat="43.51684" lon="5.29211">
        <ele>142.41</ele>
        <time>2022-02-13T12:10:46Z</time>
      </trkpt>
      <trkpt lat="43.51683" lon="5.29209">
        <ele>142.89</ele>
        <time>2022-02-13T12:10:51Z</time>
      </trkpt>
      <trkpt lat="43.5168" lon="5.29197">
        <ele>144.82</ele>
        <time>2022-02-13T12:11:03Z</time>
      </trkpt>
      <trkpt lat="43.51677" lon="5.29186">
        <ele>145.78</ele>
        <time>2022-02-13T12:11:14Z</time>
      </trkpt>
      <trkpt lat="43.51676" lon="5.29185">
        <ele>145.3</ele>
        <time>2022-02-13T12:11:15Z</time>
      </trkpt>
      <trkpt lat="43.51672" lon="5.29175">
        <ele>143.85</ele>
        <time>2022-02-13T12:11:24Z</time>
      </trkpt>
      <trkpt lat="43.51667" lon="5.29161">
        <ele>143.85</ele>
        <time>2022-02-13T12:11:35Z</time>
      </trkpt>
      <trkpt lat="43.51661" lon="5.29151">
        <ele>144.34</ele>
        <time>2022-02-13T12:11:44Z</time>
      </trkpt>
      <trkpt lat="43.5166" lon="5.29148">
        <ele>144.34</ele>
        <time>2022-02-13T12:11:46Z</time>
      </trkpt>
      <trkpt lat="43.51652" lon="5.29135">
        <ele>144.82</ele>
        <time>2022-02-13T12:11:59Z</time>
      </trkpt>
      <trkpt lat="43.51646" lon="5.29126">
        <ele>145.3</ele>
        <time>2022-02-13T12:12:07Z</time>
      </trkpt>
      <trkpt lat="43.51638" lon="5.29114">
        <ele>145.78</ele>
        <time>2022-02-13T12:12:20Z</time>
      </trkpt>
      <trkpt lat="43.51637" lon="5.29111">
        <ele>146.26</ele>
        <time>2022-02-13T12:12:22Z</time>
      </trkpt>
      <trkpt lat="43.5163" lon="5.29096">
        <ele>145.78</ele>
        <time>2022-02-13T12:12:35Z</time>
      </trkpt>
      <trkpt lat="43.51627" lon="5.29081">
        <ele>145.3</ele>
        <time>2022-02-13T12:12:46Z</time>
      </trkpt>
      <trkpt lat="43.51626" lon="5.29076">
        <ele>146.26</ele>
        <time>2022-02-13T12:12:50Z</time>
      </trkpt>
      <trkpt lat="43.51624" lon="5.29063">
        <ele>148.66</ele>
        <time>2022-02-13T12:13:02Z</time>
      </trkpt>
      <trkpt lat="43.5162" lon="5.29051">
        <ele>150.58</ele>
        <time>2022-02-13T12:13:16Z</time>
      </trkpt>
      <trkpt lat="43.51616" lon="5.29032">
        <ele>151.06</ele>
        <time>2022-02-13T12:13:32Z</time>
      </trkpt>
      <trkpt lat="43.51614" lon="5.29018">
        <ele>151.54</ele>
        <time>2022-02-13T12:13:47Z</time>
      </trkpt>
      <trkpt lat="43.51613" lon="5.29013">
        <ele>152.03</ele>
        <time>2022-02-13T12:13:53Z</time>
      </trkpt>
      <trkpt lat="43.51614" lon="5.29">
        <ele>152.03</ele>
        <time>2022-02-13T12:14:05Z</time>
      </trkpt>
      <trkpt lat="43.51615" lon="5.28984">
        <ele>153.95</ele>
        <time>2022-02-13T12:14:19Z</time>
      </trkpt>
      <trkpt lat="43.51613" lon="5.28971">
        <ele>154.91</ele>
        <time>2022-02-13T12:14:32Z</time>
      </trkpt>
      <trkpt lat="43.51612" lon="5.28964">
        <ele>155.87</ele>
        <time>2022-02-13T12:14:38Z</time>
      </trkpt>
      <trkpt lat="43.51606" lon="5.28953">
        <ele>156.83</ele>
        <time>2022-02-13T12:14:50Z</time>
      </trkpt>
      <trkpt lat="43.51599" lon="5.28945">
        <ele>156.83</ele>
        <time>2022-02-13T12:15:00Z</time>
      </trkpt>
      <trkpt lat="43.51598" lon="5.28943">
        <ele>156.83</ele>
        <time>2022-02-13T12:15:02Z</time>
      </trkpt>
      <trkpt lat="43.5159" lon="5.2893">
        <ele>157.79</ele>
        <time>2022-02-13T12:15:15Z</time>
      </trkpt>
      <trkpt lat="43.51587" lon="5.28923">
        <ele>157.79</ele>
        <time>2022-02-13T12:15:21Z</time>
      </trkpt>
      <trkpt lat="43.51585" lon="5.28908">
        <ele>160.2</ele>
        <time>2022-02-13T12:15:32Z</time>
      </trkpt>
      <trkpt lat="43.51582" lon="5.28895">
        <ele>160.2</ele>
        <time>2022-02-13T12:15:43Z</time>
      </trkpt>
      <trkpt lat="43.51578" lon="5.28882">
        <ele>160.68</ele>
        <time>2022-02-13T12:15:54Z</time>
      </trkpt>
      <trkpt lat="43.51567" lon="5.28869">
        <ele>160.2</ele>
        <time>2022-02-13T12:16:08Z</time>
      </trkpt>
      <trkpt lat="43.5156" lon="5.28856">
        <ele>159.24</ele>
        <time>2022-02-13T12:16:20Z</time>
      </trkpt>
      <trkpt lat="43.51554" lon="5.28844">
        <ele>159.72</ele>
        <time>2022-02-13T12:16:30Z</time>
      </trkpt>
      <trkpt lat="43.51551" lon="5.2884">
        <ele>159.24</ele>
        <time>2022-02-13T12:16:34Z</time>
      </trkpt>
      <trkpt lat="43.5155" lon="5.28838">
        <ele>159.72</ele>
        <time>2022-02-13T12:16:36Z</time>
      </trkpt>
      <trkpt lat="43.51549" lon="5.28836">
        <ele>159.72</ele>
        <time>2022-02-13T12:16:38Z</time>
      </trkpt>
      <trkpt lat="43.51544" lon="5.28826">
        <ele>161.64</ele>
        <time>2022-02-13T12:16:47Z</time>
      </trkpt>
      <trkpt lat="43.51544" lon="5.28824">
        <ele>162.6</ele>
        <time>2022-02-13T12:16:49Z</time>
      </trkpt>
      <trkpt lat="43.51536" lon="5.28812">
        <ele>162.6</ele>
        <time>2022-02-13T12:17:01Z</time>
      </trkpt>
      <trkpt lat="43.5153" lon="5.28799">
        <ele>165.48</ele>
        <time>2022-02-13T12:17:13Z</time>
      </trkpt>
      <trkpt lat="43.51526" lon="5.28794">
        <ele>166.45</ele>
        <time>2022-02-13T12:17:19Z</time>
      </trkpt>
      <trkpt lat="43.51525" lon="5.28792">
        <ele>166.45</ele>
        <time>2022-02-13T12:17:21Z</time>
      </trkpt>
      <trkpt lat="43.51517" lon="5.28779">
        <ele>168.37</ele>
        <time>2022-02-13T12:17:34Z</time>
      </trkpt>
      <trkpt lat="43.51512" lon="5.28768">
        <ele>170.77</ele>
        <time>2022-02-13T12:17:45Z</time>
      </trkpt>
      <trkpt lat="43.5151" lon="5.28761">
        <ele>172.21</ele>
        <time>2022-02-13T12:17:53Z</time>
      </trkpt>
      <trkpt lat="43.51513" lon="5.28753">
        <ele>171.25</ele>
        <time>2022-02-13T12:18:04Z</time>
      </trkpt>
      <trkpt lat="43.51517" lon="5.28752">
        <ele>170.29</ele>
        <time>2022-02-13T12:18:13Z</time>
      </trkpt>
      <trkpt lat="43.51527" lon="5.28758">
        <ele>166.93</ele>
        <time>2022-02-13T12:18:28Z</time>
      </trkpt>
      <trkpt lat="43.51528" lon="5.28758">
        <ele>166.93</ele>
        <time>2022-02-13T12:18:29Z</time>
      </trkpt>
      <trkpt lat="43.51538" lon="5.28759">
        <ele>165.96</ele>
        <time>2022-02-13T12:18:40Z</time>
      </trkpt>
      <trkpt lat="43.51539" lon="5.28759">
        <ele>165.48</ele>
        <time>2022-02-13T12:18:41Z</time>
      </trkpt>
      <trkpt lat="43.51541" lon="5.28758">
        <ele>165.48</ele>
        <time>2022-02-13T12:18:43Z</time>
      </trkpt>
      <trkpt lat="43.51544" lon="5.28758">
        <ele>165.48</ele>
        <time>2022-02-13T12:18:45Z</time>
      </trkpt>
      <trkpt lat="43.51546" lon="5.28758">
        <ele>165</ele>
        <time>2022-02-13T12:18:47Z</time>
      </trkpt>
      <trkpt lat="43.51551" lon="5.28757">
        <ele>164.52</ele>
        <time>2022-02-13T12:18:52Z</time>
      </trkpt>
      <trkpt lat="43.51558" lon="5.28756">
        <ele>164.04</ele>
        <time>2022-02-13T12:18:58Z</time>
      </trkpt>
      <trkpt lat="43.51572" lon="5.2875">
        <ele>162.6</ele>
        <time>2022-02-13T12:19:11Z</time>
      </trkpt>
      <trkpt lat="43.51583" lon="5.28742">
        <ele>161.64</ele>
        <time>2022-02-13T12:19:22Z</time>
      </trkpt>
      <trkpt lat="43.51594" lon="5.28723">
        <ele>163.08</ele>
        <time>2022-02-13T12:19:38Z</time>
      </trkpt>
      <trkpt lat="43.51597" lon="5.28718">
        <ele>163.08</ele>
        <time>2022-02-13T12:19:42Z</time>
      </trkpt>
      <trkpt lat="43.51597" lon="5.28714">
        <ele>163.08</ele>
        <time>2022-02-13T12:19:44Z</time>
      </trkpt>
      <trkpt lat="43.51598" lon="5.28712">
        <ele>163.56</ele>
        <time>2022-02-13T12:19:46Z</time>
      </trkpt>
      <trkpt lat="43.51599" lon="5.28695">
        <ele>163.56</ele>
        <time>2022-02-13T12:19:57Z</time>
      </trkpt>
      <trkpt lat="43.51599" lon="5.28682">
        <ele>163.56</ele>
        <time>2022-02-13T12:20:05Z</time>
      </trkpt>
      <trkpt lat="43.516" lon="5.28679">
        <ele>165</ele>
        <time>2022-02-13T12:20:08Z</time>
      </trkpt>
      <trkpt lat="43.516" lon="5.28676">
        <ele>165.48</ele>
        <time>2022-02-13T12:20:10Z</time>
      </trkpt>
      <trkpt lat="43.51601" lon="5.28663">
        <ele>164.52</ele>
        <time>2022-02-13T12:20:18Z</time>
      </trkpt>
      <trkpt lat="43.51604" lon="5.28646">
        <ele>163.08</ele>
        <time>2022-02-13T12:20:29Z</time>
      </trkpt>
      <trkpt lat="43.51605" lon="5.28643">
        <ele>162.6</ele>
        <time>2022-02-13T12:20:31Z</time>
      </trkpt>
      <trkpt lat="43.51606" lon="5.2864">
        <ele>163.08</ele>
        <time>2022-02-13T12:20:33Z</time>
      </trkpt>
      <trkpt lat="43.51607" lon="5.28623">
        <ele>163.56</ele>
        <time>2022-02-13T12:20:44Z</time>
      </trkpt>
      <trkpt lat="43.51607" lon="5.28617">
        <ele>163.56</ele>
        <time>2022-02-13T12:20:48Z</time>
      </trkpt>
      <trkpt lat="43.51604" lon="5.28608">
        <ele>163.08</ele>
        <time>2022-02-13T12:21:00Z</time>
      </trkpt>
      <trkpt lat="43.51602" lon="5.28602">
        <ele>163.08</ele>
        <time>2022-02-13T12:21:05Z</time>
      </trkpt>
      <trkpt lat="43.516" lon="5.28589">
        <ele>162.6</ele>
        <time>2022-02-13T12:21:16Z</time>
      </trkpt>
      <trkpt lat="43.51597" lon="5.28574">
        <ele>162.6</ele>
        <time>2022-02-13T12:21:27Z</time>
      </trkpt>
      <trkpt lat="43.51596" lon="5.28569">
        <ele>163.56</ele>
        <time>2022-02-13T12:21:31Z</time>
      </trkpt>
      <trkpt lat="43.51595" lon="5.28562">
        <ele>165</ele>
        <time>2022-02-13T12:21:37Z</time>
      </trkpt>
      <trkpt lat="43.51594" lon="5.28558">
        <ele>165</ele>
        <time>2022-02-13T12:21:40Z</time>
      </trkpt>
      <trkpt lat="43.5159" lon="5.2855">
        <ele>165.96</ele>
        <time>2022-02-13T12:21:51Z</time>
      </trkpt>
      <trkpt lat="43.51585" lon="5.2854">
        <ele>167.41</ele>
        <time>2022-02-13T12:22:01Z</time>
      </trkpt>
      <trkpt lat="43.51582" lon="5.28536">
        <ele>167.41</ele>
        <time>2022-02-13T12:22:16Z</time>
      </trkpt>
      <trkpt lat="43.51578" lon="5.28525">
        <ele>168.37</ele>
        <time>2022-02-13T12:22:31Z</time>
      </trkpt>
      <trkpt lat="43.51571" lon="5.28513">
        <ele>171.73</ele>
        <time>2022-02-13T12:22:44Z</time>
      </trkpt>
      <trkpt lat="43.51563" lon="5.28501">
        <ele>172.69</ele>
        <time>2022-02-13T12:22:57Z</time>
      </trkpt>
      <trkpt lat="43.51557" lon="5.28494">
        <ele>172.21</ele>
        <time>2022-02-13T12:23:06Z</time>
      </trkpt>
      <trkpt lat="43.51549" lon="5.28481">
        <ele>172.69</ele>
        <time>2022-02-13T12:23:18Z</time>
      </trkpt>
      <trkpt lat="43.51545" lon="5.28475">
        <ele>173.66</ele>
        <time>2022-02-13T12:23:24Z</time>
      </trkpt>
      <trkpt lat="43.51544" lon="5.28472">
        <ele>173.66</ele>
        <time>2022-02-13T12:23:26Z</time>
      </trkpt>
      <trkpt lat="43.51537" lon="5.28459">
        <ele>174.62</ele>
        <time>2022-02-13T12:23:37Z</time>
      </trkpt>
      <trkpt lat="43.51536" lon="5.28456">
        <ele>174.62</ele>
        <time>2022-02-13T12:23:40Z</time>
      </trkpt>
      <trkpt lat="43.51534" lon="5.28453">
        <ele>174.62</ele>
        <time>2022-02-13T12:23:42Z</time>
      </trkpt>
      <trkpt lat="43.51533" lon="5.28451">
        <ele>174.62</ele>
        <time>2022-02-13T12:23:44Z</time>
      </trkpt>
      <trkpt lat="43.51532" lon="5.28449">
        <ele>175.1</ele>
        <time>2022-02-13T12:23:46Z</time>
      </trkpt>
      <trkpt lat="43.5153" lon="5.28447">
        <ele>175.58</ele>
        <time>2022-02-13T12:23:48Z</time>
      </trkpt>
      <trkpt lat="43.51529" lon="5.28445">
        <ele>175.58</ele>
        <time>2022-02-13T12:23:50Z</time>
      </trkpt>
      <trkpt lat="43.5152" lon="5.28434">
        <ele>176.54</ele>
        <time>2022-02-13T12:24:01Z</time>
      </trkpt>
      <trkpt lat="43.51506" lon="5.28425">
        <ele>175.58</ele>
        <time>2022-02-13T12:24:13Z</time>
      </trkpt>
      <trkpt lat="43.51504" lon="5.28423">
        <ele>175.58</ele>
        <time>2022-02-13T12:24:15Z</time>
      </trkpt>
      <trkpt lat="43.5149" lon="5.28417">
        <ele>174.62</ele>
        <time>2022-02-13T12:24:28Z</time>
      </trkpt>
      <trkpt lat="43.51477" lon="5.28413">
        <ele>175.58</ele>
        <time>2022-02-13T12:24:40Z</time>
      </trkpt>
      <trkpt lat="43.51473" lon="5.28412">
        <ele>175.1</ele>
        <time>2022-02-13T12:24:44Z</time>
      </trkpt>
      <trkpt lat="43.51466" lon="5.28411">
        <ele>174.62</ele>
        <time>2022-02-13T12:24:55Z</time>
      </trkpt>
      <trkpt lat="43.51465" lon="5.2841">
        <ele>174.62</ele>
        <time>2022-02-13T12:24:57Z</time>
      </trkpt>
      <trkpt lat="43.51463" lon="5.2841">
        <ele>174.62</ele>
        <time>2022-02-13T12:24:59Z</time>
      </trkpt>
      <trkpt lat="43.5146" lon="5.28409">
        <ele>175.1</ele>
        <time>2022-02-13T12:25:03Z</time>
      </trkpt>
      <trkpt lat="43.51455" lon="5.28407">
        <ele>175.58</ele>
        <time>2022-02-13T12:25:09Z</time>
      </trkpt>
      <trkpt lat="43.51452" lon="5.28407">
        <ele>175.1</ele>
        <time>2022-02-13T12:25:11Z</time>
      </trkpt>
      <trkpt lat="43.51451" lon="5.28407">
        <ele>174.62</ele>
        <time>2022-02-13T12:25:13Z</time>
      </trkpt>
      <trkpt lat="43.51449" lon="5.28407">
        <ele>174.62</ele>
        <time>2022-02-13T12:25:15Z</time>
      </trkpt>
      <trkpt lat="43.51435" lon="5.28404">
        <ele>175.58</ele>
        <time>2022-02-13T12:25:28Z</time>
      </trkpt>
      <trkpt lat="43.51433" lon="5.28404">
        <ele>175.58</ele>
        <time>2022-02-13T12:25:30Z</time>
      </trkpt>
      <trkpt lat="43.51421" lon="5.28404">
        <ele>176.06</ele>
        <time>2022-02-13T12:25:41Z</time>
      </trkpt>
      <trkpt lat="43.51408" lon="5.28402">
        <ele>175.58</ele>
        <time>2022-02-13T12:25:53Z</time>
      </trkpt>
      <trkpt lat="43.51396" lon="5.28401">
        <ele>176.06</ele>
        <time>2022-02-13T12:26:04Z</time>
      </trkpt>
      <trkpt lat="43.51393" lon="5.28401">
        <ele>176.06</ele>
        <time>2022-02-13T12:26:06Z</time>
      </trkpt>
      <trkpt lat="43.51382" lon="5.28399">
        <ele>177.5</ele>
        <time>2022-02-13T12:26:18Z</time>
      </trkpt>
      <trkpt lat="43.51375" lon="5.28398">
        <ele>178.46</ele>
        <time>2022-02-13T12:26:27Z</time>
      </trkpt>
      <trkpt lat="43.51364" lon="5.28397">
        <ele>179.42</ele>
        <time>2022-02-13T12:26:38Z</time>
      </trkpt>
      <trkpt lat="43.51357" lon="5.28396">
        <ele>178.94</ele>
        <time>2022-02-13T12:26:44Z</time>
      </trkpt>
      <trkpt lat="43.51355" lon="5.28396">
        <ele>178.94</ele>
        <time>2022-02-13T12:26:46Z</time>
      </trkpt>
      <trkpt lat="43.5135" lon="5.28396">
        <ele>179.42</ele>
        <time>2022-02-13T12:26:51Z</time>
      </trkpt>
      <trkpt lat="43.51344" lon="5.28395">
        <ele>179.42</ele>
        <time>2022-02-13T12:26:58Z</time>
      </trkpt>
      <trkpt lat="43.51329" lon="5.28394">
        <ele>179.42</ele>
        <time>2022-02-13T12:27:11Z</time>
      </trkpt>
      <trkpt lat="43.51317" lon="5.28392">
        <ele>180.38</ele>
        <time>2022-02-13T12:27:23Z</time>
      </trkpt>
      <trkpt lat="43.51314" lon="5.28391">
        <ele>181.35</ele>
        <time>2022-02-13T12:27:27Z</time>
      </trkpt>
      <trkpt lat="43.51308" lon="5.28388">
        <ele>181.83</ele>
        <time>2022-02-13T12:27:34Z</time>
      </trkpt>
      <trkpt lat="43.51297" lon="5.28385">
        <ele>181.35</ele>
        <time>2022-02-13T12:27:45Z</time>
      </trkpt>
      <trkpt lat="43.51286" lon="5.28381">
        <ele>180.87</ele>
        <time>2022-02-13T12:27:55Z</time>
      </trkpt>
      <trkpt lat="43.51283" lon="5.2838">
        <ele>180.87</ele>
        <time>2022-02-13T12:27:58Z</time>
      </trkpt>
      <trkpt lat="43.5128" lon="5.28379">
        <ele>180.38</ele>
        <time>2022-02-13T12:28:00Z</time>
      </trkpt>
      <trkpt lat="43.51278" lon="5.28378">
        <ele>179.9</ele>
        <time>2022-02-13T12:28:02Z</time>
      </trkpt>
      <trkpt lat="43.51268" lon="5.28375">
        <ele>179.9</ele>
        <time>2022-02-13T12:28:11Z</time>
      </trkpt>
      <trkpt lat="43.51267" lon="5.28374">
        <ele>180.38</ele>
        <time>2022-02-13T12:28:13Z</time>
      </trkpt>
      <trkpt lat="43.51255" lon="5.28371">
        <ele>181.35</ele>
        <time>2022-02-13T12:28:24Z</time>
      </trkpt>
      <trkpt lat="43.51244" lon="5.28367">
        <ele>181.35</ele>
        <time>2022-02-13T12:28:36Z</time>
      </trkpt>
      <trkpt lat="43.51233" lon="5.28361">
        <ele>182.31</ele>
        <time>2022-02-13T12:28:48Z</time>
      </trkpt>
      <trkpt lat="43.51223" lon="5.28357">
        <ele>183.75</ele>
        <time>2022-02-13T12:28:59Z</time>
      </trkpt>
      <trkpt lat="43.51215" lon="5.28352">
        <ele>185.67</ele>
        <time>2022-02-13T12:29:09Z</time>
      </trkpt>
      <trkpt lat="43.51206" lon="5.28347">
        <ele>186.15</ele>
        <time>2022-02-13T12:29:19Z</time>
      </trkpt>
      <trkpt lat="43.51193" lon="5.28341">
        <ele>186.63</ele>
        <time>2022-02-13T12:29:34Z</time>
      </trkpt>
      <trkpt lat="43.51182" lon="5.28336">
        <ele>188.08</ele>
        <time>2022-02-13T12:29:47Z</time>
      </trkpt>
      <trkpt lat="43.5117" lon="5.28333">
        <ele>187.59</ele>
        <time>2022-02-13T12:30:00Z</time>
      </trkpt>
      <trkpt lat="43.51158" lon="5.28331">
        <ele>188.56</ele>
        <time>2022-02-13T12:30:13Z</time>
      </trkpt>
      <trkpt lat="43.51146" lon="5.28331">
        <ele>188.56</ele>
        <time>2022-02-13T12:30:26Z</time>
      </trkpt>
      <trkpt lat="43.51136" lon="5.2833">
        <ele>189.52</ele>
        <time>2022-02-13T12:30:37Z</time>
      </trkpt>
      <trkpt lat="43.51134" lon="5.2833">
        <ele>189.52</ele>
        <time>2022-02-13T12:30:40Z</time>
      </trkpt>
      <trkpt lat="43.51132" lon="5.28329">
        <ele>190</ele>
        <time>2022-02-13T12:30:42Z</time>
      </trkpt>
      <trkpt lat="43.51127" lon="5.28327">
        <ele>190.48</ele>
        <time>2022-02-13T12:30:48Z</time>
      </trkpt>
      <trkpt lat="43.51124" lon="5.28327">
        <ele>190.96</ele>
        <time>2022-02-13T12:30:51Z</time>
      </trkpt>
      <trkpt lat="43.51119" lon="5.28325">
        <ele>191.44</ele>
        <time>2022-02-13T12:30:56Z</time>
      </trkpt>
      <trkpt lat="43.51112" lon="5.28326">
        <ele>190.96</ele>
        <time>2022-02-13T12:31:04Z</time>
      </trkpt>
      <trkpt lat="43.51109" lon="5.28325">
        <ele>191.92</ele>
        <time>2022-02-13T12:31:07Z</time>
      </trkpt>
      <trkpt lat="43.51108" lon="5.28324">
        <ele>192.4</ele>
        <time>2022-02-13T12:31:09Z</time>
      </trkpt>
      <trkpt lat="43.51103" lon="5.28322">
        <ele>192.88</ele>
        <time>2022-02-13T12:31:14Z</time>
      </trkpt>
      <trkpt lat="43.51101" lon="5.28321">
        <ele>193.84</ele>
        <time>2022-02-13T12:31:16Z</time>
      </trkpt>
      <trkpt lat="43.51096" lon="5.28322">
        <ele>193.36</ele>
        <time>2022-02-13T12:31:21Z</time>
      </trkpt>
      <trkpt lat="43.51094" lon="5.2832">
        <ele>193.84</ele>
        <time>2022-02-13T12:31:24Z</time>
      </trkpt>
      <trkpt lat="43.5109" lon="5.2832">
        <ele>193.84</ele>
        <time>2022-02-13T12:31:28Z</time>
      </trkpt>
      <trkpt lat="43.51083" lon="5.28319">
        <ele>193.84</ele>
        <time>2022-02-13T12:31:35Z</time>
      </trkpt>
      <trkpt lat="43.51074" lon="5.28312">
        <ele>197.21</ele>
        <time>2022-02-13T12:31:45Z</time>
      </trkpt>
      <trkpt lat="43.51073" lon="5.28312">
        <ele>197.21</ele>
        <time>2022-02-13T12:31:46Z</time>
      </trkpt>
      <trkpt lat="43.51062" lon="5.28313">
        <ele>195.28</ele>
        <time>2022-02-13T12:31:58Z</time>
      </trkpt>
      <trkpt lat="43.51051" lon="5.28308">
        <ele>194.8</ele>
        <time>2022-02-13T12:32:11Z</time>
      </trkpt>
      <trkpt lat="43.51048" lon="5.28308">
        <ele>194.32</ele>
        <time>2022-02-13T12:32:13Z</time>
      </trkpt>
      <trkpt lat="43.5104" lon="5.28304">
        <ele>196.73</ele>
        <time>2022-02-13T12:32:24Z</time>
      </trkpt>
      <trkpt lat="43.51036" lon="5.28303">
        <ele>198.17</ele>
        <time>2022-02-13T12:32:29Z</time>
      </trkpt>
      <trkpt lat="43.51023" lon="5.283">
        <ele>197.69</ele>
        <time>2022-02-13T12:32:43Z</time>
      </trkpt>
      <trkpt lat="43.51017" lon="5.283">
        <ele>198.17</ele>
        <time>2022-02-13T12:32:49Z</time>
      </trkpt>
      <trkpt lat="43.51008" lon="5.28298">
        <ele>201.05</ele>
        <time>2022-02-13T12:33:00Z</time>
      </trkpt>
      <trkpt lat="43.50997" lon="5.28297">
        <ele>202.49</ele>
        <time>2022-02-13T12:33:12Z</time>
      </trkpt>
      <trkpt lat="43.50989" lon="5.28295">
        <ele>203.94</ele>
        <time>2022-02-13T12:33:21Z</time>
      </trkpt>
      <trkpt lat="43.50979" lon="5.28295">
        <ele>203.46</ele>
        <time>2022-02-13T12:33:33Z</time>
      </trkpt>
      <trkpt lat="43.50972" lon="5.28288">
        <ele>207.3</ele>
        <time>2022-02-13T12:33:47Z</time>
      </trkpt>
      <trkpt lat="43.50965" lon="5.28282">
        <ele>208.26</ele>
        <time>2022-02-13T12:33:56Z</time>
      </trkpt>
      <trkpt lat="43.50956" lon="5.28271">
        <ele>208.26</ele>
        <time>2022-02-13T12:34:09Z</time>
      </trkpt>
      <trkpt lat="43.50954" lon="5.28268">
        <ele>207.78</ele>
        <time>2022-02-13T12:34:13Z</time>
      </trkpt>
      <trkpt lat="43.50943" lon="5.28258">
        <ele>207.78</ele>
        <time>2022-02-13T12:34:26Z</time>
      </trkpt>
      <trkpt lat="43.50933" lon="5.28248">
        <ele>208.74</ele>
        <time>2022-02-13T12:34:38Z</time>
      </trkpt>
      <trkpt lat="43.50925" lon="5.2824">
        <ele>208.74</ele>
        <time>2022-02-13T12:34:48Z</time>
      </trkpt>
      <trkpt lat="43.50917" lon="5.28231">
        <ele>209.7</ele>
        <time>2022-02-13T12:34:59Z</time>
      </trkpt>
      <trkpt lat="43.5091" lon="5.28226">
        <ele>208.74</ele>
        <time>2022-02-13T12:35:07Z</time>
      </trkpt>
      <trkpt lat="43.50902" lon="5.28216">
        <ele>210.19</ele>
        <time>2022-02-13T12:35:19Z</time>
      </trkpt>
      <trkpt lat="43.50897" lon="5.28207">
        <ele>212.11</ele>
        <time>2022-02-13T12:35:29Z</time>
      </trkpt>
      <trkpt lat="43.50886" lon="5.28196">
        <ele>210.19</ele>
        <time>2022-02-13T12:35:42Z</time>
      </trkpt>
      <trkpt lat="43.50877" lon="5.28187">
        <ele>209.22</ele>
        <time>2022-02-13T12:35:53Z</time>
      </trkpt>
      <trkpt lat="43.50868" lon="5.2818">
        <ele>210.67</ele>
        <time>2022-02-13T12:36:04Z</time>
      </trkpt>
      <trkpt lat="43.50861" lon="5.28174">
        <ele>210.67</ele>
        <time>2022-02-13T12:36:14Z</time>
      </trkpt>
      <trkpt lat="43.50855" lon="5.28168">
        <ele>211.63</ele>
        <time>2022-02-13T12:36:22Z</time>
      </trkpt>
      <trkpt lat="43.50848" lon="5.2816">
        <ele>213.07</ele>
        <time>2022-02-13T12:36:33Z</time>
      </trkpt>
      <trkpt lat="43.50841" lon="5.28154">
        <ele>214.03</ele>
        <time>2022-02-13T12:36:42Z</time>
      </trkpt>
      <trkpt lat="43.50833" lon="5.28143">
        <ele>216.43</ele>
        <time>2022-02-13T12:36:56Z</time>
      </trkpt>
      <trkpt lat="43.50824" lon="5.28132">
        <ele>218.36</ele>
        <time>2022-02-13T12:37:10Z</time>
      </trkpt>
      <trkpt lat="43.5082" lon="5.28127">
        <ele>219.8</ele>
        <time>2022-02-13T12:37:15Z</time>
      </trkpt>
      <trkpt lat="43.5082" lon="5.28125">
        <ele>220.28</ele>
        <time>2022-02-13T12:37:17Z</time>
      </trkpt>
      <trkpt lat="43.50819" lon="5.28123">
        <ele>220.76</ele>
        <time>2022-02-13T12:37:19Z</time>
      </trkpt>
      <trkpt lat="43.50818" lon="5.28121">
        <ele>220.76</ele>
        <time>2022-02-13T12:37:21Z</time>
      </trkpt>
      <trkpt lat="43.50811" lon="5.28112">
        <ele>220.76</ele>
        <time>2022-02-13T12:37:29Z</time>
      </trkpt>
      <trkpt lat="43.50804" lon="5.28104">
        <ele>222.2</ele>
        <time>2022-02-13T12:37:40Z</time>
      </trkpt>
      <trkpt lat="43.50793" lon="5.28096">
        <ele>223.64</ele>
        <time>2022-02-13T12:37:52Z</time>
      </trkpt>
      <trkpt lat="43.50783" lon="5.28092">
        <ele>222.68</ele>
        <time>2022-02-13T12:38:01Z</time>
      </trkpt>
      <trkpt lat="43.50778" lon="5.28093">
        <ele>221.72</ele>
        <time>2022-02-13T12:38:14Z</time>
      </trkpt>
      <trkpt lat="43.50772" lon="5.28094">
        <ele>216.91</ele>
        <time>2022-02-13T12:38:30Z</time>
      </trkpt>
      <trkpt lat="43.5077" lon="5.28092">
        <ele>216.91</ele>
        <time>2022-02-13T12:38:33Z</time>
      </trkpt>
      <trkpt lat="43.50768" lon="5.28089">
        <ele>216.43</ele>
        <time>2022-02-13T12:38:37Z</time>
      </trkpt>
      <trkpt lat="43.50765" lon="5.28085">
        <ele>216.91</ele>
        <time>2022-02-13T12:38:42Z</time>
      </trkpt>
      <trkpt lat="43.50759" lon="5.28074">
        <ele>219.8</ele>
        <time>2022-02-13T12:38:56Z</time>
      </trkpt>
      <trkpt lat="43.50756" lon="5.28061">
        <ele>222.68</ele>
        <time>2022-02-13T12:39:10Z</time>
      </trkpt>
      <trkpt lat="43.50751" lon="5.28057">
        <ele>221.72</ele>
        <time>2022-02-13T12:39:28Z</time>
      </trkpt>
      <trkpt lat="43.50749" lon="5.28057">
        <ele>221.24</ele>
        <time>2022-02-13T12:39:53Z</time>
      </trkpt>
      <trkpt lat="43.50751" lon="5.28052">
        <ele>219.8</ele>
        <time>2022-02-13T12:40:08Z</time>
      </trkpt>
      <trkpt lat="43.50752" lon="5.28049">
        <ele>218.84</ele>
        <time>2022-02-13T12:40:18Z</time>
      </trkpt>
      <trkpt lat="43.50756" lon="5.28039">
        <ele>219.8</ele>
        <time>2022-02-13T12:40:29Z</time>
      </trkpt>
      <trkpt lat="43.50756" lon="5.28038">
        <ele>219.8</ele>
        <time>2022-02-13T12:40:30Z</time>
      </trkpt>
      <trkpt lat="43.50759" lon="5.28031">
        <ele>220.76</ele>
        <time>2022-02-13T12:40:37Z</time>
      </trkpt>
      <trkpt lat="43.5076" lon="5.28029">
        <ele>220.76</ele>
        <time>2022-02-13T12:40:39Z</time>
      </trkpt>
      <trkpt lat="43.50761" lon="5.28027">
        <ele>220.76</ele>
        <time>2022-02-13T12:40:41Z</time>
      </trkpt>
      <trkpt lat="43.50762" lon="5.28025">
        <ele>220.76</ele>
        <time>2022-02-13T12:40:43Z</time>
      </trkpt>
      <trkpt lat="43.50763" lon="5.28022">
        <ele>220.76</ele>
        <time>2022-02-13T12:40:45Z</time>
      </trkpt>
      <trkpt lat="43.50764" lon="5.2802">
        <ele>221.24</ele>
        <time>2022-02-13T12:40:47Z</time>
      </trkpt>
      <trkpt lat="43.50764" lon="5.28018">
        <ele>221.24</ele>
        <time>2022-02-13T12:40:49Z</time>
      </trkpt>
      <trkpt lat="43.50766" lon="5.28015">
        <ele>221.24</ele>
        <time>2022-02-13T12:40:51Z</time>
      </trkpt>
      <trkpt lat="43.5077" lon="5.28">
        <ele>221.24</ele>
        <time>2022-02-13T12:41:03Z</time>
      </trkpt>
      <trkpt lat="43.50772" lon="5.27993">
        <ele>222.2</ele>
        <time>2022-02-13T12:41:09Z</time>
      </trkpt>
      <trkpt lat="43.50778" lon="5.27981">
        <ele>223.64</ele>
        <time>2022-02-13T12:41:20Z</time>
      </trkpt>
      <trkpt lat="43.50781" lon="5.27968">
        <ele>223.16</ele>
        <time>2022-02-13T12:41:30Z</time>
      </trkpt>
      <trkpt lat="43.50785" lon="5.27956">
        <ele>222.68</ele>
        <time>2022-02-13T12:41:39Z</time>
      </trkpt>
      <trkpt lat="43.50791" lon="5.27943">
        <ele>223.16</ele>
        <time>2022-02-13T12:41:50Z</time>
      </trkpt>
      <trkpt lat="43.50796" lon="5.2793">
        <ele>223.16</ele>
        <time>2022-02-13T12:42:03Z</time>
      </trkpt>
      <trkpt lat="43.508" lon="5.27928">
        <ele>223.16</ele>
        <time>2022-02-13T12:42:09Z</time>
      </trkpt>
      <trkpt lat="43.5081" lon="5.27924">
        <ele>221.24</ele>
        <time>2022-02-13T12:42:23Z</time>
      </trkpt>
      <trkpt lat="43.50817" lon="5.27924">
        <ele>222.68</ele>
        <time>2022-02-13T12:42:37Z</time>
      </trkpt>
      <trkpt lat="43.50822" lon="5.27927">
        <ele>223.64</ele>
        <time>2022-02-13T12:42:50Z</time>
      </trkpt>
      <trkpt lat="43.50828" lon="5.27928">
        <ele>224.61</ele>
        <time>2022-02-13T12:43:02Z</time>
      </trkpt>
      <trkpt lat="43.50828" lon="5.27927">
        <ele>225.57</ele>
        <time>2022-02-13T12:43:32Z</time>
      </trkpt>
      <trkpt lat="43.50828" lon="5.27926">
        <ele>223.64</ele>
        <time>2022-02-13T12:43:52Z</time>
      </trkpt>
      <trkpt lat="43.50828" lon="5.27926">
        <ele>224.12</ele>
        <time>2022-02-13T12:44:08Z</time>
      </trkpt>
      <trkpt lat="43.50829" lon="5.27926">
        <ele>223.64</ele>
        <time>2022-02-13T12:44:10Z</time>
      </trkpt>
      <trkpt lat="43.50832" lon="5.27923">
        <ele>223.64</ele>
        <time>2022-02-13T12:44:13Z</time>
      </trkpt>
      <trkpt lat="43.50834" lon="5.27914">
        <ele>225.57</ele>
        <time>2022-02-13T12:44:28Z</time>
      </trkpt>
      <trkpt lat="43.50834" lon="5.27914">
        <ele>227.01</ele>
        <time>2022-02-13T12:44:43Z</time>
      </trkpt>
      <trkpt lat="43.50835" lon="5.27912">
        <ele>226.53</ele>
        <time>2022-02-13T12:45:04Z</time>
      </trkpt>
      <trkpt lat="43.50834" lon="5.27909">
        <ele>225.09</ele>
        <time>2022-02-13T12:45:23Z</time>
      </trkpt>
      <trkpt lat="43.50834" lon="5.27907">
        <ele>225.57</ele>
        <time>2022-02-13T12:45:38Z</time>
      </trkpt>
      <trkpt lat="43.50831" lon="5.27901">
        <ele>225.09</ele>
        <time>2022-02-13T12:45:43Z</time>
      </trkpt>
      <trkpt lat="43.50819" lon="5.27907">
        <ele>224.61</ele>
        <time>2022-02-13T12:45:55Z</time>
      </trkpt>
      <trkpt lat="43.50817" lon="5.27907">
        <ele>225.09</ele>
        <time>2022-02-13T12:45:57Z</time>
      </trkpt>
      <trkpt lat="43.50814" lon="5.27912">
        <ele>226.53</ele>
        <time>2022-02-13T12:46:01Z</time>
      </trkpt>
      <trkpt lat="43.50811" lon="5.27921">
        <ele>226.05</ele>
        <time>2022-02-13T12:46:08Z</time>
      </trkpt>
      <trkpt lat="43.50814" lon="5.27925">
        <ele>225.09</ele>
        <time>2022-02-13T12:46:19Z</time>
      </trkpt>
      <trkpt lat="43.50814" lon="5.27925">
        <ele>224.12</ele>
        <time>2022-02-13T12:46:47Z</time>
      </trkpt>
      <trkpt lat="43.50813" lon="5.27925">
        <ele>224.61</ele>
        <time>2022-02-13T12:46:59Z</time>
      </trkpt>
      <trkpt lat="43.50813" lon="5.27919">
        <ele>224.12</ele>
        <time>2022-02-13T12:47:03Z</time>
      </trkpt>
      <trkpt lat="43.50821" lon="5.27905">
        <ele>224.61</ele>
        <time>2022-02-13T12:47:15Z</time>
      </trkpt>
      <trkpt lat="43.50823" lon="5.27903">
        <ele>225.09</ele>
        <time>2022-02-13T12:47:18Z</time>
      </trkpt>
      <trkpt lat="43.50831" lon="5.27904">
        <ele>226.05</ele>
        <time>2022-02-13T12:47:29Z</time>
      </trkpt>
      <trkpt lat="43.50833" lon="5.27908">
        <ele>226.53</ele>
        <time>2022-02-13T12:47:42Z</time>
      </trkpt>
      <trkpt lat="43.50836" lon="5.27905">
        <ele>226.53</ele>
        <time>2022-02-13T12:47:56Z</time>
      </trkpt>
      <trkpt lat="43.50836" lon="5.27906">
        <ele>227.01</ele>
        <time>2022-02-13T12:48:09Z</time>
      </trkpt>
      <trkpt lat="43.50838" lon="5.27905">
        <ele>225.57</ele>
        <time>2022-02-13T12:48:22Z</time>
      </trkpt>
      <trkpt lat="43.50838" lon="5.27906">
        <ele>225.09</ele>
        <time>2022-02-13T12:48:52Z</time>
      </trkpt>
      <trkpt lat="43.50839" lon="5.27907">
        <ele>223.64</ele>
        <time>2022-02-13T12:49:07Z</time>
      </trkpt>
      <trkpt lat="43.5084" lon="5.27907">
        <ele>219.32</ele>
        <time>2022-02-13T12:49:35Z</time>
      </trkpt>
      <trkpt lat="43.50837" lon="5.27905">
        <ele>219.32</ele>
        <time>2022-02-13T12:50:10Z</time>
      </trkpt>
      <trkpt lat="43.5084" lon="5.27908">
        <ele>218.36</ele>
        <time>2022-02-13T12:50:48Z</time>
      </trkpt>
      <trkpt lat="43.50841" lon="5.27907">
        <ele>217.88</ele>
        <time>2022-02-13T12:51:38Z</time>
      </trkpt>
      <trkpt lat="43.50841" lon="5.27907">
        <ele>216.43</ele>
        <time>2022-02-13T12:52:29Z</time>
      </trkpt>
      <trkpt lat="43.50841" lon="5.27906">
        <ele>216.43</ele>
        <time>2022-02-13T12:53:23Z</time>
      </trkpt>
      <trkpt lat="43.50839" lon="5.27906">
        <ele>216.91</ele>
        <time>2022-02-13T12:54:16Z</time>
      </trkpt>
      <trkpt lat="43.5084" lon="5.27907">
        <ele>218.84</ele>
        <time>2022-02-13T12:55:08Z</time>
      </trkpt>
      <trkpt lat="43.50841" lon="5.27906">
        <ele>216.43</ele>
        <time>2022-02-13T12:56:01Z</time>
      </trkpt>
      <trkpt lat="43.50841" lon="5.27908">
        <ele>215.95</ele>
        <time>2022-02-13T12:56:44Z</time>
      </trkpt>
      <trkpt lat="43.5084" lon="5.27905">
        <ele>218.84</ele>
        <time>2022-02-13T12:57:33Z</time>
      </trkpt>
      <trkpt lat="43.50839" lon="5.27905">
        <ele>220.76</ele>
        <time>2022-02-13T12:58:18Z</time>
      </trkpt>
      <trkpt lat="43.50838" lon="5.27905">
        <ele>221.72</ele>
        <time>2022-02-13T12:59:03Z</time>
      </trkpt>
      <trkpt lat="43.50839" lon="5.27905">
        <ele>217.88</ele>
        <time>2022-02-13T12:59:48Z</time>
      </trkpt>
      <trkpt lat="43.50839" lon="5.27904">
        <ele>219.32</ele>
        <time>2022-02-13T13:00:30Z</time>
      </trkpt>
      <trkpt lat="43.50839" lon="5.27906">
        <ele>215.47</ele>
        <time>2022-02-13T13:01:09Z</time>
      </trkpt>
      <trkpt lat="43.50839" lon="5.27906">
        <ele>216.91</ele>
        <time>2022-02-13T13:01:54Z</time>
      </trkpt>
      <trkpt lat="43.50837" lon="5.27906">
        <ele>216.43</ele>
        <time>2022-02-13T13:02:37Z</time>
      </trkpt>
      <trkpt lat="43.50839" lon="5.27908">
        <ele>216.91</ele>
        <time>2022-02-13T13:03:21Z</time>
      </trkpt>
      <trkpt lat="43.50837" lon="5.27906">
        <ele>217.4</ele>
        <time>2022-02-13T13:04:01Z</time>
      </trkpt>
      <trkpt lat="43.50837" lon="5.27909">
        <ele>218.84</ele>
        <time>2022-02-13T13:04:37Z</time>
      </trkpt>
      <trkpt lat="43.50838" lon="5.27906">
        <ele>217.4</ele>
        <time>2022-02-13T13:05:07Z</time>
      </trkpt>
      <trkpt lat="43.50837" lon="5.27906">
        <ele>218.84</ele>
        <time>2022-02-13T13:05:44Z</time>
      </trkpt>
      <trkpt lat="43.50836" lon="5.27907">
        <ele>217.4</ele>
        <time>2022-02-13T13:06:21Z</time>
      </trkpt>
      <trkpt lat="43.50838" lon="5.27907">
        <ele>215.47</ele>
        <time>2022-02-13T13:07:04Z</time>
      </trkpt>
      <trkpt lat="43.5084" lon="5.27908">
        <ele>217.4</ele>
        <time>2022-02-13T13:07:44Z</time>
      </trkpt>
      <trkpt lat="43.50838" lon="5.27906">
        <ele>217.88</ele>
        <time>2022-02-13T13:08:28Z</time>
      </trkpt>
      <trkpt lat="43.50839" lon="5.27909">
        <ele>218.84</ele>
        <time>2022-02-13T13:09:09Z</time>
      </trkpt>
      <trkpt lat="43.50839" lon="5.27909">
        <ele>219.32</ele>
        <time>2022-02-13T13:09:53Z</time>
      </trkpt>
      <trkpt lat="43.50838" lon="5.27908">
        <ele>219.8</ele>
        <time>2022-02-13T13:10:39Z</time>
      </trkpt>
      <trkpt lat="43.50839" lon="5.27909">
        <ele>223.16</ele>
        <time>2022-02-13T13:11:25Z</time>
      </trkpt>
      <trkpt lat="43.50838" lon="5.27907">
        <ele>220.28</ele>
        <time>2022-02-13T13:12:02Z</time>
      </trkpt>
      <trkpt lat="43.50839" lon="5.27907">
        <ele>215.95</ele>
        <time>2022-02-13T13:12:47Z</time>
      </trkpt>
      <trkpt lat="43.50837" lon="5.27906">
        <ele>218.84</ele>
        <time>2022-02-13T13:13:30Z</time>
      </trkpt>
      <trkpt lat="43.50837" lon="5.27905">
        <ele>219.32</ele>
        <time>2022-02-13T13:14:09Z</time>
      </trkpt>
      <trkpt lat="43.50838" lon="5.27907">
        <ele>220.76</ele>
        <time>2022-02-13T13:14:44Z</time>
      </trkpt>
      <trkpt lat="43.50836" lon="5.27907">
        <ele>221.24</ele>
        <time>2022-02-13T13:14:59Z</time>
      </trkpt>
      <trkpt lat="43.50835" lon="5.27905">
        <ele>221.72</ele>
        <time>2022-02-13T13:15:16Z</time>
      </trkpt>
      <trkpt lat="43.50835" lon="5.27906">
        <ele>222.68</ele>
        <time>2022-02-13T13:15:36Z</time>
      </trkpt>
      <trkpt lat="43.50835" lon="5.27906">
        <ele>221.24</ele>
        <time>2022-02-13T13:15:57Z</time>
      </trkpt>
      <trkpt lat="43.50834" lon="5.27908">
        <ele>221.24</ele>
        <time>2022-02-13T13:16:20Z</time>
      </trkpt>
      <trkpt lat="43.50834" lon="5.2791">
        <ele>222.68</ele>
        <time>2022-02-13T13:16:35Z</time>
      </trkpt>
      <trkpt lat="43.50834" lon="5.27909">
        <ele>223.64</ele>
        <time>2022-02-13T13:17:01Z</time>
      </trkpt>
      <trkpt lat="43.50834" lon="5.27912">
        <ele>224.61</ele>
        <time>2022-02-13T13:17:24Z</time>
      </trkpt>
      <trkpt lat="43.50834" lon="5.27913">
        <ele>225.57</ele>
        <time>2022-02-13T13:17:41Z</time>
      </trkpt>
      <trkpt lat="43.50834" lon="5.27913">
        <ele>226.05</ele>
        <time>2022-02-13T13:18:19Z</time>
      </trkpt>
      <trkpt lat="43.50835" lon="5.27911">
        <ele>224.61</ele>
        <time>2022-02-13T13:18:52Z</time>
      </trkpt>
      <trkpt lat="43.50833" lon="5.2791">
        <ele>225.57</ele>
        <time>2022-02-13T13:19:10Z</time>
      </trkpt>
      <trkpt lat="43.50828" lon="5.27903">
        <ele>225.09</ele>
        <time>2022-02-13T13:19:20Z</time>
      </trkpt>
      <trkpt lat="43.50825" lon="5.27904">
        <ele>224.61</ele>
        <time>2022-02-13T13:19:35Z</time>
      </trkpt>
      <trkpt lat="43.50824" lon="5.27902">
        <ele>224.61</ele>
        <time>2022-02-13T13:19:41Z</time>
      </trkpt>
      <trkpt lat="43.50819" lon="5.27904">
        <ele>223.64</ele>
        <time>2022-02-13T13:19:48Z</time>
      </trkpt>
      <trkpt lat="43.50816" lon="5.27907">
        <ele>223.64</ele>
        <time>2022-02-13T13:19:53Z</time>
      </trkpt>
      <trkpt lat="43.50808" lon="5.27909">
        <ele>223.16</ele>
        <time>2022-02-13T13:20:01Z</time>
      </trkpt>
      <trkpt lat="43.50802" lon="5.27913">
        <ele>222.68</ele>
        <time>2022-02-13T13:20:10Z</time>
      </trkpt>
      <trkpt lat="43.50792" lon="5.27927">
        <ele>221.72</ele>
        <time>2022-02-13T13:20:25Z</time>
      </trkpt>
      <trkpt lat="43.50787" lon="5.27938">
        <ele>221.24</ele>
        <time>2022-02-13T13:20:35Z</time>
      </trkpt>
      <trkpt lat="43.5078" lon="5.27955">
        <ele>220.76</ele>
        <time>2022-02-13T13:20:52Z</time>
      </trkpt>
      <trkpt lat="43.50777" lon="5.27965">
        <ele>220.76</ele>
        <time>2022-02-13T13:21:07Z</time>
      </trkpt>
      <trkpt lat="43.50772" lon="5.27976">
        <ele>220.76</ele>
        <time>2022-02-13T13:21:21Z</time>
      </trkpt>
      <trkpt lat="43.50771" lon="5.2798">
        <ele>221.24</ele>
        <time>2022-02-13T13:21:31Z</time>
      </trkpt>
      <trkpt lat="43.50767" lon="5.27986">
        <ele>221.24</ele>
        <time>2022-02-13T13:21:38Z</time>
      </trkpt>
      <trkpt lat="43.50767" lon="5.27989">
        <ele>221.24</ele>
        <time>2022-02-13T13:21:40Z</time>
      </trkpt>
      <trkpt lat="43.50761" lon="5.28009">
        <ele>221.72</ele>
        <time>2022-02-13T13:21:56Z</time>
      </trkpt>
      <trkpt lat="43.50758" lon="5.28019">
        <ele>222.68</ele>
        <time>2022-02-13T13:22:04Z</time>
      </trkpt>
      <trkpt lat="43.50752" lon="5.28038">
        <ele>221.72</ele>
        <time>2022-02-13T13:22:19Z</time>
      </trkpt>
      <trkpt lat="43.5075" lon="5.28043">
        <ele>221.72</ele>
        <time>2022-02-13T13:22:23Z</time>
      </trkpt>
      <trkpt lat="43.50748" lon="5.28054">
        <ele>219.32</ele>
        <time>2022-02-13T13:22:37Z</time>
      </trkpt>
      <trkpt lat="43.50748" lon="5.28056">
        <ele>219.8</ele>
        <time>2022-02-13T13:22:39Z</time>
      </trkpt>
      <trkpt lat="43.50744" lon="5.28071">
        <ele>219.8</ele>
        <time>2022-02-13T13:22:49Z</time>
      </trkpt>
      <trkpt lat="43.50743" lon="5.28073">
        <ele>220.28</ele>
        <time>2022-02-13T13:22:51Z</time>
      </trkpt>
      <trkpt lat="43.50741" lon="5.28082">
        <ele>221.24</ele>
        <time>2022-02-13T13:22:58Z</time>
      </trkpt>
      <trkpt lat="43.50734" lon="5.28098">
        <ele>224.12</ele>
        <time>2022-02-13T13:23:14Z</time>
      </trkpt>
      <trkpt lat="43.50732" lon="5.281">
        <ele>223.64</ele>
        <time>2022-02-13T13:23:29Z</time>
      </trkpt>
      <trkpt lat="43.50731" lon="5.28104">
        <ele>222.68</ele>
        <time>2022-02-13T13:23:47Z</time>
      </trkpt>
      <trkpt lat="43.50731" lon="5.28106">
        <ele>222.2</ele>
        <time>2022-02-13T13:23:49Z</time>
      </trkpt>
      <trkpt lat="43.50728" lon="5.28115">
        <ele>222.68</ele>
        <time>2022-02-13T13:23:58Z</time>
      </trkpt>
      <trkpt lat="43.50725" lon="5.28124">
        <ele>222.68</ele>
        <time>2022-02-13T13:24:06Z</time>
      </trkpt>
      <trkpt lat="43.5072" lon="5.2814">
        <ele>225.09</ele>
        <time>2022-02-13T13:24:22Z</time>
      </trkpt>
      <trkpt lat="43.50719" lon="5.28142">
        <ele>225.09</ele>
        <time>2022-02-13T13:24:24Z</time>
      </trkpt>
      <trkpt lat="43.50716" lon="5.28155">
        <ele>227.97</ele>
        <time>2022-02-13T13:24:38Z</time>
      </trkpt>
      <trkpt lat="43.50711" lon="5.28167">
        <ele>229.89</ele>
        <time>2022-02-13T13:24:52Z</time>
      </trkpt>
      <trkpt lat="43.50709" lon="5.28176">
        <ele>232.3</ele>
        <time>2022-02-13T13:25:06Z</time>
      </trkpt>
      <trkpt lat="43.50704" lon="5.28184">
        <ele>236.62</ele>
        <time>2022-02-13T13:25:22Z</time>
      </trkpt>
      <trkpt lat="43.50702" lon="5.28193">
        <ele>239.02</ele>
        <time>2022-02-13T13:25:40Z</time>
      </trkpt>
      <trkpt lat="43.507" lon="5.282">
        <ele>239.99</ele>
        <time>2022-02-13T13:25:54Z</time>
      </trkpt>
      <trkpt lat="43.50698" lon="5.28208">
        <ele>241.43</ele>
        <time>2022-02-13T13:26:10Z</time>
      </trkpt>
      <trkpt lat="43.50695" lon="5.28216">
        <ele>244.79</ele>
        <time>2022-02-13T13:26:25Z</time>
      </trkpt>
      <trkpt lat="43.50691" lon="5.28224">
        <ele>250.08</ele>
        <time>2022-02-13T13:26:40Z</time>
      </trkpt>
      <trkpt lat="43.50688" lon="5.28228">
        <ele>250.08</ele>
        <time>2022-02-13T13:26:55Z</time>
      </trkpt>
      <trkpt lat="43.50685" lon="5.28232">
        <ele>250.08</ele>
        <time>2022-02-13T13:27:08Z</time>
      </trkpt>
      <trkpt lat="43.50687" lon="5.28232">
        <ele>249.12</ele>
        <time>2022-02-13T13:27:22Z</time>
      </trkpt>
      <trkpt lat="43.5069" lon="5.28235">
        <ele>246.23</ele>
        <time>2022-02-13T13:27:44Z</time>
      </trkpt>
      <trkpt lat="43.5069" lon="5.28237">
        <ele>248.64</ele>
        <time>2022-02-13T13:28:09Z</time>
      </trkpt>
      <trkpt lat="43.50685" lon="5.28244">
        <ele>252</ele>
        <time>2022-02-13T13:28:23Z</time>
      </trkpt>
      <trkpt lat="43.50681" lon="5.28252">
        <ele>251.52</ele>
        <time>2022-02-13T13:28:40Z</time>
      </trkpt>
      <trkpt lat="43.50675" lon="5.28259">
        <ele>252.96</ele>
        <time>2022-02-13T13:28:55Z</time>
      </trkpt>
      <trkpt lat="43.50668" lon="5.28264">
        <ele>255.85</ele>
        <time>2022-02-13T13:29:10Z</time>
      </trkpt>
      <trkpt lat="43.50662" lon="5.28267">
        <ele>256.33</ele>
        <time>2022-02-13T13:29:23Z</time>
      </trkpt>
      <trkpt lat="43.50659" lon="5.28266">
        <ele>256.81</ele>
        <time>2022-02-13T13:29:30Z</time>
      </trkpt>
      <trkpt lat="43.50648" lon="5.28264">
        <ele>257.77</ele>
        <time>2022-02-13T13:29:45Z</time>
      </trkpt>
      <trkpt lat="43.50642" lon="5.28265">
        <ele>258.25</ele>
        <time>2022-02-13T13:29:57Z</time>
      </trkpt>
      <trkpt lat="43.50641" lon="5.28265">
        <ele>258.73</ele>
        <time>2022-02-13T13:30:03Z</time>
      </trkpt>
      <trkpt lat="43.50638" lon="5.28267">
        <ele>257.77</ele>
        <time>2022-02-13T13:30:17Z</time>
      </trkpt>
      <trkpt lat="43.50637" lon="5.28267">
        <ele>258.73</ele>
        <time>2022-02-13T13:30:31Z</time>
      </trkpt>
      <trkpt lat="43.50629" lon="5.28271">
        <ele>259.69</ele>
        <time>2022-02-13T13:30:41Z</time>
      </trkpt>
      <trkpt lat="43.50618" lon="5.28276">
        <ele>260.17</ele>
        <time>2022-02-13T13:30:55Z</time>
      </trkpt>
      <trkpt lat="43.50608" lon="5.28279">
        <ele>261.14</ele>
        <time>2022-02-13T13:31:06Z</time>
      </trkpt>
      <trkpt lat="43.50591" lon="5.28282">
        <ele>262.1</ele>
        <time>2022-02-13T13:31:23Z</time>
      </trkpt>
      <trkpt lat="43.5058" lon="5.2828">
        <ele>263.06</ele>
        <time>2022-02-13T13:31:36Z</time>
      </trkpt>
      <trkpt lat="43.50568" lon="5.28278">
        <ele>262.58</ele>
        <time>2022-02-13T13:31:50Z</time>
      </trkpt>
      <trkpt lat="43.50567" lon="5.28278">
        <ele>262.58</ele>
        <time>2022-02-13T13:31:51Z</time>
      </trkpt>
      <trkpt lat="43.5056" lon="5.28276">
        <ele>262.1</ele>
        <time>2022-02-13T13:31:58Z</time>
      </trkpt>
      <trkpt lat="43.50541" lon="5.28267">
        <ele>260.65</ele>
        <time>2022-02-13T13:32:17Z</time>
      </trkpt>
      <trkpt lat="43.50525" lon="5.28259">
        <ele>259.69</ele>
        <time>2022-02-13T13:32:34Z</time>
      </trkpt>
      <trkpt lat="43.50509" lon="5.28248">
        <ele>259.69</ele>
        <time>2022-02-13T13:32:51Z</time>
      </trkpt>
      <trkpt lat="43.505" lon="5.28241">
        <ele>257.77</ele>
        <time>2022-02-13T13:33:06Z</time>
      </trkpt>
      <trkpt lat="43.505" lon="5.28242">
        <ele>257.77</ele>
        <time>2022-02-13T13:33:24Z</time>
      </trkpt>
      <trkpt lat="43.50494" lon="5.28239">
        <ele>258.25</ele>
        <time>2022-02-13T13:33:36Z</time>
      </trkpt>
      <trkpt lat="43.50487" lon="5.28232">
        <ele>257.77</ele>
        <time>2022-02-13T13:33:52Z</time>
      </trkpt>
      <trkpt lat="43.50481" lon="5.28228">
        <ele>259.69</ele>
        <time>2022-02-13T13:34:10Z</time>
      </trkpt>
      <trkpt lat="43.50473" lon="5.2822">
        <ele>258.73</ele>
        <time>2022-02-13T13:34:22Z</time>
      </trkpt>
      <trkpt lat="43.50456" lon="5.28207">
        <ele>258.73</ele>
        <time>2022-02-13T13:34:40Z</time>
      </trkpt>
      <trkpt lat="43.50435" lon="5.28194">
        <ele>259.21</ele>
        <time>2022-02-13T13:34:59Z</time>
      </trkpt>
      <trkpt lat="43.50418" lon="5.2819">
        <ele>259.21</ele>
        <time>2022-02-13T13:35:15Z</time>
      </trkpt>
      <trkpt lat="43.50403" lon="5.28182">
        <ele>259.69</ele>
        <time>2022-02-13T13:35:31Z</time>
      </trkpt>
      <trkpt lat="43.5039" lon="5.28175">
        <ele>261.14</ele>
        <time>2022-02-13T13:35:44Z</time>
      </trkpt>
      <trkpt lat="43.50376" lon="5.28168">
        <ele>260.65</ele>
        <time>2022-02-13T13:36:00Z</time>
      </trkpt>
      <trkpt lat="43.50357" lon="5.28166">
        <ele>257.29</ele>
        <time>2022-02-13T13:36:18Z</time>
      </trkpt>
      <trkpt lat="43.5034" lon="5.28168">
        <ele>256.81</ele>
        <time>2022-02-13T13:36:33Z</time>
      </trkpt>
      <trkpt lat="43.50325" lon="5.28165">
        <ele>256.33</ele>
        <time>2022-02-13T13:36:50Z</time>
      </trkpt>
      <trkpt lat="43.50323" lon="5.28161">
        <ele>254.89</ele>
        <time>2022-02-13T13:37:08Z</time>
      </trkpt>
      <trkpt lat="43.50308" lon="5.28152">
        <ele>255.85</ele>
        <time>2022-02-13T13:37:23Z</time>
      </trkpt>
      <trkpt lat="43.50293" lon="5.28142">
        <ele>256.81</ele>
        <time>2022-02-13T13:37:38Z</time>
      </trkpt>
      <trkpt lat="43.50284" lon="5.28135">
        <ele>255.85</ele>
        <time>2022-02-13T13:37:48Z</time>
      </trkpt>
      <trkpt lat="43.5028" lon="5.28134">
        <ele>255.37</ele>
        <time>2022-02-13T13:38:06Z</time>
      </trkpt>
      <trkpt lat="43.50281" lon="5.28136">
        <ele>254.41</ele>
        <time>2022-02-13T13:38:24Z</time>
      </trkpt>
      <trkpt lat="43.5028" lon="5.28131">
        <ele>254.89</ele>
        <time>2022-02-13T13:38:33Z</time>
      </trkpt>
      <trkpt lat="43.5027" lon="5.28119">
        <ele>254.41</ele>
        <time>2022-02-13T13:38:49Z</time>
      </trkpt>
      <trkpt lat="43.50269" lon="5.28118">
        <ele>253.93</ele>
        <time>2022-02-13T13:38:50Z</time>
      </trkpt>
      <trkpt lat="43.5026" lon="5.28096">
        <ele>253.93</ele>
        <time>2022-02-13T13:39:07Z</time>
      </trkpt>
      <trkpt lat="43.50252" lon="5.2808">
        <ele>255.37</ele>
        <time>2022-02-13T13:39:22Z</time>
      </trkpt>
      <trkpt lat="43.50243" lon="5.28063">
        <ele>255.37</ele>
        <time>2022-02-13T13:39:40Z</time>
      </trkpt>
      <trkpt lat="43.50242" lon="5.28062">
        <ele>254.89</ele>
        <time>2022-02-13T13:39:59Z</time>
      </trkpt>
      <trkpt lat="43.5024" lon="5.2806">
        <ele>255.37</ele>
        <time>2022-02-13T13:40:15Z</time>
      </trkpt>
      <trkpt lat="43.50235" lon="5.28048">
        <ele>255.85</ele>
        <time>2022-02-13T13:40:28Z</time>
      </trkpt>
      <trkpt lat="43.50227" lon="5.28029">
        <ele>256.33</ele>
        <time>2022-02-13T13:40:45Z</time>
      </trkpt>
      <trkpt lat="43.50223" lon="5.28013">
        <ele>256.81</ele>
        <time>2022-02-13T13:40:56Z</time>
      </trkpt>
      <trkpt lat="43.50221" lon="5.28008">
        <ele>257.29</ele>
        <time>2022-02-13T13:41:00Z</time>
      </trkpt>
      <trkpt lat="43.50217" lon="5.27992">
        <ele>257.29</ele>
        <time>2022-02-13T13:41:15Z</time>
      </trkpt>
      <trkpt lat="43.50216" lon="5.27991">
        <ele>257.29</ele>
        <time>2022-02-13T13:41:17Z</time>
      </trkpt>
      <trkpt lat="43.50209" lon="5.27976">
        <ele>259.21</ele>
        <time>2022-02-13T13:41:33Z</time>
      </trkpt>
      <trkpt lat="43.50209" lon="5.27974">
        <ele>259.69</ele>
        <time>2022-02-13T13:41:35Z</time>
      </trkpt>
      <trkpt lat="43.50205" lon="5.27954">
        <ele>259.69</ele>
        <time>2022-02-13T13:41:51Z</time>
      </trkpt>
      <trkpt lat="43.50202" lon="5.27939">
        <ele>259.21</ele>
        <time>2022-02-13T13:42:03Z</time>
      </trkpt>
      <trkpt lat="43.50201" lon="5.27931">
        <ele>258.73</ele>
        <time>2022-02-13T13:42:09Z</time>
      </trkpt>
      <trkpt lat="43.50196" lon="5.27913">
        <ele>257.77</ele>
        <time>2022-02-13T13:42:25Z</time>
      </trkpt>
      <trkpt lat="43.50192" lon="5.279">
        <ele>257.29</ele>
        <time>2022-02-13T13:42:44Z</time>
      </trkpt>
      <trkpt lat="43.50186" lon="5.27881">
        <ele>257.77</ele>
        <time>2022-02-13T13:42:59Z</time>
      </trkpt>
      <trkpt lat="43.50182" lon="5.27865">
        <ele>258.25</ele>
        <time>2022-02-13T13:43:12Z</time>
      </trkpt>
      <trkpt lat="43.50177" lon="5.27843">
        <ele>258.25</ele>
        <time>2022-02-13T13:43:29Z</time>
      </trkpt>
      <trkpt lat="43.50173" lon="5.27823">
        <ele>258.25</ele>
        <time>2022-02-13T13:43:45Z</time>
      </trkpt>
      <trkpt lat="43.50171" lon="5.27816">
        <ele>258.25</ele>
        <time>2022-02-13T13:43:50Z</time>
      </trkpt>
      <trkpt lat="43.50167" lon="5.27796">
        <ele>257.77</ele>
        <time>2022-02-13T13:44:06Z</time>
      </trkpt>
      <trkpt lat="43.50163" lon="5.27785">
        <ele>257.29</ele>
        <time>2022-02-13T13:44:19Z</time>
      </trkpt>
      <trkpt lat="43.50162" lon="5.27782">
        <ele>256.33</ele>
        <time>2022-02-13T13:44:37Z</time>
      </trkpt>
      <trkpt lat="43.50161" lon="5.27779">
        <ele>255.85</ele>
        <time>2022-02-13T13:44:52Z</time>
      </trkpt>
      <trkpt lat="43.50161" lon="5.27781">
        <ele>256.81</ele>
        <time>2022-02-13T13:45:03Z</time>
      </trkpt>
      <trkpt lat="43.50163" lon="5.27787">
        <ele>257.29</ele>
        <time>2022-02-13T13:45:08Z</time>
      </trkpt>
      <trkpt lat="43.50165" lon="5.27791">
        <ele>256.81</ele>
        <time>2022-02-13T13:45:11Z</time>
      </trkpt>
      <trkpt lat="43.50166" lon="5.27793">
        <ele>256.81</ele>
        <time>2022-02-13T13:45:13Z</time>
      </trkpt>
      <trkpt lat="43.5017" lon="5.27814">
        <ele>256.33</ele>
        <time>2022-02-13T13:45:26Z</time>
      </trkpt>
      <trkpt lat="43.50175" lon="5.27834">
        <ele>256.33</ele>
        <time>2022-02-13T13:45:40Z</time>
      </trkpt>
      <trkpt lat="43.50178" lon="5.27851">
        <ele>255.85</ele>
        <time>2022-02-13T13:45:52Z</time>
      </trkpt>
      <trkpt lat="43.50181" lon="5.27864">
        <ele>255.85</ele>
        <time>2022-02-13T13:46:01Z</time>
      </trkpt>
      <trkpt lat="43.50187" lon="5.27888">
        <ele>254.89</ele>
        <time>2022-02-13T13:46:17Z</time>
      </trkpt>
      <trkpt lat="43.50193" lon="5.27907">
        <ele>253.93</ele>
        <time>2022-02-13T13:46:31Z</time>
      </trkpt>
      <trkpt lat="43.50198" lon="5.27925">
        <ele>253.93</ele>
        <time>2022-02-13T13:46:44Z</time>
      </trkpt>
      <trkpt lat="43.50203" lon="5.27946">
        <ele>253.93</ele>
        <time>2022-02-13T13:46:59Z</time>
      </trkpt>
      <trkpt lat="43.50204" lon="5.27949">
        <ele>253.44</ele>
        <time>2022-02-13T13:47:01Z</time>
      </trkpt>
      <trkpt lat="43.50208" lon="5.2797">
        <ele>252.96</ele>
        <time>2022-02-13T13:47:16Z</time>
      </trkpt>
      <trkpt lat="43.50209" lon="5.27978">
        <ele>252.96</ele>
        <time>2022-02-13T13:47:21Z</time>
      </trkpt>
      <trkpt lat="43.50218" lon="5.27994">
        <ele>254.41</ele>
        <time>2022-02-13T13:47:36Z</time>
      </trkpt>
      <trkpt lat="43.50218" lon="5.27995">
        <ele>254.41</ele>
        <time>2022-02-13T13:47:37Z</time>
      </trkpt>
      <trkpt lat="43.50222" lon="5.28012">
        <ele>254.89</ele>
        <time>2022-02-13T13:47:50Z</time>
      </trkpt>
      <trkpt lat="43.50225" lon="5.28023">
        <ele>254.89</ele>
        <time>2022-02-13T13:47:57Z</time>
      </trkpt>
      <trkpt lat="43.50231" lon="5.28038">
        <ele>253.93</ele>
        <time>2022-02-13T13:48:08Z</time>
      </trkpt>
      <trkpt lat="43.50237" lon="5.28054">
        <ele>254.89</ele>
        <time>2022-02-13T13:48:22Z</time>
      </trkpt>
      <trkpt lat="43.50238" lon="5.28056">
        <ele>254.41</ele>
        <time>2022-02-13T13:48:37Z</time>
      </trkpt>
      <trkpt lat="43.50239" lon="5.28055">
        <ele>252.48</ele>
        <time>2022-02-13T13:49:02Z</time>
      </trkpt>
      <trkpt lat="43.50239" lon="5.28054">
        <ele>252.48</ele>
        <time>2022-02-13T13:49:25Z</time>
      </trkpt>
      <trkpt lat="43.50239" lon="5.28055">
        <ele>252</ele>
        <time>2022-02-13T13:49:44Z</time>
      </trkpt>
      <trkpt lat="43.50237" lon="5.28055">
        <ele>251.52</ele>
        <time>2022-02-13T13:49:55Z</time>
      </trkpt>
      <trkpt lat="43.50235" lon="5.28056">
        <ele>252</ele>
        <time>2022-02-13T13:50:08Z</time>
      </trkpt>
      <trkpt lat="43.50236" lon="5.28057">
        <ele>255.85</ele>
        <time>2022-02-13T13:50:20Z</time>
      </trkpt>
      <trkpt lat="43.50236" lon="5.28057">
        <ele>256.33</ele>
        <time>2022-02-13T13:50:37Z</time>
      </trkpt>
      <trkpt lat="43.50238" lon="5.28058">
        <ele>253.93</ele>
        <time>2022-02-13T13:50:57Z</time>
      </trkpt>
      <trkpt lat="43.50245" lon="5.28074">
        <ele>251.52</ele>
        <time>2022-02-13T13:51:08Z</time>
      </trkpt>
      <trkpt lat="43.50259" lon="5.28103">
        <ele>252.96</ele>
        <time>2022-02-13T13:51:25Z</time>
      </trkpt>
      <trkpt lat="43.50274" lon="5.28129">
        <ele>252.48</ele>
        <time>2022-02-13T13:51:41Z</time>
      </trkpt>
      <trkpt lat="43.50293" lon="5.28145">
        <ele>252.96</ele>
        <time>2022-02-13T13:51:56Z</time>
      </trkpt>
      <trkpt lat="43.50308" lon="5.28155">
        <ele>252</ele>
        <time>2022-02-13T13:52:08Z</time>
      </trkpt>
      <trkpt lat="43.50307" lon="5.2817">
        <ele>251.52</ele>
        <time>2022-02-13T13:52:17Z</time>
      </trkpt>
      <trkpt lat="43.50306" lon="5.28172">
        <ele>252</ele>
        <time>2022-02-13T13:52:18Z</time>
      </trkpt>
      <trkpt lat="43.50304" lon="5.28176">
        <ele>252</ele>
        <time>2022-02-13T13:52:20Z</time>
      </trkpt>
      <trkpt lat="43.50303" lon="5.2819">
        <ele>252</ele>
        <time>2022-02-13T13:52:27Z</time>
      </trkpt>
      <trkpt lat="43.50303" lon="5.28198">
        <ele>251.52</ele>
        <time>2022-02-13T13:52:31Z</time>
      </trkpt>
      <trkpt lat="43.50308" lon="5.28203">
        <ele>251.52</ele>
        <time>2022-02-13T13:52:35Z</time>
      </trkpt>
      <trkpt lat="43.50331" lon="5.28211">
        <ele>250.56</ele>
        <time>2022-02-13T13:52:51Z</time>
      </trkpt>
      <trkpt lat="43.50353" lon="5.28217">
        <ele>249.6</ele>
        <time>2022-02-13T13:53:05Z</time>
      </trkpt>
      <trkpt lat="43.50376" lon="5.28225">
        <ele>248.64</ele>
        <time>2022-02-13T13:53:21Z</time>
      </trkpt>
      <trkpt lat="43.50402" lon="5.28228">
        <ele>246.72</ele>
        <time>2022-02-13T13:53:38Z</time>
      </trkpt>
      <trkpt lat="43.50426" lon="5.28233">
        <ele>248.16</ele>
        <time>2022-02-13T13:53:54Z</time>
      </trkpt>
      <trkpt lat="43.50446" lon="5.28245">
        <ele>251.04</ele>
        <time>2022-02-13T13:54:09Z</time>
      </trkpt>
      <trkpt lat="43.50465" lon="5.28257">
        <ele>252.96</ele>
        <time>2022-02-13T13:54:23Z</time>
      </trkpt>
      <trkpt lat="43.5048" lon="5.28274">
        <ele>253.44</ele>
        <time>2022-02-13T13:54:37Z</time>
      </trkpt>
      <trkpt lat="43.50493" lon="5.2829">
        <ele>253.93</ele>
        <time>2022-02-13T13:54:50Z</time>
      </trkpt>
      <trkpt lat="43.50503" lon="5.28308">
        <ele>255.37</ele>
        <time>2022-02-13T13:55:04Z</time>
      </trkpt>
      <trkpt lat="43.5051" lon="5.28315">
        <ele>256.81</ele>
        <time>2022-02-13T13:55:11Z</time>
      </trkpt>
      <trkpt lat="43.50527" lon="5.28326">
        <ele>257.77</ele>
        <time>2022-02-13T13:55:27Z</time>
      </trkpt>
      <trkpt lat="43.50538" lon="5.28331">
        <ele>257.77</ele>
        <time>2022-02-13T13:55:39Z</time>
      </trkpt>
      <trkpt lat="43.50556" lon="5.28334">
        <ele>256.81</ele>
        <time>2022-02-13T13:55:55Z</time>
      </trkpt>
      <trkpt lat="43.50571" lon="5.28333">
        <ele>257.77</ele>
        <time>2022-02-13T13:56:09Z</time>
      </trkpt>
      <trkpt lat="43.50587" lon="5.28332">
        <ele>259.69</ele>
        <time>2022-02-13T13:56:23Z</time>
      </trkpt>
      <trkpt lat="43.50602" lon="5.2833">
        <ele>261.14</ele>
        <time>2022-02-13T13:56:38Z</time>
      </trkpt>
      <trkpt lat="43.50618" lon="5.2833">
        <ele>264.98</ele>
        <time>2022-02-13T13:56:54Z</time>
      </trkpt>
      <trkpt lat="43.5063" lon="5.2833">
        <ele>265.94</ele>
        <time>2022-02-13T13:57:08Z</time>
      </trkpt>
      <trkpt lat="43.50645" lon="5.28332">
        <ele>266.9</ele>
        <time>2022-02-13T13:57:22Z</time>
      </trkpt>
      <trkpt lat="43.50665" lon="5.28333">
        <ele>260.65</ele>
        <time>2022-02-13T13:57:35Z</time>
      </trkpt>
      <trkpt lat="43.50671" lon="5.28334">
        <ele>258.73</ele>
        <time>2022-02-13T13:57:40Z</time>
      </trkpt>
      <trkpt lat="43.50673" lon="5.28334">
        <ele>258.73</ele>
        <time>2022-02-13T13:57:42Z</time>
      </trkpt>
      <trkpt lat="43.50691" lon="5.28334">
        <ele>255.37</ele>
        <time>2022-02-13T13:57:57Z</time>
      </trkpt>
      <trkpt lat="43.50705" lon="5.28337">
        <ele>254.41</ele>
        <time>2022-02-13T13:58:12Z</time>
      </trkpt>
      <trkpt lat="43.50717" lon="5.28339">
        <ele>256.81</ele>
        <time>2022-02-13T13:58:26Z</time>
      </trkpt>
      <trkpt lat="43.50729" lon="5.28333">
        <ele>261.62</ele>
        <time>2022-02-13T13:58:41Z</time>
      </trkpt>
      <trkpt lat="43.50733" lon="5.28328">
        <ele>260.65</ele>
        <time>2022-02-13T13:58:45Z</time>
      </trkpt>
      <trkpt lat="43.50744" lon="5.28303">
        <ele>260.17</ele>
        <time>2022-02-13T13:59:04Z</time>
      </trkpt>
      <trkpt lat="43.50751" lon="5.28287">
        <ele>259.21</ele>
        <time>2022-02-13T13:59:18Z</time>
      </trkpt>
      <trkpt lat="43.5076" lon="5.28269">
        <ele>261.62</ele>
        <time>2022-02-13T13:59:35Z</time>
      </trkpt>
      <trkpt lat="43.5077" lon="5.28262">
        <ele>263.54</ele>
        <time>2022-02-13T13:59:49Z</time>
      </trkpt>
      <trkpt lat="43.50779" lon="5.28274">
        <ele>262.58</ele>
        <time>2022-02-13T14:00:06Z</time>
      </trkpt>
      <trkpt lat="43.50786" lon="5.28287">
        <ele>262.1</ele>
        <time>2022-02-13T14:00:19Z</time>
      </trkpt>
      <trkpt lat="43.50793" lon="5.28302">
        <ele>261.62</ele>
        <time>2022-02-13T14:00:33Z</time>
      </trkpt>
      <trkpt lat="43.50797" lon="5.28312">
        <ele>262.1</ele>
        <time>2022-02-13T14:00:43Z</time>
      </trkpt>
      <trkpt lat="43.50805" lon="5.28329">
        <ele>262.58</ele>
        <time>2022-02-13T14:01:00Z</time>
      </trkpt>
      <trkpt lat="43.50809" lon="5.28346">
        <ele>264.02</ele>
        <time>2022-02-13T14:01:14Z</time>
      </trkpt>
      <trkpt lat="43.50816" lon="5.28363">
        <ele>263.54</ele>
        <time>2022-02-13T14:01:29Z</time>
      </trkpt>
      <trkpt lat="43.50826" lon="5.28378">
        <ele>262.1</ele>
        <time>2022-02-13T14:01:45Z</time>
      </trkpt>
      <trkpt lat="43.50835" lon="5.28391">
        <ele>258.25</ele>
        <time>2022-02-13T14:01:59Z</time>
      </trkpt>
      <trkpt lat="43.50837" lon="5.28396">
        <ele>258.25</ele>
        <time>2022-02-13T14:02:03Z</time>
      </trkpt>
      <trkpt lat="43.50845" lon="5.28409">
        <ele>256.81</ele>
        <time>2022-02-13T14:02:17Z</time>
      </trkpt>
      <trkpt lat="43.50849" lon="5.28414">
        <ele>255.85</ele>
        <time>2022-02-13T14:02:22Z</time>
      </trkpt>
      <trkpt lat="43.50858" lon="5.28425">
        <ele>253.44</ele>
        <time>2022-02-13T14:02:34Z</time>
      </trkpt>
      <trkpt lat="43.50866" lon="5.28435">
        <ele>252</ele>
        <time>2022-02-13T14:02:47Z</time>
      </trkpt>
      <trkpt lat="43.5088" lon="5.2845">
        <ele>251.04</ele>
        <time>2022-02-13T14:03:04Z</time>
      </trkpt>
      <trkpt lat="43.50885" lon="5.28454">
        <ele>250.56</ele>
        <time>2022-02-13T14:03:11Z</time>
      </trkpt>
      <trkpt lat="43.50889" lon="5.28457">
        <ele>250.08</ele>
        <time>2022-02-13T14:03:15Z</time>
      </trkpt>
      <trkpt lat="43.50893" lon="5.28462">
        <ele>249.6</ele>
        <time>2022-02-13T14:03:20Z</time>
      </trkpt>
      <trkpt lat="43.50894" lon="5.28479">
        <ele>252.96</ele>
        <time>2022-02-13T14:03:34Z</time>
      </trkpt>
      <trkpt lat="43.50894" lon="5.28485">
        <ele>254.41</ele>
        <time>2022-02-13T14:03:39Z</time>
      </trkpt>
      <trkpt lat="43.50894" lon="5.28488">
        <ele>254.89</ele>
        <time>2022-02-13T14:03:41Z</time>
      </trkpt>
      <trkpt lat="43.50898" lon="5.28495">
        <ele>254.89</ele>
        <time>2022-02-13T14:03:46Z</time>
      </trkpt>
      <trkpt lat="43.50902" lon="5.28497">
        <ele>254.41</ele>
        <time>2022-02-13T14:03:50Z</time>
      </trkpt>
      <trkpt lat="43.50908" lon="5.28489">
        <ele>253.44</ele>
        <time>2022-02-13T14:03:59Z</time>
      </trkpt>
      <trkpt lat="43.50908" lon="5.28471">
        <ele>250.56</ele>
        <time>2022-02-13T14:04:13Z</time>
      </trkpt>
      <trkpt lat="43.50903" lon="5.28452">
        <ele>248.16</ele>
        <time>2022-02-13T14:04:30Z</time>
      </trkpt>
      <trkpt lat="43.50899" lon="5.28437">
        <ele>246.72</ele>
        <time>2022-02-13T14:04:43Z</time>
      </trkpt>
      <trkpt lat="43.50892" lon="5.28419">
        <ele>243.83</ele>
        <time>2022-02-13T14:05:00Z</time>
      </trkpt>
      <trkpt lat="43.50888" lon="5.2841">
        <ele>242.39</ele>
        <time>2022-02-13T14:05:07Z</time>
      </trkpt>
      <trkpt lat="43.50882" lon="5.28392">
        <ele>239.51</ele>
        <time>2022-02-13T14:05:21Z</time>
      </trkpt>
      <trkpt lat="43.50877" lon="5.28373">
        <ele>238.06</ele>
        <time>2022-02-13T14:05:36Z</time>
      </trkpt>
      <trkpt lat="43.50876" lon="5.28368">
        <ele>238.54</ele>
        <time>2022-02-13T14:05:40Z</time>
      </trkpt>
      <trkpt lat="43.50872" lon="5.28352">
        <ele>235.66</ele>
        <time>2022-02-13T14:05:51Z</time>
      </trkpt>
      <trkpt lat="43.50871" lon="5.28348">
        <ele>235.18</ele>
        <time>2022-02-13T14:05:54Z</time>
      </trkpt>
      <trkpt lat="43.50869" lon="5.28342">
        <ele>234.7</ele>
        <time>2022-02-13T14:05:58Z</time>
      </trkpt>
      <trkpt lat="43.50866" lon="5.28324">
        <ele>234.7</ele>
        <time>2022-02-13T14:06:12Z</time>
      </trkpt>
      <trkpt lat="43.50862" lon="5.28308">
        <ele>232.78</ele>
        <time>2022-02-13T14:06:24Z</time>
      </trkpt>
      <trkpt lat="43.50858" lon="5.2829">
        <ele>230.85</ele>
        <time>2022-02-13T14:06:38Z</time>
      </trkpt>
      <trkpt lat="43.50854" lon="5.28272">
        <ele>229.41</ele>
        <time>2022-02-13T14:06:51Z</time>
      </trkpt>
      <trkpt lat="43.5085" lon="5.28255">
        <ele>227.49</ele>
        <time>2022-02-13T14:07:06Z</time>
      </trkpt>
      <trkpt lat="43.50847" lon="5.28243">
        <ele>225.57</ele>
        <time>2022-02-13T14:07:16Z</time>
      </trkpt>
      <trkpt lat="43.50842" lon="5.28227">
        <ele>223.64</ele>
        <time>2022-02-13T14:07:28Z</time>
      </trkpt>
      <trkpt lat="43.50838" lon="5.28216">
        <ele>223.16</ele>
        <time>2022-02-13T14:07:37Z</time>
      </trkpt>
      <trkpt lat="43.50832" lon="5.28204">
        <ele>222.68</ele>
        <time>2022-02-13T14:07:47Z</time>
      </trkpt>
      <trkpt lat="43.50826" lon="5.28194">
        <ele>222.2</ele>
        <time>2022-02-13T14:07:56Z</time>
      </trkpt>
      <trkpt lat="43.50816" lon="5.28183">
        <ele>220.76</ele>
        <time>2022-02-13T14:08:09Z</time>
      </trkpt>
      <trkpt lat="43.50813" lon="5.28175">
        <ele>221.24</ele>
        <time>2022-02-13T14:08:15Z</time>
      </trkpt>
      <trkpt lat="43.50802" lon="5.28161">
        <ele>220.76</ele>
        <time>2022-02-13T14:08:30Z</time>
      </trkpt>
      <trkpt lat="43.50792" lon="5.28146">
        <ele>222.2</ele>
        <time>2022-02-13T14:08:43Z</time>
      </trkpt>
      <trkpt lat="43.50784" lon="5.28131">
        <ele>225.57</ele>
        <time>2022-02-13T14:08:59Z</time>
      </trkpt>
      <trkpt lat="43.5078" lon="5.28121">
        <ele>225.09</ele>
        <time>2022-02-13T14:09:05Z</time>
      </trkpt>
      <trkpt lat="43.50769" lon="5.28102">
        <ele>224.12</ele>
        <time>2022-02-13T14:09:20Z</time>
      </trkpt>
      <trkpt lat="43.50762" lon="5.28085">
        <ele>222.68</ele>
        <time>2022-02-13T14:09:36Z</time>
      </trkpt>
      <trkpt lat="43.50762" lon="5.28083">
        <ele>222.2</ele>
        <time>2022-02-13T14:09:37Z</time>
      </trkpt>
      <trkpt lat="43.50756" lon="5.28069">
        <ele>221.24</ele>
        <time>2022-02-13T14:09:51Z</time>
      </trkpt>
      <trkpt lat="43.50755" lon="5.28058">
        <ele>220.76</ele>
        <time>2022-02-13T14:10:01Z</time>
      </trkpt>
      <trkpt lat="43.50757" lon="5.28039">
        <ele>218.36</ele>
        <time>2022-02-13T14:10:15Z</time>
      </trkpt>
      <trkpt lat="43.50762" lon="5.28023">
        <ele>217.4</ele>
        <time>2022-02-13T14:10:28Z</time>
      </trkpt>
      <trkpt lat="43.50765" lon="5.2802">
        <ele>217.4</ele>
        <time>2022-02-13T14:10:32Z</time>
      </trkpt>
      <trkpt lat="43.50775" lon="5.28013">
        <ele>216.91</ele>
        <time>2022-02-13T14:10:46Z</time>
      </trkpt>
      <trkpt lat="43.50783" lon="5.28016">
        <ele>214.99</ele>
        <time>2022-02-13T14:10:58Z</time>
      </trkpt>
      <trkpt lat="43.50789" lon="5.28017">
        <ele>214.99</ele>
        <time>2022-02-13T14:11:04Z</time>
      </trkpt>
      <trkpt lat="43.50801" lon="5.28011">
        <ele>215.47</ele>
        <time>2022-02-13T14:11:18Z</time>
      </trkpt>
      <trkpt lat="43.50807" lon="5.28005">
        <ele>214.99</ele>
        <time>2022-02-13T14:11:26Z</time>
      </trkpt>
      <trkpt lat="43.50813" lon="5.27997">
        <ele>214.99</ele>
        <time>2022-02-13T14:11:42Z</time>
      </trkpt>
      <trkpt lat="43.50818" lon="5.27993">
        <ele>213.55</ele>
        <time>2022-02-13T14:11:57Z</time>
      </trkpt>
      <trkpt lat="43.50831" lon="5.27989">
        <ele>214.51</ele>
        <time>2022-02-13T14:12:13Z</time>
      </trkpt>
      <trkpt lat="43.5084" lon="5.27995">
        <ele>214.03</ele>
        <time>2022-02-13T14:12:27Z</time>
      </trkpt>
      <trkpt lat="43.50843" lon="5.28">
        <ele>214.99</ele>
        <time>2022-02-13T14:12:38Z</time>
      </trkpt>
      <trkpt lat="43.50841" lon="5.28011">
        <ele>216.91</ele>
        <time>2022-02-13T14:12:51Z</time>
      </trkpt>
      <trkpt lat="43.50838" lon="5.28022">
        <ele>215.95</ele>
        <time>2022-02-13T14:13:03Z</time>
      </trkpt>
      <trkpt lat="43.50837" lon="5.28024">
        <ele>215.95</ele>
        <time>2022-02-13T14:13:05Z</time>
      </trkpt>
      <trkpt lat="43.50839" lon="5.28028">
        <ele>215.95</ele>
        <time>2022-02-13T14:13:08Z</time>
      </trkpt>
      <trkpt lat="43.5084" lon="5.28031">
        <ele>215.95</ele>
        <time>2022-02-13T14:13:10Z</time>
      </trkpt>
      <trkpt lat="43.50847" lon="5.28041">
        <ele>214.99</ele>
        <time>2022-02-13T14:13:20Z</time>
      </trkpt>
      <trkpt lat="43.50856" lon="5.2805">
        <ele>211.63</ele>
        <time>2022-02-13T14:13:34Z</time>
      </trkpt>
      <trkpt lat="43.50869" lon="5.28057">
        <ele>211.15</ele>
        <time>2022-02-13T14:13:47Z</time>
      </trkpt>
      <trkpt lat="43.50881" lon="5.28064">
        <ele>209.7</ele>
        <time>2022-02-13T14:14:00Z</time>
      </trkpt>
      <trkpt lat="43.50891" lon="5.2807">
        <ele>209.7</ele>
        <time>2022-02-13T14:14:13Z</time>
      </trkpt>
      <trkpt lat="43.50899" lon="5.28072">
        <ele>209.7</ele>
        <time>2022-02-13T14:14:20Z</time>
      </trkpt>
      <trkpt lat="43.50916" lon="5.28073">
        <ele>208.26</ele>
        <time>2022-02-13T14:14:34Z</time>
      </trkpt>
      <trkpt lat="43.50919" lon="5.28073">
        <ele>208.74</ele>
        <time>2022-02-13T14:14:36Z</time>
      </trkpt>
      <trkpt lat="43.50936" lon="5.28065">
        <ele>210.67</ele>
        <time>2022-02-13T14:14:53Z</time>
      </trkpt>
      <trkpt lat="43.50943" lon="5.28058">
        <ele>212.11</ele>
        <time>2022-02-13T14:15:06Z</time>
      </trkpt>
      <trkpt lat="43.5095" lon="5.28047">
        <ele>212.11</ele>
        <time>2022-02-13T14:15:20Z</time>
      </trkpt>
      <trkpt lat="43.50959" lon="5.28034">
        <ele>213.07</ele>
        <time>2022-02-13T14:15:36Z</time>
      </trkpt>
      <trkpt lat="43.50973" lon="5.28027">
        <ele>214.03</ele>
        <time>2022-02-13T14:15:51Z</time>
      </trkpt>
      <trkpt lat="43.50984" lon="5.28013">
        <ele>212.59</ele>
        <time>2022-02-13T14:16:06Z</time>
      </trkpt>
      <trkpt lat="43.50988" lon="5.28011">
        <ele>212.59</ele>
        <time>2022-02-13T14:16:10Z</time>
      </trkpt>
      <trkpt lat="43.50999" lon="5.28013">
        <ele>211.15</ele>
        <time>2022-02-13T14:16:24Z</time>
      </trkpt>
      <trkpt lat="43.51013" lon="5.28013">
        <ele>211.63</ele>
        <time>2022-02-13T14:16:38Z</time>
      </trkpt>
      <trkpt lat="43.51025" lon="5.28009">
        <ele>211.63</ele>
        <time>2022-02-13T14:16:51Z</time>
      </trkpt>
      <trkpt lat="43.51036" lon="5.28008">
        <ele>212.11</ele>
        <time>2022-02-13T14:17:03Z</time>
      </trkpt>
      <trkpt lat="43.51041" lon="5.28005">
        <ele>211.63</ele>
        <time>2022-02-13T14:17:08Z</time>
      </trkpt>
      <trkpt lat="43.51048" lon="5.27985">
        <ele>209.22</ele>
        <time>2022-02-13T14:17:23Z</time>
      </trkpt>
      <trkpt lat="43.51051" lon="5.27964">
        <ele>210.67</ele>
        <time>2022-02-13T14:17:37Z</time>
      </trkpt>
      <trkpt lat="43.51055" lon="5.27951">
        <ele>213.07</ele>
        <time>2022-02-13T14:17:51Z</time>
      </trkpt>
      <trkpt lat="43.51064" lon="5.27943">
        <ele>214.51</ele>
        <time>2022-02-13T14:18:05Z</time>
      </trkpt>
      <trkpt lat="43.5107" lon="5.27923">
        <ele>216.43</ele>
        <time>2022-02-13T14:18:20Z</time>
      </trkpt>
      <trkpt lat="43.51069" lon="5.27916">
        <ele>215.95</ele>
        <time>2022-02-13T14:18:26Z</time>
      </trkpt>
      <trkpt lat="43.51064" lon="5.27901">
        <ele>214.99</ele>
        <time>2022-02-13T14:18:40Z</time>
      </trkpt>
      <trkpt lat="43.51063" lon="5.27899">
        <ele>214.99</ele>
        <time>2022-02-13T14:18:42Z</time>
      </trkpt>
      <trkpt lat="43.51057" lon="5.27886">
        <ele>213.55</ele>
        <time>2022-02-13T14:18:53Z</time>
      </trkpt>
      <trkpt lat="43.51058" lon="5.27868">
        <ele>215.95</ele>
        <time>2022-02-13T14:19:05Z</time>
      </trkpt>
      <trkpt lat="43.51063" lon="5.27851">
        <ele>214.51</ele>
        <time>2022-02-13T14:19:19Z</time>
      </trkpt>
      <trkpt lat="43.51066" lon="5.27842">
        <ele>213.55</ele>
        <time>2022-02-13T14:19:27Z</time>
      </trkpt>
      <trkpt lat="43.51071" lon="5.27818">
        <ele>213.55</ele>
        <time>2022-02-13T14:19:44Z</time>
      </trkpt>
      <trkpt lat="43.51071" lon="5.27811">
        <ele>213.55</ele>
        <time>2022-02-13T14:19:49Z</time>
      </trkpt>
      <trkpt lat="43.51064" lon="5.27794">
        <ele>212.59</ele>
        <time>2022-02-13T14:20:03Z</time>
      </trkpt>
      <trkpt lat="43.5106" lon="5.27774">
        <ele>214.51</ele>
        <time>2022-02-13T14:20:17Z</time>
      </trkpt>
      <trkpt lat="43.5106" lon="5.27751">
        <ele>214.51</ele>
        <time>2022-02-13T14:20:32Z</time>
      </trkpt>
      <trkpt lat="43.51058" lon="5.27735">
        <ele>213.55</ele>
        <time>2022-02-13T14:20:43Z</time>
      </trkpt>
      <trkpt lat="43.51056" lon="5.2773">
        <ele>213.55</ele>
        <time>2022-02-13T14:20:47Z</time>
      </trkpt>
      <trkpt lat="43.51055" lon="5.27727">
        <ele>213.07</ele>
        <time>2022-02-13T14:20:49Z</time>
      </trkpt>
      <trkpt lat="43.51046" lon="5.27708">
        <ele>213.07</ele>
        <time>2022-02-13T14:21:05Z</time>
      </trkpt>
      <trkpt lat="43.51046" lon="5.27684">
        <ele>214.99</ele>
        <time>2022-02-13T14:21:21Z</time>
      </trkpt>
      <trkpt lat="43.51053" lon="5.27663">
        <ele>216.91</ele>
        <time>2022-02-13T14:21:38Z</time>
      </trkpt>
      <trkpt lat="43.51062" lon="5.27653">
        <ele>217.4</ele>
        <time>2022-02-13T14:21:49Z</time>
      </trkpt>
      <trkpt lat="43.51078" lon="5.27636">
        <ele>216.91</ele>
        <time>2022-02-13T14:22:07Z</time>
      </trkpt>
      <trkpt lat="43.51091" lon="5.27623">
        <ele>214.03</ele>
        <time>2022-02-13T14:22:22Z</time>
      </trkpt>
      <trkpt lat="43.51102" lon="5.27616">
        <ele>213.07</ele>
        <time>2022-02-13T14:22:33Z</time>
      </trkpt>
      <trkpt lat="43.51118" lon="5.27609">
        <ele>211.63</ele>
        <time>2022-02-13T14:22:49Z</time>
      </trkpt>
      <trkpt lat="43.5112" lon="5.27609">
        <ele>211.63</ele>
        <time>2022-02-13T14:22:51Z</time>
      </trkpt>
      <trkpt lat="43.51135" lon="5.27603">
        <ele>212.11</ele>
        <time>2022-02-13T14:23:07Z</time>
      </trkpt>
      <trkpt lat="43.51138" lon="5.27601">
        <ele>212.11</ele>
        <time>2022-02-13T14:23:10Z</time>
      </trkpt>
      <trkpt lat="43.51141" lon="5.27599">
        <ele>212.11</ele>
        <time>2022-02-13T14:23:13Z</time>
      </trkpt>
      <trkpt lat="43.51156" lon="5.27595">
        <ele>208.26</ele>
        <time>2022-02-13T14:23:28Z</time>
      </trkpt>
      <trkpt lat="43.51169" lon="5.27599">
        <ele>204.42</ele>
        <time>2022-02-13T14:23:42Z</time>
      </trkpt>
      <trkpt lat="43.51181" lon="5.27598">
        <ele>201.05</ele>
        <time>2022-02-13T14:23:56Z</time>
      </trkpt>
      <trkpt lat="43.51189" lon="5.27595">
        <ele>199.61</ele>
        <time>2022-02-13T14:24:08Z</time>
      </trkpt>
      <trkpt lat="43.51199" lon="5.27593">
        <ele>199.61</ele>
        <time>2022-02-13T14:24:19Z</time>
      </trkpt>
      <trkpt lat="43.51209" lon="5.27591">
        <ele>199.61</ele>
        <time>2022-02-13T14:24:29Z</time>
      </trkpt>
      <trkpt lat="43.51227" lon="5.27589">
        <ele>198.17</ele>
        <time>2022-02-13T14:24:46Z</time>
      </trkpt>
      <trkpt lat="43.51241" lon="5.27586">
        <ele>194.8</ele>
        <time>2022-02-13T14:25:00Z</time>
      </trkpt>
      <trkpt lat="43.51253" lon="5.27584">
        <ele>191.44</ele>
        <time>2022-02-13T14:25:12Z</time>
      </trkpt>
      <trkpt lat="43.51265" lon="5.27584">
        <ele>188.56</ele>
        <time>2022-02-13T14:25:23Z</time>
      </trkpt>
      <trkpt lat="43.51269" lon="5.27584">
        <ele>187.59</ele>
        <time>2022-02-13T14:25:26Z</time>
      </trkpt>
      <trkpt lat="43.51273" lon="5.27585">
        <ele>186.63</ele>
        <time>2022-02-13T14:25:31Z</time>
      </trkpt>
      <trkpt lat="43.51288" lon="5.27593">
        <ele>182.79</ele>
        <time>2022-02-13T14:25:48Z</time>
      </trkpt>
      <trkpt lat="43.513" lon="5.27598">
        <ele>178.94</ele>
        <time>2022-02-13T14:25:59Z</time>
      </trkpt>
      <trkpt lat="43.51315" lon="5.27601">
        <ele>174.62</ele>
        <time>2022-02-13T14:26:14Z</time>
      </trkpt>
      <trkpt lat="43.51328" lon="5.27605">
        <ele>171.73</ele>
        <time>2022-02-13T14:26:28Z</time>
      </trkpt>
      <trkpt lat="43.51341" lon="5.27608">
        <ele>169.33</ele>
        <time>2022-02-13T14:26:41Z</time>
      </trkpt>
      <trkpt lat="43.51357" lon="5.27613">
        <ele>168.37</ele>
        <time>2022-02-13T14:26:56Z</time>
      </trkpt>
      <trkpt lat="43.51374" lon="5.27615">
        <ele>165.96</ele>
        <time>2022-02-13T14:27:12Z</time>
      </trkpt>
      <trkpt lat="43.51385" lon="5.27617">
        <ele>164.52</ele>
        <time>2022-02-13T14:27:23Z</time>
      </trkpt>
      <trkpt lat="43.51402" lon="5.27629">
        <ele>162.6</ele>
        <time>2022-02-13T14:27:38Z</time>
      </trkpt>
      <trkpt lat="43.51404" lon="5.2763">
        <ele>163.56</ele>
        <time>2022-02-13T14:27:56Z</time>
      </trkpt>
      <trkpt lat="43.51405" lon="5.27632">
        <ele>164.52</ele>
        <time>2022-02-13T14:28:13Z</time>
      </trkpt>
      <trkpt lat="43.51405" lon="5.27635">
        <ele>165.96</ele>
        <time>2022-02-13T14:28:30Z</time>
      </trkpt>
      <trkpt lat="43.51405" lon="5.27634">
        <ele>165</ele>
        <time>2022-02-13T14:28:54Z</time>
      </trkpt>
      <trkpt lat="43.51407" lon="5.27635">
        <ele>165.48</ele>
        <time>2022-02-13T14:29:09Z</time>
      </trkpt>
      <trkpt lat="43.51411" lon="5.27639">
        <ele>163.56</ele>
        <time>2022-02-13T14:29:17Z</time>
      </trkpt>
      <trkpt lat="43.51419" lon="5.2765">
        <ele>162.6</ele>
        <time>2022-02-13T14:29:30Z</time>
      </trkpt>
      <trkpt lat="43.51422" lon="5.27653">
        <ele>161.64</ele>
        <time>2022-02-13T14:29:33Z</time>
      </trkpt>
      <trkpt lat="43.51437" lon="5.27665">
        <ele>159.24</ele>
        <time>2022-02-13T14:29:49Z</time>
      </trkpt>
      <trkpt lat="43.5145" lon="5.27672">
        <ele>159.72</ele>
        <time>2022-02-13T14:30:02Z</time>
      </trkpt>
      <trkpt lat="43.51461" lon="5.27677">
        <ele>159.72</ele>
        <time>2022-02-13T14:30:14Z</time>
      </trkpt>
      <trkpt lat="43.51476" lon="5.27685">
        <ele>158.27</ele>
        <time>2022-02-13T14:30:28Z</time>
      </trkpt>
      <trkpt lat="43.51493" lon="5.27698">
        <ele>158.27</ele>
        <time>2022-02-13T14:30:46Z</time>
      </trkpt>
      <trkpt lat="43.51506" lon="5.2771">
        <ele>159.72</ele>
        <time>2022-02-13T14:31:01Z</time>
      </trkpt>
      <trkpt lat="43.51518" lon="5.2772">
        <ele>159.24</ele>
        <time>2022-02-13T14:31:13Z</time>
      </trkpt>
      <trkpt lat="43.51531" lon="5.27732">
        <ele>157.79</ele>
        <time>2022-02-13T14:31:27Z</time>
      </trkpt>
      <trkpt lat="43.51537" lon="5.27743">
        <ele>158.27</ele>
        <time>2022-02-13T14:31:37Z</time>
      </trkpt>
      <trkpt lat="43.51547" lon="5.27761">
        <ele>159.24</ele>
        <time>2022-02-13T14:31:54Z</time>
      </trkpt>
      <trkpt lat="43.51558" lon="5.27775">
        <ele>157.79</ele>
        <time>2022-02-13T14:32:07Z</time>
      </trkpt>
      <trkpt lat="43.51574" lon="5.27793">
        <ele>155.39</ele>
        <time>2022-02-13T14:32:23Z</time>
      </trkpt>
      <trkpt lat="43.51585" lon="5.2781">
        <ele>156.35</ele>
        <time>2022-02-13T14:32:37Z</time>
      </trkpt>
      <trkpt lat="43.51598" lon="5.27829">
        <ele>154.91</ele>
        <time>2022-02-13T14:32:54Z</time>
      </trkpt>
      <trkpt lat="43.51611" lon="5.27848">
        <ele>153.95</ele>
        <time>2022-02-13T14:33:09Z</time>
      </trkpt>
      <trkpt lat="43.51621" lon="5.27869">
        <ele>155.39</ele>
        <time>2022-02-13T14:33:24Z</time>
      </trkpt>
      <trkpt lat="43.51632" lon="5.27889">
        <ele>152.99</ele>
        <time>2022-02-13T14:33:39Z</time>
      </trkpt>
      <trkpt lat="43.51646" lon="5.27905">
        <ele>151.54</ele>
        <time>2022-02-13T14:33:55Z</time>
      </trkpt>
      <trkpt lat="43.51655" lon="5.27912">
        <ele>150.58</ele>
        <time>2022-02-13T14:34:03Z</time>
      </trkpt>
      <trkpt lat="43.51662" lon="5.27917">
        <ele>150.58</ele>
        <time>2022-02-13T14:34:12Z</time>
      </trkpt>
      <trkpt lat="43.51681" lon="5.2793">
        <ele>150.58</ele>
        <time>2022-02-13T14:34:30Z</time>
      </trkpt>
      <trkpt lat="43.51691" lon="5.2793">
        <ele>149.14</ele>
        <time>2022-02-13T14:34:46Z</time>
      </trkpt>
      <trkpt lat="43.51693" lon="5.27931">
        <ele>148.66</ele>
        <time>2022-02-13T14:35:04Z</time>
      </trkpt>
      <trkpt lat="43.51694" lon="5.2793">
        <ele>148.66</ele>
        <time>2022-02-13T14:35:06Z</time>
      </trkpt>
      <trkpt lat="43.51708" lon="5.27923">
        <ele>149.62</ele>
        <time>2022-02-13T14:35:21Z</time>
      </trkpt>
      <trkpt lat="43.51717" lon="5.27907">
        <ele>150.58</ele>
        <time>2022-02-13T14:35:35Z</time>
      </trkpt>
      <trkpt lat="43.51717" lon="5.27906">
        <ele>151.06</ele>
        <time>2022-02-13T14:35:36Z</time>
      </trkpt>
      <trkpt lat="43.51723" lon="5.27897">
        <ele>152.51</ele>
        <time>2022-02-13T14:35:44Z</time>
      </trkpt>
      <trkpt lat="43.51738" lon="5.27878">
        <ele>154.91</ele>
        <time>2022-02-13T14:36:03Z</time>
      </trkpt>
      <trkpt lat="43.51747" lon="5.27865">
        <ele>155.39</ele>
        <time>2022-02-13T14:36:18Z</time>
      </trkpt>
      <trkpt lat="43.51749" lon="5.27864">
        <ele>155.87</ele>
        <time>2022-02-13T14:36:20Z</time>
      </trkpt>
      <trkpt lat="43.5175" lon="5.27862">
        <ele>155.87</ele>
        <time>2022-02-13T14:36:22Z</time>
      </trkpt>
      <trkpt lat="43.51758" lon="5.27846">
        <ele>156.35</ele>
        <time>2022-02-13T14:36:37Z</time>
      </trkpt>
      <trkpt lat="43.5176" lon="5.27842">
        <ele>156.83</ele>
        <time>2022-02-13T14:36:41Z</time>
      </trkpt>
      <trkpt lat="43.51773" lon="5.27836">
        <ele>157.31</ele>
        <time>2022-02-13T14:36:56Z</time>
      </trkpt>
      <trkpt lat="43.51779" lon="5.27837">
        <ele>157.31</ele>
        <time>2022-02-13T14:37:02Z</time>
      </trkpt>
      <trkpt lat="43.51796" lon="5.27835">
        <ele>156.35</ele>
        <time>2022-02-13T14:37:17Z</time>
      </trkpt>
      <trkpt lat="43.51805" lon="5.27832">
        <ele>156.35</ele>
        <time>2022-02-13T14:37:27Z</time>
      </trkpt>
      <trkpt lat="43.51821" lon="5.27833">
        <ele>156.83</ele>
        <time>2022-02-13T14:37:43Z</time>
      </trkpt>
      <trkpt lat="43.51823" lon="5.27833">
        <ele>156.83</ele>
        <time>2022-02-13T14:37:45Z</time>
      </trkpt>
      <trkpt lat="43.51831" lon="5.27837">
        <ele>156.35</ele>
        <time>2022-02-13T14:37:52Z</time>
      </trkpt>
      <trkpt lat="43.51833" lon="5.27838">
        <ele>156.35</ele>
        <time>2022-02-13T14:37:54Z</time>
      </trkpt>
      <trkpt lat="43.51849" lon="5.27849">
        <ele>157.79</ele>
        <time>2022-02-13T14:38:13Z</time>
      </trkpt>
      <trkpt lat="43.51865" lon="5.27855">
        <ele>158.75</ele>
        <time>2022-02-13T14:38:30Z</time>
      </trkpt>
      <trkpt lat="43.51877" lon="5.27859">
        <ele>159.24</ele>
        <time>2022-02-13T14:38:45Z</time>
      </trkpt>
      <trkpt lat="43.51877" lon="5.2786">
        <ele>158.27</ele>
        <time>2022-02-13T14:39:06Z</time>
      </trkpt>
      <trkpt lat="43.51877" lon="5.27862">
        <ele>157.79</ele>
        <time>2022-02-13T14:39:25Z</time>
      </trkpt>
      <trkpt lat="43.51877" lon="5.2786">
        <ele>159.24</ele>
        <time>2022-02-13T14:39:42Z</time>
      </trkpt>
      <trkpt lat="43.51878" lon="5.27861">
        <ele>158.75</ele>
        <time>2022-02-13T14:40:02Z</time>
      </trkpt>
      <trkpt lat="43.51879" lon="5.27859">
        <ele>158.75</ele>
        <time>2022-02-13T14:40:13Z</time>
      </trkpt>
      <trkpt lat="43.51879" lon="5.2786">
        <ele>159.72</ele>
        <time>2022-02-13T14:40:27Z</time>
      </trkpt>
      <trkpt lat="43.51882" lon="5.27858">
        <ele>160.2</ele>
        <time>2022-02-13T14:40:44Z</time>
      </trkpt>
      <trkpt lat="43.51894" lon="5.27856">
        <ele>157.79</ele>
        <time>2022-02-13T14:40:58Z</time>
      </trkpt>
      <trkpt lat="43.51909" lon="5.2786">
        <ele>155.87</ele>
        <time>2022-02-13T14:41:13Z</time>
      </trkpt>
      <trkpt lat="43.51913" lon="5.27859">
        <ele>156.35</ele>
        <time>2022-02-13T14:41:17Z</time>
      </trkpt>
      <trkpt lat="43.51919" lon="5.27856">
        <ele>156.83</ele>
        <time>2022-02-13T14:41:23Z</time>
      </trkpt>
      <trkpt lat="43.5193" lon="5.27851">
        <ele>158.75</ele>
        <time>2022-02-13T14:41:36Z</time>
      </trkpt>
      <trkpt lat="43.51943" lon="5.27837">
        <ele>161.16</ele>
        <time>2022-02-13T14:41:53Z</time>
      </trkpt>
      <trkpt lat="43.51954" lon="5.27832">
        <ele>163.08</ele>
        <time>2022-02-13T14:42:08Z</time>
      </trkpt>
      <trkpt lat="43.51964" lon="5.27823">
        <ele>165.96</ele>
        <time>2022-02-13T14:42:22Z</time>
      </trkpt>
      <trkpt lat="43.51974" lon="5.27809">
        <ele>170.29</ele>
        <time>2022-02-13T14:42:37Z</time>
      </trkpt>
      <trkpt lat="43.51985" lon="5.2779">
        <ele>172.69</ele>
        <time>2022-02-13T14:42:55Z</time>
      </trkpt>
      <trkpt lat="43.51992" lon="5.27777">
        <ele>177.02</ele>
        <time>2022-02-13T14:43:10Z</time>
      </trkpt>
      <trkpt lat="43.52001" lon="5.27762">
        <ele>181.83</ele>
        <time>2022-02-13T14:43:26Z</time>
      </trkpt>
      <trkpt lat="43.5201" lon="5.27744">
        <ele>181.83</ele>
        <time>2022-02-13T14:43:41Z</time>
      </trkpt>
      <trkpt lat="43.52019" lon="5.27725">
        <ele>175.1</ele>
        <time>2022-02-13T14:43:54Z</time>
      </trkpt>
      <trkpt lat="43.52033" lon="5.27701">
        <ele>168.85</ele>
        <time>2022-02-13T14:44:09Z</time>
      </trkpt>
      <trkpt lat="43.52039" lon="5.27687">
        <ele>170.77</ele>
        <time>2022-02-13T14:44:23Z</time>
      </trkpt>
      <trkpt lat="43.52046" lon="5.27677">
        <ele>173.66</ele>
        <time>2022-02-13T14:44:33Z</time>
      </trkpt>
      <trkpt lat="43.52051" lon="5.27662">
        <ele>176.54</ele>
        <time>2022-02-13T14:44:48Z</time>
      </trkpt>
      <trkpt lat="43.52059" lon="5.27644">
        <ele>180.38</ele>
        <time>2022-02-13T14:45:05Z</time>
      </trkpt>
      <trkpt lat="43.52062" lon="5.27633">
        <ele>180.87</ele>
        <time>2022-02-13T14:45:13Z</time>
      </trkpt>
      <trkpt lat="43.52068" lon="5.27613">
        <ele>178.94</ele>
        <time>2022-02-13T14:45:28Z</time>
      </trkpt>
      <trkpt lat="43.52082" lon="5.27597">
        <ele>174.14</ele>
        <time>2022-02-13T14:45:42Z</time>
      </trkpt>
      <trkpt lat="43.52089" lon="5.27577">
        <ele>172.69</ele>
        <time>2022-02-13T14:45:55Z</time>
      </trkpt>
      <trkpt lat="43.52094" lon="5.27566">
        <ele>175.58</ele>
        <time>2022-02-13T14:46:05Z</time>
      </trkpt>
      <trkpt lat="43.52097" lon="5.27558">
        <ele>176.06</ele>
        <time>2022-02-13T14:46:10Z</time>
      </trkpt>
      <trkpt lat="43.52106" lon="5.27537">
        <ele>170.77</ele>
        <time>2022-02-13T14:46:25Z</time>
      </trkpt>
      <trkpt lat="43.52106" lon="5.27536">
        <ele>170.77</ele>
        <time>2022-02-13T14:46:26Z</time>
      </trkpt>
      <trkpt lat="43.52108" lon="5.27527">
        <ele>170.29</ele>
        <time>2022-02-13T14:46:31Z</time>
      </trkpt>
      <trkpt lat="43.52109" lon="5.27517">
        <ele>169.33</ele>
        <time>2022-02-13T14:46:38Z</time>
      </trkpt>
      <trkpt lat="43.52118" lon="5.27487">
        <ele>157.79</ele>
        <time>2022-02-13T14:46:52Z</time>
      </trkpt>
      <trkpt lat="43.52125" lon="5.27463">
        <ele>146.26</ele>
        <time>2022-02-13T14:47:05Z</time>
      </trkpt>
      <trkpt lat="43.52135" lon="5.27439">
        <ele>139.53</ele>
        <time>2022-02-13T14:47:24Z</time>
      </trkpt>
      <trkpt lat="43.52144" lon="5.27423">
        <ele>139.53</ele>
        <time>2022-02-13T14:47:37Z</time>
      </trkpt>
      <trkpt lat="43.52161" lon="5.27401">
        <ele>136.64</ele>
        <time>2022-02-13T14:47:59Z</time>
      </trkpt>
      <trkpt lat="43.52165" lon="5.27393">
        <ele>138.09</ele>
        <time>2022-02-13T14:48:07Z</time>
      </trkpt>
      <trkpt lat="43.5217" lon="5.27372">
        <ele>140.49</ele>
        <time>2022-02-13T14:48:23Z</time>
      </trkpt>
      <trkpt lat="43.52172" lon="5.27349">
        <ele>140.97</ele>
        <time>2022-02-13T14:48:40Z</time>
      </trkpt>
      <trkpt lat="43.52177" lon="5.27325">
        <ele>139.05</ele>
        <time>2022-02-13T14:48:58Z</time>
      </trkpt>
      <trkpt lat="43.5218" lon="5.27317">
        <ele>139.05</ele>
        <time>2022-02-13T14:49:04Z</time>
      </trkpt>
      <trkpt lat="43.52183" lon="5.27311">
        <ele>139.05</ele>
        <time>2022-02-13T14:49:10Z</time>
      </trkpt>
      <trkpt lat="43.52187" lon="5.27294">
        <ele>141.45</ele>
        <time>2022-02-13T14:49:24Z</time>
      </trkpt>
      <trkpt lat="43.52195" lon="5.27275">
        <ele>141.93</ele>
        <time>2022-02-13T14:49:41Z</time>
      </trkpt>
      <trkpt lat="43.52201" lon="5.2726">
        <ele>140.49</ele>
        <time>2022-02-13T14:49:55Z</time>
      </trkpt>
      <trkpt lat="43.52209" lon="5.27251">
        <ele>140.01</ele>
        <time>2022-02-13T14:50:11Z</time>
      </trkpt>
      <trkpt lat="43.52218" lon="5.27237">
        <ele>140.49</ele>
        <time>2022-02-13T14:50:25Z</time>
      </trkpt>
      <trkpt lat="43.52228" lon="5.27219">
        <ele>142.41</ele>
        <time>2022-02-13T14:50:40Z</time>
      </trkpt>
      <trkpt lat="43.52233" lon="5.27202">
        <ele>140.97</ele>
        <time>2022-02-13T14:50:56Z</time>
      </trkpt>
      <trkpt lat="43.52243" lon="5.27185">
        <ele>140.97</ele>
        <time>2022-02-13T14:51:12Z</time>
      </trkpt>
      <trkpt lat="43.52252" lon="5.2717">
        <ele>140.97</ele>
        <time>2022-02-13T14:51:27Z</time>
      </trkpt>
      <trkpt lat="43.52264" lon="5.27156">
        <ele>142.41</ele>
        <time>2022-02-13T14:51:43Z</time>
      </trkpt>
      <trkpt lat="43.52271" lon="5.27143">
        <ele>147.22</ele>
        <time>2022-02-13T14:52:01Z</time>
      </trkpt>
      <trkpt lat="43.5228" lon="5.27134">
        <ele>152.99</ele>
        <time>2022-02-13T14:52:15Z</time>
      </trkpt>
      <trkpt lat="43.52288" lon="5.27123">
        <ele>158.75</ele>
        <time>2022-02-13T14:52:31Z</time>
      </trkpt>
      <trkpt lat="43.52299" lon="5.27111">
        <ele>165</ele>
        <time>2022-02-13T14:52:50Z</time>
      </trkpt>
      <trkpt lat="43.52312" lon="5.27104">
        <ele>160.68</ele>
        <time>2022-02-13T14:53:02Z</time>
      </trkpt>
      <trkpt lat="43.52328" lon="5.27081">
        <ele>154.43</ele>
        <time>2022-02-13T14:53:19Z</time>
      </trkpt>
      <trkpt lat="43.52336" lon="5.27069">
        <ele>155.87</ele>
        <time>2022-02-13T14:53:33Z</time>
      </trkpt>
      <trkpt lat="43.52344" lon="5.27053">
        <ele>156.35</ele>
        <time>2022-02-13T14:53:47Z</time>
      </trkpt>
      <trkpt lat="43.52354" lon="5.27041">
        <ele>158.27</ele>
        <time>2022-02-13T14:54:02Z</time>
      </trkpt>
      <trkpt lat="43.52369" lon="5.27034">
        <ele>160.2</ele>
        <time>2022-02-13T14:54:20Z</time>
      </trkpt>
      <trkpt lat="43.52383" lon="5.27026">
        <ele>160.68</ele>
        <time>2022-02-13T14:54:34Z</time>
      </trkpt>
      <trkpt lat="43.524" lon="5.27014">
        <ele>158.27</ele>
        <time>2022-02-13T14:54:50Z</time>
      </trkpt>
      <trkpt lat="43.52416" lon="5.27008">
        <ele>154.91</ele>
        <time>2022-02-13T14:55:05Z</time>
      </trkpt>
      <trkpt lat="43.52431" lon="5.27002">
        <ele>147.22</ele>
        <time>2022-02-13T14:55:16Z</time>
      </trkpt>
      <trkpt lat="43.52441" lon="5.27012">
        <ele>143.37</ele>
        <time>2022-02-13T14:55:28Z</time>
      </trkpt>
      <trkpt lat="43.52455" lon="5.27024">
        <ele>140.97</ele>
        <time>2022-02-13T14:55:42Z</time>
      </trkpt>
      <trkpt lat="43.52472" lon="5.27039">
        <ele>138.09</ele>
        <time>2022-02-13T14:55:56Z</time>
      </trkpt>
      <trkpt lat="43.52488" lon="5.27045">
        <ele>134.24</ele>
        <time>2022-02-13T14:56:10Z</time>
      </trkpt>
      <trkpt lat="43.52504" lon="5.27051">
        <ele>132.32</ele>
        <time>2022-02-13T14:56:26Z</time>
      </trkpt>
      <trkpt lat="43.52517" lon="5.27053">
        <ele>132.32</ele>
        <time>2022-02-13T14:56:40Z</time>
      </trkpt>
      <trkpt lat="43.52534" lon="5.27058">
        <ele>131.84</ele>
        <time>2022-02-13T14:56:55Z</time>
      </trkpt>
      <trkpt lat="43.52536" lon="5.27059">
        <ele>131.36</ele>
        <time>2022-02-13T14:56:57Z</time>
      </trkpt>
      <trkpt lat="43.52553" lon="5.27067">
        <ele>129.43</ele>
        <time>2022-02-13T14:57:13Z</time>
      </trkpt>
      <trkpt lat="43.5257" lon="5.27072">
        <ele>127.51</ele>
        <time>2022-02-13T14:57:29Z</time>
      </trkpt>
      <trkpt lat="43.52583" lon="5.27079">
        <ele>127.03</ele>
        <time>2022-02-13T14:57:42Z</time>
      </trkpt>
      <trkpt lat="43.52585" lon="5.27079">
        <ele>127.51</ele>
        <time>2022-02-13T14:57:44Z</time>
      </trkpt>
      <trkpt lat="43.52602" lon="5.27084">
        <ele>128.95</ele>
        <time>2022-02-13T14:58:01Z</time>
      </trkpt>
      <trkpt lat="43.52616" lon="5.27089">
        <ele>128.47</ele>
        <time>2022-02-13T14:58:17Z</time>
      </trkpt>
      <trkpt lat="43.52636" lon="5.27092">
        <ele>129.43</ele>
        <time>2022-02-13T14:58:36Z</time>
      </trkpt>
      <trkpt lat="43.5265" lon="5.27096">
        <ele>131.36</ele>
        <time>2022-02-13T14:58:51Z</time>
      </trkpt>
      <trkpt lat="43.52659" lon="5.271">
        <ele>131.36</ele>
        <time>2022-02-13T14:58:59Z</time>
      </trkpt>
      <trkpt lat="43.52662" lon="5.271">
        <ele>131.36</ele>
        <time>2022-02-13T14:59:01Z</time>
      </trkpt>
      <trkpt lat="43.52671" lon="5.27102">
        <ele>128.47</ele>
        <time>2022-02-13T14:59:08Z</time>
      </trkpt>
      <trkpt lat="43.52673" lon="5.27103">
        <ele>127.99</ele>
        <time>2022-02-13T14:59:10Z</time>
      </trkpt>
      <trkpt lat="43.52689" lon="5.27109">
        <ele>122.71</ele>
        <time>2022-02-13T14:59:26Z</time>
      </trkpt>
      <trkpt lat="43.52704" lon="5.27113">
        <ele>121.26</ele>
        <time>2022-02-13T14:59:42Z</time>
      </trkpt>
      <trkpt lat="43.5272" lon="5.27121">
        <ele>118.38</ele>
        <time>2022-02-13T14:59:57Z</time>
      </trkpt>
      <trkpt lat="43.52731" lon="5.27128">
        <ele>116.94</ele>
        <time>2022-02-13T15:00:10Z</time>
      </trkpt>
      <trkpt lat="43.52744" lon="5.27144">
        <ele>115.98</ele>
        <time>2022-02-13T15:00:26Z</time>
      </trkpt>
      <trkpt lat="43.52757" lon="5.27162">
        <ele>115.5</ele>
        <time>2022-02-13T15:00:43Z</time>
      </trkpt>
      <trkpt lat="43.52759" lon="5.27164">
        <ele>115.5</ele>
        <time>2022-02-13T15:00:45Z</time>
      </trkpt>
      <trkpt lat="43.5276" lon="5.27167">
        <ele>115.5</ele>
        <time>2022-02-13T15:00:47Z</time>
      </trkpt>
      <trkpt lat="43.52773" lon="5.27178">
        <ele>113.09</ele>
        <time>2022-02-13T15:01:03Z</time>
      </trkpt>
      <trkpt lat="43.52787" lon="5.27186">
        <ele>112.61</ele>
        <time>2022-02-13T15:01:19Z</time>
      </trkpt>
      <trkpt lat="43.52801" lon="5.27193">
        <ele>111.65</ele>
        <time>2022-02-13T15:01:35Z</time>
      </trkpt>
      <trkpt lat="43.52814" lon="5.27201">
        <ele>109.25</ele>
        <time>2022-02-13T15:01:49Z</time>
      </trkpt>
      <trkpt lat="43.52818" lon="5.27205">
        <ele>108.77</ele>
        <time>2022-02-13T15:01:54Z</time>
      </trkpt>
      <trkpt lat="43.52836" lon="5.27212">
        <ele>106.36</ele>
        <time>2022-02-13T15:02:12Z</time>
      </trkpt>
      <trkpt lat="43.52851" lon="5.27222">
        <ele>105.88</ele>
        <time>2022-02-13T15:02:28Z</time>
      </trkpt>
      <trkpt lat="43.52867" lon="5.27232">
        <ele>106.84</ele>
        <time>2022-02-13T15:02:44Z</time>
      </trkpt>
      <trkpt lat="43.52868" lon="5.27233">
        <ele>107.32</ele>
        <time>2022-02-13T15:02:45Z</time>
      </trkpt>
      <trkpt lat="43.5287" lon="5.27238">
        <ele>107.32</ele>
        <time>2022-02-13T15:02:49Z</time>
      </trkpt>
      <trkpt lat="43.52877" lon="5.27253">
        <ele>108.77</ele>
        <time>2022-02-13T15:03:03Z</time>
      </trkpt>
      <trkpt lat="43.52884" lon="5.27266">
        <ele>109.25</ele>
        <time>2022-02-13T15:03:17Z</time>
      </trkpt>
      <trkpt lat="43.5289" lon="5.27282">
        <ele>109.73</ele>
        <time>2022-02-13T15:03:32Z</time>
      </trkpt>
      <trkpt lat="43.52895" lon="5.27296">
        <ele>112.13</ele>
        <time>2022-02-13T15:03:47Z</time>
      </trkpt>
      <trkpt lat="43.52906" lon="5.27305">
        <ele>113.57</ele>
        <time>2022-02-13T15:04:03Z</time>
      </trkpt>
      <trkpt lat="43.52918" lon="5.27306">
        <ele>119.82</ele>
        <time>2022-02-13T15:04:20Z</time>
      </trkpt>
      <trkpt lat="43.52933" lon="5.27302">
        <ele>128.95</ele>
        <time>2022-02-13T15:04:39Z</time>
      </trkpt>
      <trkpt lat="43.52948" lon="5.27289">
        <ele>127.99</ele>
        <time>2022-02-13T15:04:54Z</time>
      </trkpt>
      <trkpt lat="43.52956" lon="5.2728">
        <ele>125.11</ele>
        <time>2022-02-13T15:05:12Z</time>
      </trkpt>
      <trkpt lat="43.52967" lon="5.27288">
        <ele>123.67</ele>
        <time>2022-02-13T15:05:27Z</time>
      </trkpt>
      <trkpt lat="43.5298" lon="5.27294">
        <ele>122.71</ele>
        <time>2022-02-13T15:05:42Z</time>
      </trkpt>
      <trkpt lat="43.52993" lon="5.27295">
        <ele>119.34</ele>
        <time>2022-02-13T15:05:57Z</time>
      </trkpt>
      <trkpt lat="43.53003" lon="5.2729">
        <ele>115.5</ele>
        <time>2022-02-13T15:06:12Z</time>
      </trkpt>
      <trkpt lat="43.5301" lon="5.27282">
        <ele>109.25</ele>
        <time>2022-02-13T15:06:25Z</time>
      </trkpt>
      <trkpt lat="43.53007" lon="5.27272">
        <ele>104.92</ele>
        <time>2022-02-13T15:06:39Z</time>
      </trkpt>
      <trkpt lat="43.53005" lon="5.27268">
        <ele>103.96</ele>
        <time>2022-02-13T15:06:50Z</time>
      </trkpt>
      <trkpt lat="43.53001" lon="5.27256">
        <ele>100.6</ele>
        <time>2022-02-13T15:06:58Z</time>
      </trkpt>
      <trkpt lat="43.53" lon="5.27255">
        <ele>100.11</ele>
        <time>2022-02-13T15:06:59Z</time>
      </trkpt>
      <trkpt lat="43.52999" lon="5.27253">
        <ele>99.63</ele>
        <time>2022-02-13T15:07:01Z</time>
      </trkpt>
      <trkpt lat="43.52995" lon="5.27245">
        <ele>98.67</ele>
        <time>2022-02-13T15:07:07Z</time>
      </trkpt>
      <trkpt lat="43.53" lon="5.27234">
        <ele>98.19</ele>
        <time>2022-02-13T15:07:17Z</time>
      </trkpt>
      <trkpt lat="43.53001" lon="5.27233">
        <ele>98.19</ele>
        <time>2022-02-13T15:07:18Z</time>
      </trkpt>
      <trkpt lat="43.53009" lon="5.27228">
        <ele>98.67</ele>
        <time>2022-02-13T15:07:26Z</time>
      </trkpt>
      <trkpt lat="43.53016" lon="5.27225">
        <ele>99.15</ele>
        <time>2022-02-13T15:07:33Z</time>
      </trkpt>
      <trkpt lat="43.53029" lon="5.27219">
        <ele>99.63</ele>
        <time>2022-02-13T15:07:46Z</time>
      </trkpt>
      <trkpt lat="43.53042" lon="5.27215">
        <ele>98.67</ele>
        <time>2022-02-13T15:07:58Z</time>
      </trkpt>
      <trkpt lat="43.53054" lon="5.2721">
        <ele>98.67</ele>
        <time>2022-02-13T15:08:09Z</time>
      </trkpt>
      <trkpt lat="43.53056" lon="5.27209">
        <ele>98.67</ele>
        <time>2022-02-13T15:08:11Z</time>
      </trkpt>
      <trkpt lat="43.53068" lon="5.27202">
        <ele>99.63</ele>
        <time>2022-02-13T15:08:23Z</time>
      </trkpt>
      <trkpt lat="43.53075" lon="5.27199">
        <ele>100.11</ele>
        <time>2022-02-13T15:08:31Z</time>
      </trkpt>
      <trkpt lat="43.53087" lon="5.272">
        <ele>99.63</ele>
        <time>2022-02-13T15:08:43Z</time>
      </trkpt>
      <trkpt lat="43.53097" lon="5.272">
        <ele>97.71</ele>
        <time>2022-02-13T15:08:54Z</time>
      </trkpt>
      <trkpt lat="43.53098" lon="5.27198">
        <ele>97.23</ele>
        <time>2022-02-13T15:08:57Z</time>
      </trkpt>
      <trkpt lat="43.53102" lon="5.272">
        <ele>96.75</ele>
        <time>2022-02-13T15:09:02Z</time>
      </trkpt>
      <trkpt lat="43.53109" lon="5.27197">
        <ele>95.31</ele>
        <time>2022-02-13T15:09:13Z</time>
      </trkpt>
      <trkpt lat="43.53117" lon="5.27192">
        <ele>94.35</ele>
        <time>2022-02-13T15:09:25Z</time>
      </trkpt>
      <trkpt lat="43.5312" lon="5.27191">
        <ele>93.87</ele>
        <time>2022-02-13T15:09:28Z</time>
      </trkpt>
      <trkpt lat="43.53123" lon="5.27191">
        <ele>93.39</ele>
        <time>2022-02-13T15:09:31Z</time>
      </trkpt>
      <trkpt lat="43.53125" lon="5.2719">
        <ele>92.9</ele>
        <time>2022-02-13T15:09:33Z</time>
      </trkpt>
      <trkpt lat="43.53132" lon="5.27189">
        <ele>91.94</ele>
        <time>2022-02-13T15:09:39Z</time>
      </trkpt>
      <trkpt lat="43.53134" lon="5.27189">
        <ele>91.46</ele>
        <time>2022-02-13T15:09:42Z</time>
      </trkpt>
      <trkpt lat="43.53143" lon="5.27187">
        <ele>91.46</ele>
        <time>2022-02-13T15:09:54Z</time>
      </trkpt>
      <trkpt lat="43.53152" lon="5.27183">
        <ele>91.46</ele>
        <time>2022-02-13T15:10:03Z</time>
      </trkpt>
      <trkpt lat="43.53157" lon="5.27173">
        <ele>89.54</ele>
        <time>2022-02-13T15:10:12Z</time>
      </trkpt>
      <trkpt lat="43.53158" lon="5.27172">
        <ele>89.54</ele>
        <time>2022-02-13T15:10:13Z</time>
      </trkpt>
      <trkpt lat="43.53166" lon="5.27161">
        <ele>90.02</ele>
        <time>2022-02-13T15:10:24Z</time>
      </trkpt>
      <trkpt lat="43.53174" lon="5.27154">
        <ele>89.54</ele>
        <time>2022-02-13T15:10:34Z</time>
      </trkpt>
      <trkpt lat="43.53176" lon="5.27153">
        <ele>89.54</ele>
        <time>2022-02-13T15:10:36Z</time>
      </trkpt>
      <trkpt lat="43.53186" lon="5.27148">
        <ele>90.98</ele>
        <time>2022-02-13T15:10:47Z</time>
      </trkpt>
      <trkpt lat="43.53187" lon="5.27147">
        <ele>91.46</ele>
        <time>2022-02-13T15:10:48Z</time>
      </trkpt>
      <trkpt lat="43.53195" lon="5.27141">
        <ele>91.94</ele>
        <time>2022-02-13T15:10:57Z</time>
      </trkpt>
      <trkpt lat="43.53202" lon="5.27131">
        <ele>90.98</ele>
        <time>2022-02-13T15:11:07Z</time>
      </trkpt>
      <trkpt lat="43.53207" lon="5.27121">
        <ele>93.39</ele>
        <time>2022-02-13T15:11:20Z</time>
      </trkpt>
      <trkpt lat="43.53218" lon="5.2711">
        <ele>93.39</ele>
        <time>2022-02-13T15:11:33Z</time>
      </trkpt>
      <trkpt lat="43.53219" lon="5.27108">
        <ele>92.9</ele>
        <time>2022-02-13T15:11:35Z</time>
      </trkpt>
      <trkpt lat="43.53223" lon="5.27103">
        <ele>93.39</ele>
        <time>2022-02-13T15:11:41Z</time>
      </trkpt>
      <trkpt lat="43.5323" lon="5.27095">
        <ele>94.35</ele>
        <time>2022-02-13T15:11:52Z</time>
      </trkpt>
      <trkpt lat="43.53235" lon="5.27086">
        <ele>93.87</ele>
        <time>2022-02-13T15:12:03Z</time>
      </trkpt>
      <trkpt lat="43.5324" lon="5.27067">
        <ele>91.94</ele>
        <time>2022-02-13T15:12:17Z</time>
      </trkpt>
      <trkpt lat="43.53252" lon="5.27066">
        <ele>89.06</ele>
        <time>2022-02-13T15:12:32Z</time>
      </trkpt>
      <trkpt lat="43.5326" lon="5.27066">
        <ele>90.02</ele>
        <time>2022-02-13T15:12:40Z</time>
      </trkpt>
      <trkpt lat="43.53271" lon="5.2707">
        <ele>90.02</ele>
        <time>2022-02-13T15:12:53Z</time>
      </trkpt>
      <trkpt lat="43.53281" lon="5.27062">
        <ele>89.54</ele>
        <time>2022-02-13T15:13:04Z</time>
      </trkpt>
      <trkpt lat="43.53294" lon="5.27063">
        <ele>90.98</ele>
        <time>2022-02-13T15:13:16Z</time>
      </trkpt>
      <trkpt lat="43.53305" lon="5.27062">
        <ele>93.87</ele>
        <time>2022-02-13T15:13:28Z</time>
      </trkpt>
      <trkpt lat="43.53317" lon="5.2706">
        <ele>94.83</ele>
        <time>2022-02-13T15:13:40Z</time>
      </trkpt>
      <trkpt lat="43.5332" lon="5.2706">
        <ele>94.35</ele>
        <time>2022-02-13T15:13:42Z</time>
      </trkpt>
      <trkpt lat="43.53332" lon="5.27053">
        <ele>93.87</ele>
        <time>2022-02-13T15:13:55Z</time>
      </trkpt>
      <trkpt lat="43.5334" lon="5.27051">
        <ele>94.35</ele>
        <time>2022-02-13T15:14:05Z</time>
      </trkpt>
      <trkpt lat="43.53348" lon="5.27048">
        <ele>95.31</ele>
        <time>2022-02-13T15:14:18Z</time>
      </trkpt>
      <trkpt lat="43.53353" lon="5.27048">
        <ele>96.75</ele>
        <time>2022-02-13T15:14:30Z</time>
      </trkpt>
      <trkpt lat="43.53358" lon="5.27053">
        <ele>96.75</ele>
        <time>2022-02-13T15:14:45Z</time>
      </trkpt>
      <trkpt lat="43.53373" lon="5.27055">
        <ele>89.06</ele>
        <time>2022-02-13T15:14:54Z</time>
      </trkpt>
      <trkpt lat="43.53378" lon="5.27046">
        <ele>88.58</ele>
        <time>2022-02-13T15:15:06Z</time>
      </trkpt>
      <trkpt lat="43.53378" lon="5.27045">
        <ele>88.58</ele>
        <time>2022-02-13T15:15:18Z</time>
      </trkpt>
    </trkseg>
  </trk>
</gpx>